Provisional Data: Susquehanna River at Kirkwood, NY


Please select a monitoring station.
Please select start date.
Please select start date.

Toggle Unit: C/F Toggle Unit: C/F
Sample Time Temperature (C) Temperature (F) Specific Conductivity (mS/cm) pH   Turbidity (NTU+) DO (mg/L)
12/23/2022 12:00:00 AM 0.87 33.566 0.224 7.46 7.19 13.82
12/23/2022 12:15:00 AM 0.89 33.602 0.225 7.47 7.19 13.82
12/23/2022 12:30:00 AM 0.91 33.638 0.226 7.46 8.42 13.8
12/23/2022 12:45:00 AM 0.93 33.674 0.229 7.46 9.35 13.79
12/23/2022 1:00:00 AM 0.96 33.728 0.23 7.46 10.63 13.78
12/23/2022 1:15:00 AM 0.98 33.764 0.231 7.45 11.65 13.77
12/23/2022 1:30:00 AM 1 33.8 0.233 7.45 12.95 13.77
12/23/2022 1:45:00 AM 1.01 33.818 0.234 7.45 16.14 13.76
12/23/2022 2:00:00 AM 1.04 33.872 0.235 7.45 19.12 13.75
12/23/2022 2:15:00 AM 1.06 33.908 0.235 7.45 20.56 13.74
12/23/2022 2:30:00 AM 1.09 33.962 0.235 7.45 24.92 13.72
12/23/2022 2:45:00 AM 1.11 33.998 0.234 7.43 29.11 13.72
12/23/2022 3:00:00 AM 1.13 34.034 0.234 7.44 37.97 13.71
12/23/2022 3:15:00 AM 1.15 34.07 0.234 7.42 43.64 13.7
12/23/2022 3:30:00 AM 1.16 34.088 0.232 7.42 47.67 13.7
12/23/2022 3:45:00 AM 1.17 34.106 0.231 7.42 56.64 13.69
12/23/2022 4:00:00 AM 1.19 34.142 0.229 7.41 59.84 13.68
12/23/2022 4:15:00 AM 1.21 34.178 0.228 7.41 54.55 13.67
12/23/2022 4:30:00 AM 1.22 34.196 0.225 7.41 55.81 13.67
12/23/2022 4:45:00 AM 1.24 34.232 0.223 7.4 67.06 13.66
12/23/2022 5:00:00 AM 1.25 34.25 0.22 7.39 64.51 13.64
12/23/2022 5:15:00 AM 1.27 34.286 0.217 7.39 66.16 13.64
12/23/2022 5:30:00 AM 1.29 34.322 0.214 7.4 73.09 13.62
12/23/2022 5:45:00 AM 1.3 34.34 0.212 7.39 58.8 13.61
12/23/2022 6:00:00 AM 1.31 34.358 0.209 7.4 54.89 13.59
12/23/2022 6:15:00 AM 1.32 34.376 0.207 7.4 52.61 13.59
12/23/2022 6:30:00 AM 1.33 34.394 0.204 7.39 50.92 13.57
12/23/2022 6:45:00 AM 1.34 34.412 0.201 7.39 44.21 13.57
12/23/2022 7:00:00 AM 1.36 34.448 0.198 7.39 55.24 13.55
12/23/2022 7:15:00 AM 1.36 34.448 0.196 7.39 62.37 13.54
12/23/2022 7:30:00 AM 1.37 34.466 0.193 7.37 46.04 13.53
12/23/2022 7:45:00 AM 1.36 34.448 0.191 7.38 35.75 13.51
12/23/2022 8:00:00 AM 1.35 34.43 0.188 7.38 47.41 13.51
12/23/2022 8:15:00 AM 1.35 34.43 0.186 7.38 52.66 13.5
12/23/2022 8:30:00 AM 1.36 34.448 0.184 7.37 50.43 13.49
12/23/2022 8:45:00 AM 1.37 34.466 0.183 7.37 86.52 13.47
12/23/2022 9:00:00 AM 1.39 34.502 0.182 7.38 50.29 13.47
12/23/2022 9:15:00 AM 1.4 34.52 0.18 7.37 55.08 13.45
12/23/2022 9:30:00 AM 1.42 34.556 0.179 7.37 52.57 13.44
12/23/2022 9:45:00 AM 1.43 34.574 0.179 7.35 62.55 13.43
12/23/2022 10:00:00 AM 1.44 34.592 0.178 7.36 58.2 13.43
12/23/2022 10:15:00 AM 1.45 34.61 0.174 7.35 54.05 13.42
12/23/2022 10:30:00 AM 1.45 34.61 0.177 7.34 58.21 13.4
12/23/2022 10:45:00 AM 1.45 34.61 0.176 7.34 59.74 13.41
12/23/2022 11:00:00 AM 1.46 34.628 0.176 7.34 55.29 13.4
12/23/2022 11:15:00 AM 1.46 34.628 0.176 7.33 57.26 13.39
12/23/2022 11:30:00 AM 1.46 34.628 0.175 7.34 56.71 13.39
12/23/2022 11:45:00 AM 1.46 34.628 0.173 7.32 50.67 13.38
12/23/2022 12:00:00 PM 1.46 34.628 0.163 7.32 50.48 13.37
12/23/2022 12:15:00 PM 1.45 34.61 0.173 7.33 78.14 13.37
12/23/2022 12:30:00 PM 1.45 34.61 0.173 7.31 37.95 13.36
12/23/2022 12:45:00 PM 1.46 34.628 0.173 7.32 47.08 13.35
12/23/2022 1:00:00 PM 1.48 34.664 0.172 7.32 48.28 13.35
12/23/2022 1:15:00 PM 1.48 34.664 0.171 7.32 44.43 13.34
12/23/2022 1:30:00 PM 1.46 34.628 0.171 7.32 48.98 13.33
12/23/2022 1:45:00 PM 1.46 34.628 0.17 7.31 46.21 13.31
12/23/2022 2:00:00 PM 1.45 34.61 0.169 7.33 44.91 13.32
12/23/2022 2:15:00 PM 1.45 34.61 0.169 7.32 42.17 13.32
12/23/2022 2:30:00 PM 1.44 34.592 0.168 7.32 37.54 13.31
12/23/2022 2:45:00 PM 1.43 34.574 0.168 7.32 46.78 13.31
12/23/2022 3:00:00 PM 1.42 34.556 0.167 7.33 41.35 13.31
12/23/2022 3:15:00 PM 1.39 34.502 0.167 7.31 39.45 13.31
12/23/2022 3:30:00 PM 1.38 34.484 0.167 7.33 41.09 13.31
12/23/2022 3:45:00 PM 1.37 34.466 0.167 7.33 41.7 13.31
12/23/2022 4:00:00 PM 1.35 34.43 0.166 7.34 29.2 13.3
12/23/2022 4:15:00 PM 1.31 34.358 0.166 7.32 38.93 13.31
12/23/2022 4:30:00 PM 1.29 34.322 0.166 7.34 40.67 13.31
12/23/2022 4:45:00 PM 1.27 34.286 0.165 7.33 38.5 13.32
12/23/2022 5:00:00 PM 1.25 34.25 0.164 7.34 35.29 13.32
12/23/2022 5:15:00 PM 1.22 34.196 0.163 7.32 32.47 13.32
12/23/2022 5:30:00 PM 1.2 34.16 0.162 7.32 40.57 13.32
12/23/2022 5:45:00 PM 1.17 34.106 0.161 7.34 37.82 13.32
12/23/2022 6:00:00 PM 1.14 34.052 0.16 7.32 43.22 13.33
12/23/2022 6:15:00 PM 1.11 33.998 0.158 7.32 38.26 13.34
12/23/2022 6:30:00 PM 1.08 33.944 0.157 7.31 35.08 13.35
12/23/2022 6:45:00 PM 1.06 33.908 0.156 7.32 34.98 13.34
12/23/2022 7:00:00 PM 1.04 33.872 0.156 7.31 35.93 13.36
12/23/2022 7:15:00 PM 1.02 33.836 0.155 7.33 34.22 13.36
12/23/2022 7:30:00 PM 0.99 33.782 0.155 7.31 35.16 13.37
12/23/2022 7:45:00 PM 0.96 33.728 0.155 7.32 35.53 13.38
12/23/2022 8:00:00 PM 0.94 33.692 0.155 7.32 35.06 13.39
12/23/2022 8:15:00 PM 0.91 33.638 0.155 7.32 37 13.4
12/23/2022 8:30:00 PM 0.88 33.584 0.156 7.32 35.33 13.41
12/23/2022 8:45:00 PM 0.85 33.53 0.156 7.33 33 13.42
12/23/2022 9:00:00 PM 0.83 33.494 0.157 7.31 36.73 13.42
12/23/2022 9:15:00 PM 0.8 33.44 0.158 7.32 39.91 13.43
12/23/2022 9:30:00 PM 0.77 33.386 0.159 7.32 38.17 13.44
12/23/2022 9:45:00 PM 0.74 33.332 0.16 7.32 35.55 13.44
12/23/2022 10:00:00 PM 0.74 33.332 0.162 7.32 39.98 13.43
12/23/2022 10:15:00 PM 0.69 33.242 0.163 7.31 52.64 13.45
12/23/2022 10:30:00 PM 0.66 33.188 0.164 7.31 38.07 13.46
12/23/2022 10:45:00 PM 0.62 33.116 0.164 7.32 41.87 13.47
12/23/2022 11:00:00 PM 0.59 33.062 0.165 7.3 43.26 13.47
12/23/2022 11:15:00 PM 0.56 33.008 0.165 7.3 42.15 13.48
12/23/2022 11:30:00 PM 0.53 32.954 0.164 7.3 41.7 13.49
12/23/2022 11:45:00 PM 0.5 32.9 0.164 7.3 44.23 13.5
12/24/2022 12:00:00 AM 0.46 32.828 0.163 7.28 44.79 13.5
12/24/2022 12:15:00 AM 0.43 32.774 0.162 7.29 45.18 13.51
12/24/2022 12:30:00 AM 0.4 32.72 0.161 7.29 45.54 13.53
12/24/2022 12:45:00 AM 0.37 32.666 0.16 7.27 45.2 13.53
12/24/2022 1:00:00 AM 0.33 32.594 0.159 7.28 46.46 13.54
12/24/2022 1:15:00 AM 0.31 32.558 0.158 7.28 47.96 13.55
12/24/2022 1:30:00 AM 0.29 32.522 0.158 7.28 47.67 13.56
12/24/2022 1:45:00 AM 0.27 32.486 0.157 7.26 47.41 13.57
12/24/2022 2:00:00 AM 0.25 32.45 0.157 7.26 49.02 13.57
12/24/2022 2:15:00 AM 0.22 32.396 0.157 7.27 45.38 13.58
12/24/2022 2:30:00 AM 0.2 32.36 0.157 7.27 47.68 13.59
12/24/2022 2:45:00 AM 0.18 32.324 0.157 7.26 45.03 13.6
12/24/2022 3:00:00 AM 0.16 32.288 0.158 7.26 46.22 13.61
12/24/2022 3:15:00 AM 0.14 32.252 0.158 7.25 46.85 13.62
12/24/2022 3:30:00 AM 0.12 32.216 0.159 7.25 47.16 13.62
12/24/2022 3:45:00 AM 0.1 32.18 0.16 7.26 45.53 13.63
12/24/2022 4:00:00 AM 0.08 32.144 0.161 7.26 41.84 13.64
12/24/2022 4:15:00 AM 0.05 32.09 0.162 7.27 47.81 13.65
12/24/2022 4:30:00 AM 0.03 32.054 0.162 7.26 46.76 13.66
12/24/2022 4:45:00 AM 0.01 32.018 0.163 7.23 48.17 13.67
12/24/2022 5:00:00 AM -0.02 31.964 0.163 7.26 47.87 13.67
12/24/2022 5:15:00 AM -0.04 31.928 0.163 7.25 49.12 13.69
12/24/2022 5:30:00 AM -0.06 31.892 0.162 7.25 48.8 13.7
12/24/2022 5:45:00 AM -0.07 31.874 0.162 7.26 45.93 13.71
12/24/2022 6:00:00 AM -0.08 31.856 0.162 7.27 48.07 13.71
12/24/2022 6:15:00 AM -0.08 31.856 0.161 7.26 48.19 13.72
12/24/2022 6:30:00 AM -0.08 31.856 0.161 7.26 45.23 13.74
12/24/2022 6:45:00 AM -0.08 31.856 0.16 7.27 44.9 13.74
12/24/2022 7:00:00 AM -0.08 31.856 0.16 7.28 47.06 13.75
12/24/2022 7:15:00 AM -0.08 31.856 0.159 7.28 48.15 13.75
12/24/2022 7:30:00 AM -0.07 31.874 0.159 7.28 64.23 13.76
12/24/2022 7:45:00 AM -0.07 31.874 0.159 7.27 43.54 13.76
12/24/2022 8:00:00 AM -0.07 31.874 0.158 7.27 46.25 13.77
12/24/2022 8:15:00 AM -0.07 31.874 0.158 7.28 48.31 13.76
12/24/2022 8:30:00 AM -0.07 31.874 0.158 7.27 45.14 13.77
12/24/2022 8:45:00 AM -0.07 31.874 0.158 7.27 45.21 13.76
12/24/2022 9:00:00 AM -0.06 31.892 0.158 7.27 44 13.76
12/24/2022 9:15:00 AM -0.06 31.892 0.158 7.28 48.76 13.75
12/24/2022 9:30:00 AM -0.07 31.874 0.157 7.28 48 13.75
12/24/2022 9:45:00 AM -0.06 31.892 0.157 7.25 49.21 13.75
12/24/2022 10:00:00 AM -0.06 31.892 0.157 7.26 43 13.75
12/24/2022 10:15:00 AM -0.06 31.892 0.157 7.26 45.67 13.74
12/24/2022 10:30:00 AM -0.06 31.892 0.157 7.25 45.26 13.74
12/24/2022 10:45:00 AM -0.06 31.892 0.157 7.25 43.02 13.74
12/24/2022 11:00:00 AM -0.06 31.892 0.156 7.25 43.48 13.74
12/24/2022 11:15:00 AM -0.06 31.892 0.156 7.26 46.83 13.74
12/24/2022 11:30:00 AM -0.06 31.892 0.156 7.25 51.22 13.73
12/24/2022 11:45:00 AM -0.05 31.91 0.155 7.23 50.28 13.73
12/24/2022 12:00:00 PM -0.06 31.892 0.155 7.24 48.18 13.73
12/24/2022 12:15:00 PM -0.06 31.892 0.155 7.25 45.15 13.73
12/24/2022 12:30:00 PM -0.06 31.892 0.154 7.25 48.15 13.73
12/24/2022 12:45:00 PM -0.06 31.892 0.154 7.23 44.56 13.72
12/24/2022 1:00:00 PM -0.06 31.892 0.153 7.23 47.11 13.73
12/24/2022 1:15:00 PM -0.06 31.892 0.153 7.24 44.19 13.73
12/24/2022 1:30:00 PM -0.06 31.892 0.153 7.22 48.3 13.73
12/24/2022 1:45:00 PM -0.06 31.892 0.152 7.22 45.17 13.73
12/24/2022 2:00:00 PM -0.06 31.892 0.152 7.23 45.86 13.73
12/24/2022 2:15:00 PM -0.06 31.892 0.151 7.24 46.45 13.73
12/24/2022 2:30:00 PM -0.06 31.892 0.151 7.22 46.31 13.73
12/24/2022 2:45:00 PM -0.06 31.892 0.15 7.24 43.64 13.73
12/24/2022 3:00:00 PM -0.06 31.892 0.15 7.22 46.16 13.74
12/24/2022 3:15:00 PM -0.06 31.892 0.149 7.21 49.23 13.74
12/24/2022 3:30:00 PM -0.06 31.892 0.149 7.23 46.44 13.75
12/24/2022 3:45:00 PM -0.06 31.892 0.149 7.23 44.82 13.75
12/24/2022 4:00:00 PM -0.06 31.892 0.148 7.23 46.42 13.76
12/24/2022 4:15:00 PM -0.07 31.874 0.148 7.22 46.93 13.76
12/24/2022 4:30:00 PM -0.07 31.874 0.148 7.24 41.01 13.77
12/24/2022 4:45:00 PM -0.07 31.874 0.148 7.22 45.01 13.77
12/24/2022 5:00:00 PM -0.07 31.874 0.148 7.23 45.65 13.78
12/24/2022 5:15:00 PM -0.06 31.892 0.148 7.24 67.16 13.78
12/24/2022 5:30:00 PM -0.07 31.874 0.148 7.23 43.18 13.79
12/24/2022 5:45:00 PM -0.06 31.892 0.148 7.22 37.77 13.77
12/24/2022 6:00:00 PM -0.06 31.892 0.148 7.24 44.07 13.79
12/24/2022 6:15:00 PM -0.06 31.892 0.148 7.24 47.63 13.78
12/24/2022 6:30:00 PM -0.06 31.892 0.148 7.22 37.01 13.62
12/24/2022 6:45:00 PM -0.06 31.892 0.148 7.22 34.73 13.49
12/24/2022 7:00:00 PM -0.06 31.892 0.148 7.22 32.23 13.49
12/24/2022 7:15:00 PM -0.06 31.892 0.148 7.23 25.13 13.45
12/24/2022 7:30:00 PM -0.06 31.892 0.148 7.22 29.1 13.47
12/24/2022 7:45:00 PM -0.06 31.892 0.148 7.21 33.39 13.53
12/24/2022 8:00:00 PM -0.06 31.892 0.148 7.21 31.67 13.44
12/24/2022 8:15:00 PM -0.06 31.892 0.149 7.22 28.43 13.38
12/24/2022 8:30:00 PM -0.06 31.892 0.149 7.22 28.63 13.58
12/24/2022 8:45:00 PM -0.06 31.892 0.149 7.22 28.1 13.58
12/24/2022 9:00:00 PM -0.06 31.892 0.149 7.18 27.61 13.62
12/24/2022 9:15:00 PM -0.06 31.892 0.149 7.2 22.25 13.49
12/24/2022 9:30:00 PM -0.06 31.892 0.149 7.2 27.36 13.45
12/24/2022 9:45:00 PM -0.06 31.892 0.149 7.22 25.97 13.42
12/24/2022 10:00:00 PM -0.06 31.892 0.149 7.19 25.24 13.55
12/24/2022 10:15:00 PM -0.06 31.892 0.15 7.21 25.03 13.4
12/24/2022 10:30:00 PM -0.06 31.892 0.15 7.21 21.87 13.36
12/24/2022 10:45:00 PM -0.06 31.892 0.15 7.2 22.67 13.32
12/24/2022 11:00:00 PM -0.06 31.892 0.151 7.2 24.3 13.53
12/24/2022 11:15:00 PM -0.06 31.892 0.151 7.2 21.34 13.41
12/24/2022 11:30:00 PM -0.06 31.892 0.152 7.19 25.15 13.39
12/24/2022 11:45:00 PM -0.06 31.892 0.152 7.22 21.13 13.33
12/25/2022 12:00:00 AM -0.06 31.892 0.152 7.18 22.69 13.42
12/25/2022 12:15:00 AM -0.06 31.892 0.153 7.19 25.94 13.63
12/25/2022 12:30:00 AM -0.06 31.892 0.153 7.22 21.74 13.74
12/25/2022 12:45:00 AM -0.06 31.892 0.154 7.21 24.1 13.77
12/25/2022 1:00:00 AM -0.06 31.892 0.154 7.18 26.61 13.57
12/25/2022 1:15:00 AM -0.06 31.892 0.154 7.2 24.42 13.78
12/25/2022 1:30:00 AM -0.06 31.892 0.155 7.2 22.57 13.79
12/25/2022 1:45:00 AM -0.06 31.892 0.155 7.2 21.64 13.73
12/25/2022 2:00:00 AM -0.06 31.892 0.155 7.2 20.32 13.8
12/25/2022 2:15:00 AM -0.06 31.892 0.155 7.2 24.22 13.79
12/25/2022 2:30:00 AM -0.06 31.892 0.155 7.21 23.04 13.83
12/25/2022 2:45:00 AM -0.06 31.892 0.155 7.2 25 13.82
12/25/2022 3:00:00 AM -0.06 31.892 0.155 7.21 23.97 13.82
12/25/2022 3:15:00 AM -0.06 31.892 0.155 7.21 26.05 13.83
12/25/2022 3:30:00 AM -0.06 31.892 0.155 7.2 25.19 13.82
12/25/2022 3:45:00 AM -0.06 31.892 0.155 7.22 26.25 13.82
12/25/2022 4:00:00 AM -0.06 31.892 0.155 7.19 31.29 13.83
12/25/2022 4:15:00 AM -0.06 31.892 0.155 7.21 27.77 13.82
12/25/2022 4:30:00 AM -0.06 31.892 0.155 7.21 27.79 13.83
12/25/2022 4:45:00 AM -0.06 31.892 0.155 7.2 29.06 13.82
12/25/2022 5:00:00 AM -0.06 31.892 0.155 7.23 30.34 13.83
12/25/2022 5:15:00 AM -0.06 31.892 0.155 7.22 25.59 13.83
12/25/2022 5:30:00 AM -0.06 31.892 0.154 7.21 27.01 13.84
12/25/2022 5:45:00 AM -0.06 31.892 0.154 7.21 25.29 13.84
12/25/2022 6:00:00 AM -0.06 31.892 0.154 7.2 25.26 13.84
12/25/2022 6:15:00 AM -0.06 31.892 0.154 7.2 26.24 13.84
12/25/2022 6:30:00 AM -0.06 31.892 0.153 7.22 26.12 13.84
12/25/2022 6:45:00 AM -0.06 31.892 0.153 7.22 23.54 13.83
12/25/2022 7:00:00 AM -0.06 31.892 0.153 7.18 23.6 13.84
12/25/2022 7:15:00 AM -0.06 31.892 0.152 7.2 24.38 13.85
12/25/2022 7:30:00 AM -0.06 31.892 0.152 7.22 24.98 13.85
12/25/2022 7:45:00 AM -0.06 31.892 0.152 7.18 24.14 13.85
12/25/2022 8:00:00 AM -0.06 31.892 0.151 7.2 27.72 13.84
12/25/2022 8:15:00 AM -0.06 31.892 0.151 7.22 28.25 13.84
12/25/2022 8:30:00 AM -0.06 31.892 0.151 7.21 23.86 13.85
12/25/2022 8:45:00 AM -0.06 31.892 0.151 7.19 25.74 13.86
12/25/2022 9:00:00 AM -0.06 31.892 0.15 7.21 25.65 13.85
12/25/2022 9:15:00 AM -0.06 31.892 0.15 7.17 22.22 13.86
12/25/2022 9:30:00 AM -0.06 31.892 0.15 7.19 24.73 13.85
12/25/2022 9:45:00 AM -0.06 31.892 0.15 7.19 23.31 13.85
12/25/2022 10:00:00 AM -0.06 31.892 0.149 7.19 23.53 13.86
12/25/2022 10:15:00 AM -0.06 31.892 0.149 7.2 24.35 13.87
12/25/2022 10:30:00 AM -0.06 31.892 0.149 7.18 23.82 13.87
12/25/2022 10:45:00 AM -0.06 31.892 0.149 7.2 23.77 13.87
12/25/2022 11:00:00 AM -0.06 31.892 0.148 7.18 23.35 13.87
12/25/2022 11:15:00 AM -0.06 31.892 0.148 7.18 23.11 13.88
12/25/2022 11:30:00 AM -0.06 31.892 0.148 7.2 24.09 13.89
12/25/2022 11:45:00 AM -0.06 31.892 0.148 7.19 26.82 13.88
12/25/2022 12:00:00 PM -0.06 31.892 0.147 7.2 25.28 13.88
12/25/2022 12:15:00 PM -0.06 31.892 0.147 7.2 24.9 13.89
12/25/2022 12:30:00 PM -0.06 31.892 0.147 7.19 24.65 13.88
12/25/2022 12:45:00 PM -0.06 31.892 0.147 7.18 25.78 13.88
12/25/2022 1:00:00 PM -0.06 31.892 0.146 7.2 25.38 13.88
12/25/2022 1:15:00 PM -0.06 31.892 0.146 7.17 23.59 13.88
12/25/2022 1:30:00 PM -0.06 31.892 0.146 7.19 22.28 13.87
12/25/2022 1:45:00 PM -0.06 31.892 0.146 7.17 20.69 13.88
12/25/2022 2:00:00 PM -0.06 31.892 0.146 7.19 25.15 13.88
12/25/2022 2:15:00 PM -0.06 31.892 0.145 7.17 22.65 13.88
12/25/2022 2:30:00 PM -0.06 31.892 0.145 7.19 25.94 13.88
12/25/2022 2:45:00 PM -0.06 31.892 0.145 7.18 26.65 13.89
12/25/2022 3:00:00 PM -0.06 31.892 0.145 7.17 23.02 13.9
12/25/2022 3:15:00 PM -0.06 31.892 0.145 7.17 25.93 13.9
12/25/2022 3:30:00 PM -0.06 31.892 0.144 7.18 26.8 13.9
12/25/2022 3:45:00 PM -0.06 31.892 0.144 7.17 27.52 13.91
12/25/2022 4:00:00 PM -0.06 31.892 0.144 7.18 26.77 13.9
12/25/2022 4:15:00 PM -0.06 31.892 0.144 7.17 26.35 13.9
12/25/2022 4:30:00 PM -0.06 31.892 0.144 7.17 27.01 13.91
12/25/2022 4:45:00 PM -0.06 31.892 0.144 7.17 26.96 13.91
12/25/2022 5:00:00 PM -0.06 31.892 0.144 7.18 26.02 13.91
12/25/2022 5:15:00 PM -0.06 31.892 0.144 7.18 24.31 13.91
12/25/2022 5:30:00 PM -0.06 31.892 0.144 7.19 23.02 13.91
12/25/2022 5:45:00 PM -0.06 31.892 0.144 7.18 25.5 13.92
12/25/2022 6:00:00 PM -0.06 31.892 0.144 7.16 23.61 13.92
12/25/2022 6:15:00 PM -0.06 31.892 0.144 7.19 24.8 13.91
12/25/2022 6:30:00 PM -0.06 31.892 0.144 7.17 23.31 13.93
12/25/2022 6:45:00 PM -0.06 31.892 0.144 7.18 23.89 13.93
12/25/2022 7:00:00 PM -0.06 31.892 0.144 7.18 24.11 13.92
12/25/2022 7:15:00 PM -0.06 31.892 0.144 7.15 22.81 13.94
12/25/2022 7:30:00 PM -0.06 31.892 0.144 7.17 24.4 13.93
12/25/2022 7:45:00 PM -0.06 31.892 0.144 7.18 24.22 13.91
12/25/2022 8:00:00 PM -0.06 31.892 0.144 7.16 22.85 13.94
12/25/2022 8:15:00 PM -0.06 31.892 0.144 7.18 23.96 13.94
12/25/2022 8:30:00 PM -0.06 31.892 0.144 7.16 22 13.94
12/25/2022 8:45:00 PM -0.06 31.892 0.144 7.17 23.14 13.94
12/25/2022 9:00:00 PM -0.06 31.892 0.144 7.18 21.9 13.94
12/25/2022 9:15:00 PM -0.06 31.892 0.144 7.16 23.01 13.95
12/25/2022 9:30:00 PM -0.06 31.892 0.144 7.19 23.5 13.94
12/25/2022 9:45:00 PM -0.06 31.892 0.144 7.18 23.55 13.94
12/25/2022 10:00:00 PM -0.06 31.892 0.145 7.17 19.9 13.94
12/25/2022 10:15:00 PM -0.06 31.892 0.145 7.19 20.05 13.96
12/25/2022 10:30:00 PM -0.06 31.892 0.145 7.18 20.49 13.95
12/25/2022 10:45:00 PM -0.06 31.892 0.145 7.18 22.23 13.96
12/25/2022 11:00:00 PM -0.06 31.892 0.145 7.15 19.65 13.97
12/25/2022 11:15:00 PM -0.06 31.892 0.145 7.17 21.73 13.96
12/25/2022 11:30:00 PM -0.06 31.892 0.145 7.17 19.57 13.96
12/25/2022 11:45:00 PM -0.06 31.892 0.145 7.19 19.39 13.97
12/26/2022 12:00:00 AM -0.06 31.892 0.145 7.18 18.92 13.98
12/26/2022 12:15:00 AM -0.06 31.892 0.145 7.16 21.5 13.97
12/26/2022 12:30:00 AM -0.06 31.892 0.145 7.19 21.34 13.97
12/26/2022 12:45:00 AM -0.06 31.892 0.145 7.15 19.29 13.98
12/26/2022 1:00:00 AM -0.06 31.892 0.145 7.19 19.93 13.98
12/26/2022 1:15:00 AM -0.06 31.892 0.145 7.17 17.93 14
12/26/2022 1:30:00 AM -0.06 31.892 0.146 7.17 19.75 13.98
12/26/2022 1:45:00 AM -0.06 31.892 0.146 7.18 19.04 13.99
12/26/2022 2:00:00 AM -0.06 31.892 0.146 7.18 18.29 13.99
12/26/2022 2:15:00 AM -0.06 31.892 0.146 7.17 17.72 13.99
12/26/2022 2:30:00 AM -0.06 31.892 0.146 7.17 20.64 14
12/26/2022 2:45:00 AM -0.06 31.892 0.146 7.17 17.32 13.99
12/26/2022 3:00:00 AM -0.06 31.892 0.146 7.19 18.3 13.99
12/26/2022 3:15:00 AM -0.06 31.892 0.146 7.18 16.91 13.99
12/26/2022 3:30:00 AM -0.06 31.892 0.146 7.17 16.9 13.99
12/26/2022 3:45:00 AM -0.06 31.892 0.147 7.17 18.48 13.96
12/26/2022 4:00:00 AM -0.06 31.892 0.147 7.19 16.97 13.85
12/26/2022 4:15:00 AM -0.06 31.892 0.147 7.18 19.01 13.93
12/26/2022 4:30:00 AM -0.06 31.892 0.147 7.17 16.64 13.79
12/26/2022 4:45:00 AM -0.06 31.892 0.147 7.19 17.32 13.84
12/26/2022 5:00:00 AM -0.06 31.892 0.147 7.16 20.16 13.87
12/26/2022 5:15:00 AM -0.06 31.892 0.147 7.19 14.72 13.87
12/26/2022 5:30:00 AM -0.06 31.892 0.148 7.19 16.3 13.86
12/26/2022 5:45:00 AM -0.06 31.892 0.148 7.16 17.04 13.87
12/26/2022 6:00:00 AM -0.06 31.892 0.148 7.18 16.66 13.92
12/26/2022 6:15:00 AM -0.06 31.892 0.148 7.17 19.82 13.92
12/26/2022 6:30:00 AM -0.06 31.892 0.148 7.17 14.9 13.93
12/26/2022 6:45:00 AM -0.06 31.892 0.148 7.16 15.85 13.89
12/26/2022 7:00:00 AM -0.06 31.892 0.149 7.18 18.1 13.93
12/26/2022 7:15:00 AM -0.06 31.892 0.149 7.18 15.13 13.92
12/26/2022 7:30:00 AM -0.06 31.892 0.149 7.18 14.6 13.94
12/26/2022 7:45:00 AM -0.06 31.892 0.149 7.16 15.22 13.95
12/26/2022 8:00:00 AM -0.06 31.892 0.149 7.17 14.48 13.94
12/26/2022 8:15:00 AM -0.06 31.892 0.15 7.17 15.13 13.95
12/26/2022 8:30:00 AM -0.06 31.892 0.15 7.19 15.22 13.95
12/26/2022 8:45:00 AM -0.06 31.892 0.15 7.16 15.61 13.95
12/26/2022 9:00:00 AM -0.06 31.892 0.15 7.19 13.6 13.95
12/26/2022 9:15:00 AM -0.06 31.892 0.15 7.17 14.01 13.96
12/26/2022 9:30:00 AM -0.06 31.892 0.15 7.17 14.85 13.96
12/26/2022 9:45:00 AM -0.06 31.892 0.15 7.19 17.5 13.96
12/26/2022 10:00:00 AM -0.06 31.892 0.15 7.17 13.18 13.97
12/26/2022 10:15:00 AM -0.06 31.892 0.151 7.16 13.61 13.96
12/26/2022 10:30:00 AM -0.06 31.892 0.151 7.19 13.01 13.97
12/26/2022 10:45:00 AM -0.06 31.892 0.151 7.19 13.5 13.95
12/26/2022 11:00:00 AM -0.06 31.892 0.151 7.19 13.01 13.97
12/26/2022 11:15:00 AM -0.06 31.892 0.151 7.18 14.78 13.95
12/26/2022 11:30:00 AM -0.06 31.892 0.151 7.17 13.41 13.96
12/26/2022 11:45:00 AM -0.06 31.892 0.151 7.18 14.3 13.96
12/26/2022 12:00:00 PM -0.06 31.892 0.151 7.18 13.56 13.95
12/26/2022 12:15:00 PM -0.06 31.892 0.152 7.19 13.78 13.94
12/26/2022 12:30:00 PM -0.06 31.892 0.152 7.2 14.21 13.93
12/26/2022 12:45:00 PM -0.06 31.892 0.152 7.18 13.05 13.95
12/26/2022 1:00:00 PM -0.06 31.892 0.152 7.2 13.08 13.95
12/26/2022 1:15:00 PM -0.06 31.892 0.152 7.18 14.87 13.96
12/26/2022 1:30:00 PM -0.06 31.892 0.152 7.2 13.35 13.97
12/26/2022 1:45:00 PM -0.06 31.892 0.152 7.2 14.07 13.95
12/26/2022 2:00:00 PM -0.06 31.892 0.152 7.21 13.19 13.95
12/26/2022 2:15:00 PM -0.06 31.892 0.152 7.19 15.29 13.93
12/26/2022 2:30:00 PM -0.06 31.892 0.152 7.19 13.54 13.92
12/26/2022 2:45:00 PM -0.06 31.892 0.152 7.2 12.14 13.89
12/26/2022 3:00:00 PM -0.06 31.892 0.152 7.17 13.53 13.9
12/26/2022 3:15:00 PM -0.06 31.892 0.153 7.2 12.53 13.95
12/26/2022 3:30:00 PM -0.06 31.892 0.153 7.19 12.68 13.93
12/26/2022 3:45:00 PM -0.06 31.892 0.153 7.18 12.62 13.91
12/26/2022 4:00:00 PM -0.06 31.892 0.153 7.19 12.88 13.94
12/26/2022 4:15:00 PM -0.06 31.892 0.153 7.19 12.11 13.93
12/26/2022 4:30:00 PM -0.06 31.892 0.153 7.2 11.94 13.93
12/26/2022 4:45:00 PM -0.06 31.892 0.153 7.2 13.77 13.96
12/26/2022 5:00:00 PM -0.06 31.892 0.153 7.19 12.71 13.96
12/26/2022 5:15:00 PM -0.06 31.892 0.153 7.2 14.49 13.98
12/26/2022 5:30:00 PM -0.06 31.892 0.153 7.2 11.62 13.97
12/26/2022 5:45:00 PM -0.06 31.892 0.153 7.18 11.13 14.01
12/26/2022 6:00:00 PM -0.06 31.892 0.153 7.21 13.58 14.01
12/26/2022 6:15:00 PM -0.06 31.892 0.153 7.2 11.6 13.98
12/26/2022 6:30:00 PM -0.06 31.892 0.153 7.18 11.67 13.99
12/26/2022 6:45:00 PM -0.06 31.892 0.153 7.21 12.63 13.99
12/26/2022 7:00:00 PM -0.06 31.892 0.153 7.19 11.73 14.02
12/26/2022 7:15:00 PM -0.06 31.892 0.153 7.19 11.23 14.02
12/26/2022 7:30:00 PM -0.06 31.892 0.154 7.2 11.96 14.02
12/26/2022 7:45:00 PM -0.06 31.892 0.154 7.19 12.06 14.02
12/26/2022 8:00:00 PM -0.06 31.892 0.154 7.18 11.66 14
12/26/2022 8:15:00 PM -0.06 31.892 0.154 7.2 12.07 14.03
12/26/2022 8:30:00 PM -0.06 31.892 0.154 7.18 12.24 14.04
12/26/2022 8:45:00 PM -0.06 31.892 0.154 7.2 12.65 14.02
12/26/2022 9:00:00 PM -0.06 31.892 0.154 7.19 11.74 14.02
12/26/2022 9:15:00 PM -0.06 31.892 0.154 7.19 11.34 14.02
12/26/2022 9:30:00 PM -0.06 31.892 0.154 7.19 10.34 14.05
12/26/2022 9:45:00 PM -0.06 31.892 0.154 7.2 10.14 14.04
12/26/2022 10:00:00 PM -0.06 31.892 0.154 7.19 10.07 14.03
12/26/2022 10:15:00 PM -0.06 31.892 0.154 7.21 11.3 14.01
12/26/2022 10:30:00 PM -0.06 31.892 0.154 7.21 11.08 14.01
12/26/2022 10:45:00 PM -0.06 31.892 0.154 7.18 10.74 14.02
12/26/2022 11:00:00 PM -0.06 31.892 0.154 7.2 11.88 14.03
12/26/2022 11:15:00 PM -0.06 31.892 0.154 7.18 10.73 14.01
12/26/2022 11:30:00 PM -0.06 31.892 0.154 7.21 10.9 14.02
12/26/2022 11:45:00 PM -0.06 31.892 0.154 7.18 11.48 14.04
12/27/2022 12:00:00 AM -0.06 31.892 0.154 7.19 10.43 14.04
12/27/2022 12:15:00 AM -0.06 31.892 0.154 7.19 10.61 14.03
12/27/2022 12:30:00 AM -0.06 31.892 0.154 7.19 10.93 14.05
12/27/2022 12:45:00 AM -0.06 31.892 0.154 7.21 11.5 14.04
12/27/2022 1:00:00 AM -0.06 31.892 0.154 7.21 9.98 14.04
12/27/2022 1:15:00 AM -0.06 31.892 0.154 7.21 10.94 14.06
12/27/2022 1:30:00 AM -0.06 31.892 0.154 7.18 10.14 14.05
12/27/2022 1:45:00 AM -0.06 31.892 0.154 7.2 12.15 14.07
12/27/2022 2:00:00 AM -0.06 31.892 0.154 7.21 12.04 14.06
12/27/2022 2:15:00 AM -0.06 31.892 0.154 7.21 12.99 14.06
12/27/2022 2:30:00 AM -0.06 31.892 0.154 7.19 10.42 14.07
12/27/2022 2:45:00 AM -0.06 31.892 0.154 7.2 10.64 14.05
12/27/2022 3:00:00 AM -0.06 31.892 0.154 7.19 10.46 14.06
12/27/2022 3:15:00 AM -0.06 31.892 0.154 7.2 12.15 14.05
12/27/2022 3:30:00 AM -0.06 31.892 0.154 7.2 11.23 14.06
12/27/2022 3:45:00 AM -0.06 31.892 0.154 7.19 11.58 14.06
12/27/2022 4:00:00 AM -0.06 31.892 0.154 7.2 11.13 14.08
12/27/2022 4:15:00 AM -0.06 31.892 0.154 7.21 9.74 14.05
12/27/2022 4:30:00 AM -0.06 31.892 0.154 7.22 9.38 14.07
12/27/2022 4:45:00 AM -0.06 31.892 0.154 7.18 16.93 14.05
12/27/2022 5:00:00 AM -0.06 31.892 0.154 7.2 9.74 14.03
12/27/2022 5:15:00 AM -0.06 31.892 0.155 7.2 9.48 14.04
12/27/2022 5:30:00 AM -0.06 31.892 0.155 7.21 9.92 14.03
12/27/2022 5:45:00 AM -0.06 31.892 0.155 7.22 9.33 14.04
12/27/2022 6:00:00 AM -0.06 31.892 0.155 7.21 11.41 14.02
12/27/2022 6:15:00 AM -0.06 31.892 0.155 7.21 11.73 14.02
12/27/2022 6:30:00 AM -0.06 31.892 0.155 7.2 9.82 14.03
12/27/2022 6:45:00 AM -0.06 31.892 0.155 7.2 11.07 14.03
12/27/2022 7:00:00 AM -0.06 31.892 0.155 7.19 10.95 14.02
12/27/2022 7:15:00 AM -0.06 31.892 0.156 7.21 10.8 14.01
12/27/2022 7:30:00 AM -0.06 31.892 0.156 7.2 11.89 14
12/27/2022 7:45:00 AM -0.06 31.892 0.156 7.19 11.6 14.02
12/27/2022 8:00:00 AM -0.06 31.892 0.156 7.2 11.14 13.99
12/27/2022 8:15:00 AM -0.06 31.892 0.156 7.2 9.78 14.01
12/27/2022 8:30:00 AM -0.06 31.892 0.156 7.19 10.51 14
12/27/2022 8:45:00 AM -0.06 31.892 0.156 7.21 10.3 14.01
12/27/2022 9:00:00 AM -0.06 31.892 0.156 7.18 9.58 14
12/27/2022 9:15:00 AM -0.06 31.892 0.156 7.19 10.27 14
12/27/2022 9:30:00 AM -0.06 31.892 0.156 7.19 10.2 14.01
12/27/2022 9:45:00 AM -0.06 31.892 0.156 7.19 10.49 14.01
12/27/2022 10:00:00 AM -0.06 31.892 0.157 7.19 9.34 14.01
12/27/2022 10:15:00 AM -0.06 31.892 0.157 7.21 9.83 14.02
12/27/2022 10:30:00 AM -0.06 31.892 0.157 7.21 9.48 14.02
12/27/2022 10:45:00 AM -0.06 31.892 0.157 7.19 9.53 14.02
12/27/2022 11:00:00 AM -0.06 31.892 0.157 7.21 8.79 14.03
12/27/2022 11:15:00 AM -0.06 31.892 0.157 7.2 12.29 14.05
12/27/2022 11:30:00 AM -0.06 31.892 0.157 7.21 8.66 14.03
12/27/2022 11:45:00 AM -0.06 31.892 0.157 7.21 8.84 14.03
12/27/2022 12:00:00 PM -0.06 31.892 0.157 7.22 9.73 14.04
12/27/2022 12:15:00 PM -0.06 31.892 0.157 7.2 9.02 14.06
12/27/2022 12:30:00 PM -0.06 31.892 0.157 7.22 10.1 14.04
12/27/2022 12:45:00 PM -0.06 31.892 0.157 7.19 8.51 14.05
12/27/2022 1:00:00 PM -0.06 31.892 0.157 7.22 8.23 14.04
12/27/2022 1:15:00 PM -0.06 31.892 0.157 7.2 9.22 14.05
12/27/2022 1:30:00 PM -0.06 31.892 0.157 7.2 8.78 14.06
12/27/2022 1:45:00 PM -0.06 31.892 0.157 7.21 8.95 14.06
12/27/2022 2:00:00 PM -0.06 31.892 0.157 7.22 9.47 14.04
12/27/2022 2:15:00 PM -0.06 31.892 0.158 7.21 9.56 14.02
12/27/2022 2:30:00 PM -0.06 31.892 0.158 7.21 9.44 14.03
12/27/2022 2:45:00 PM -0.05 31.91 0.158 7.2 9.13 14.02
12/27/2022 3:00:00 PM -0.06 31.892 0.158 7.2 9.55 14.02
12/27/2022 3:15:00 PM -0.06 31.892 0.158 7.22 9.42 14.02
12/27/2022 3:30:00 PM -0.06 31.892 0.158 7.2 9.94 14.03
12/27/2022 3:45:00 PM -0.06 31.892 0.158 7.22 8.55 14.01
12/27/2022 4:00:00 PM -0.06 31.892 0.158 7.21 9 13.97
12/27/2022 4:15:00 PM -0.06 31.892 0.158 7.21 8.73 13.98
12/27/2022 4:30:00 PM -0.06 31.892 0.158 7.21 9.2 13.98
12/27/2022 4:45:00 PM -0.06 31.892 0.158 7.19 9.14 13.96
12/27/2022 5:00:00 PM -0.06 31.892 0.158 7.2 9.55 13.98
12/27/2022 5:15:00 PM -0.06 31.892 0.158 7.21 11.55 13.98
12/27/2022 5:30:00 PM -0.06 31.892 0.157 7.22 10.02 13.98
12/27/2022 5:45:00 PM -0.06 31.892 0.157 7.18 9.71 13.96
12/27/2022 6:00:00 PM -0.06 31.892 0.157 7.2 9.15 13.97
12/27/2022 6:15:00 PM -0.06 31.892 0.157 7.2 8.98 13.98
12/27/2022 6:30:00 PM -0.06 31.892 0.157 7.21 10.18 13.97
12/27/2022 6:45:00 PM -0.06 31.892 0.157 7.19 8.9 14
12/27/2022 7:00:00 PM -0.06 31.892 0.157 7.2 8.7 13.98
12/27/2022 7:15:00 PM -0.06 31.892 0.157 7.2 8.85 13.99
12/27/2022 7:30:00 PM -0.06 31.892 0.158 7.19 8.88 14
12/27/2022 7:45:00 PM -0.06 31.892 0.158 7.21 8.4 13.99
12/27/2022 8:00:00 PM -0.06 31.892 0.158 7.19 9.03 14.01
12/27/2022 8:15:00 PM -0.06 31.892 0.158 7.2 9.79 14
12/27/2022 8:30:00 PM -0.06 31.892 0.158 7.2 8.49 14.02
12/27/2022 8:45:00 PM -0.06 31.892 0.158 7.21 8.39 14
12/27/2022 9:00:00 PM -0.06 31.892 0.157 7.19 9.45 14.01
12/27/2022 9:15:00 PM -0.06 31.892 0.157 7.21 9.22 14.01
12/27/2022 9:30:00 PM -0.06 31.892 0.157 7.21 9.75 14.02
12/27/2022 9:45:00 PM -0.06 31.892 0.157 7.21 9.03 14.02
12/27/2022 10:00:00 PM -0.06 31.892 0.157 7.19 8.82 14.04
12/27/2022 10:15:00 PM -0.06 31.892 0.157 7.2 9.09 14.02
12/27/2022 10:30:00 PM -0.06 31.892 0.157 7.2 9.77 14.02
12/27/2022 10:45:00 PM -0.06 31.892 0.157 7.2 9.48 14.04
12/27/2022 11:00:00 PM -0.06 31.892 0.157 7.22 9.35 14.03
12/27/2022 11:15:00 PM -0.06 31.892 0.157 7.19 9.43 14.05
12/27/2022 11:30:00 PM -0.06 31.892 0.157 7.2 9.43 14.04
12/27/2022 11:45:00 PM -0.06 31.892 0.157 7.22 8.77 14.04
12/28/2022 12:00:00 AM -0.06 31.892 0.156 7.2 11.25 14.05
12/28/2022 12:15:00 AM -0.06 31.892 0.156 7.22 11.86 14.05
12/28/2022 12:30:00 AM -0.06 31.892 0.156 7.21 10.78 14.05
12/28/2022 12:45:00 AM -0.06 31.892 0.156 7.2 8.97 14.04
12/28/2022 1:00:00 AM -0.06 31.892 0.156 7.2 10.47 14.05
12/28/2022 1:15:00 AM -0.06 31.892 0.156 7.22 9.91 14.03
12/28/2022 1:30:00 AM -0.06 31.892 0.156 7.2 11.13 14.04
12/28/2022 1:45:00 AM -0.06 31.892 0.156 7.21 9.34 14.05
12/28/2022 2:00:00 AM -0.06 31.892 0.156 7.22 12.26 14.04
12/28/2022 2:15:00 AM -0.06 31.892 0.156 7.2 10.18 14.03
12/28/2022 2:30:00 AM -0.06 31.892 0.156 7.22 11.87 14.03
12/28/2022 2:45:00 AM -0.06 31.892 0.156 7.22 10.44 14.05
12/28/2022 3:00:00 AM -0.06 31.892 0.155 7.2 10.41 14.04
12/28/2022 3:15:00 AM -0.06 31.892 0.155 7.22 9.69 14.05
12/28/2022 3:30:00 AM -0.06 31.892 0.155 7.22 10.42 14.03
12/28/2022 3:45:00 AM -0.06 31.892 0.155 7.2 11.07 14.03
12/28/2022 4:00:00 AM -0.06 31.892 0.155 7.2 11.48 14.04
12/28/2022 4:15:00 AM -0.06 31.892 0.155 7.22 9.37 14.05
12/28/2022 4:30:00 AM -0.06 31.892 0.155 7.2 9.46 14.05
12/28/2022 4:45:00 AM -0.06 31.892 0.155 7.22 9.22 14.04
12/28/2022 5:00:00 AM -0.06 31.892 0.155 7.2 9.65 14.04
12/28/2022 5:15:00 AM -0.06 31.892 0.155 7.22 9.81 14.05
12/28/2022 5:30:00 AM -0.06 31.892 0.155 7.21 9.48 14.05
12/28/2022 5:45:00 AM -0.06 31.892 0.155 7.2 10.47 14.05
12/28/2022 6:00:00 AM -0.06 31.892 0.155 7.2 10.71 14.04
12/28/2022 6:15:00 AM -0.06 31.892 0.155 7.2 11.03 14.05
12/28/2022 6:30:00 AM -0.06 31.892 0.155 7.2 9.97 14.06
12/28/2022 6:45:00 AM -0.06 31.892 0.155 7.22 9.09 14.06
12/28/2022 7:00:00 AM -0.06 31.892 0.155 7.2 10.07 14.06
12/28/2022 7:15:00 AM -0.06 31.892 0.155 7.21 10 14.06
12/28/2022 7:30:00 AM -0.06 31.892 0.155 7.22 10.25 14.06
12/28/2022 7:45:00 AM -0.06 31.892 0.156 7.2 11.13 14.05
12/28/2022 8:00:00 AM -0.06 31.892 0.156 7.23 9.72 14.06
12/28/2022 8:15:00 AM -0.06 31.892 0.156 7.22 11.76 14.06
12/28/2022 8:30:00 AM -0.06 31.892 0.156 7.21 10.46 14.08
12/28/2022 8:45:00 AM -0.06 31.892 0.156 7.21 9.4 14.08
12/28/2022 9:00:00 AM -0.06 31.892 0.156 7.22 11.78 14.06
12/28/2022 9:15:00 AM -0.06 31.892 0.156 7.21 12.08 14.08
12/28/2022 9:30:00 AM -0.06 31.892 0.156 7.23 12.24 14.07
12/28/2022 9:45:00 AM -0.06 31.892 0.156 7.21 10.42 14.07
12/28/2022 10:00:00 AM -0.06 31.892 0.157 7.21 10.54 14.07
12/28/2022 10:15:00 AM -0.06 31.892 0.157 7.21 11.46 14.07
12/28/2022 10:30:00 AM -0.06 31.892 0.157 7.22 9.96 14.07
12/28/2022 10:45:00 AM -0.06 31.892 0.157 7.23 12.2 14.06
12/28/2022 11:00:00 AM -0.06 31.892 0.157 7.22 9.76 14.07
12/28/2022 11:15:00 AM -0.06 31.892 0.157 7.22 10.25 14.05
12/28/2022 11:30:00 AM -0.05 31.91 0.157 7.22 9.29 13.97
12/28/2022 11:45:00 AM -0.05 31.91 0.157 7.23 9.44 13.95
12/28/2022 12:00:00 PM -0.06 31.892 0.157 7.22 9.08 13.99
12/28/2022 12:15:00 PM -0.05 31.91 0.157 7.23 8.75 14.03
12/28/2022 12:30:00 PM -0.05 31.91 0.158 7.22 8.9 14.03
12/28/2022 12:45:00 PM -0.05 31.91 0.158 7.24 10.98 14.04
12/28/2022 1:00:00 PM -0.05 31.91 0.158 7.22 12.22 14.08
12/28/2022 1:15:00 PM -0.04 31.928 0.158 7.23 11.05 14.09
12/28/2022 1:30:00 PM -0.04 31.928 0.158 7.25 14.09 14.09
12/28/2022 1:45:00 PM -0.04 31.928 0.158 7.23 14.27 14.09
12/28/2022 2:00:00 PM 0.01 32.018 0.158 7.26 76.87 14.12
12/28/2022 2:15:00 PM 0.03 32.054 0.158 7.24 51.2 14.12
12/28/2022 2:30:00 PM 0.03 32.054 0.159 7.25 15.49 14.11
12/28/2022 2:45:00 PM 0.04 32.072 0.158 7.26 27.48 14.11
12/28/2022 3:00:00 PM 0.06 32.108 0.159 7.25 16.53 14.1
12/28/2022 3:15:00 PM 0.07 32.126 0.159 7.26 18.96 14.1
12/28/2022 3:30:00 PM 0.07 32.126 0.159 7.26 17.61 14.1
12/28/2022 3:45:00 PM 0.07 32.126 0.159 7.24 16.93 14.09
12/28/2022 4:00:00 PM 0.06 32.108 0.159 7.26 13.65 14.08
12/28/2022 4:15:00 PM 0.06 32.108 0.159 7.25 16.89 14.09
12/28/2022 4:30:00 PM 0.04 32.072 0.16 7.24 14.17 14.09
12/28/2022 4:45:00 PM 0.03 32.054 0.16 7.24 12.68 14.09
12/28/2022 5:00:00 PM 0.02 32.036 0.16 7.24 12.7 14.09
12/28/2022 5:15:00 PM 0.01 32.018 0.16 7.22 11.99 14.09
12/28/2022 5:30:00 PM 0.01 32.018 0.16 7.23 12.68 14.09
12/28/2022 5:45:00 PM 0.01 32.018 0.16 7.21 12 14.09
12/28/2022 6:00:00 PM 0 32 0.16 7.22 11.17 14.09
12/28/2022 6:15:00 PM 0 32 0.16 7.23 11.73 14.09
12/28/2022 6:30:00 PM 0 32 0.161 7.22 12.77 14.08
12/28/2022 6:45:00 PM -0.01 31.982 0.158 7.23 11.8 14.09
12/28/2022 7:00:00 PM -0.01 31.982 0.161 7.21 11.46 14.09
12/28/2022 7:15:00 PM -0.02 31.964 0.161 7.23 12.6 14.09
12/28/2022 7:30:00 PM -0.02 31.964 0.161 7.22 11.16 14.08
12/28/2022 7:45:00 PM -0.02 31.964 0.161 7.22 11.41 14.09
12/28/2022 8:00:00 PM -0.03 31.946 0.161 7.23 12.01 14.09
12/28/2022 8:15:00 PM -0.03 31.946 0.161 7.23 11.57 14.09
12/28/2022 8:30:00 PM -0.03 31.946 0.161 7.22 11.83 14.1
12/28/2022 8:45:00 PM -0.03 31.946 0.161 7.23 12.19 14.1
12/28/2022 9:00:00 PM -0.03 31.946 0.161 7.23 12.73 14.1
12/28/2022 9:15:00 PM -0.03 31.946 0.161 7.23 12.64 14.1
12/28/2022 9:30:00 PM -0.04 31.928 0.161 7.24 14.4 14.1
12/28/2022 9:45:00 PM -0.04 31.928 0.161 7.23 13.42 14.1
12/28/2022 10:00:00 PM 0 32 0.162 7.22 13.73 14.04
12/28/2022 10:15:00 PM -0.05 31.91 0.162 7.25 13.81 14.1
12/28/2022 10:30:00 PM -0.05 31.91 0.162 7.23 13.96 14.11
12/28/2022 10:45:00 PM -0.05 31.91 0.162 7.25 13.81 14.11
12/28/2022 11:00:00 PM -0.06 31.892 0.162 7.25 13.87 14.11
12/28/2022 11:15:00 PM -0.06 31.892 0.162 7.23 13.92 14.12
12/28/2022 11:30:00 PM -0.06 31.892 0.162 7.24 13.8 14.12
12/28/2022 11:45:00 PM -0.07 31.874 0.162 7.24 13.79 14.11
12/29/2022 12:00:00 AM -0.07 31.874 0.162 7.25 13.49 14.11
12/29/2022 12:15:00 AM -0.07 31.874 0.162 7.25 13.26 14.11
12/29/2022 12:30:00 AM -0.08 31.856 0.162 7.24 13.29 14.12
12/29/2022 12:45:00 AM -0.08 31.856 0.162 7.24 13.12 14.11
12/29/2022 1:00:00 AM -0.08 31.856 0.163 7.25 12.74 14.12
12/29/2022 1:15:00 AM -0.08 31.856 0.163 7.25 12.34 14.13
12/29/2022 1:30:00 AM -0.08 31.856 0.163 7.27 12.03 14.13
12/29/2022 1:45:00 AM -0.08 31.856 0.163 7.26 12.49 14.13
12/29/2022 2:00:00 AM -0.07 31.874 0.163 7.25 11.42 14.13
12/29/2022 2:15:00 AM -0.07 31.874 0.163 7.28 11.98 14.13
12/29/2022 2:30:00 AM -0.07 31.874 0.163 7.28 11.89 14.13
12/29/2022 2:45:00 AM -0.07 31.874 0.163 7.28 10.76 14.13
12/29/2022 3:00:00 AM -0.07 31.874 0.163 7.26 11.21 14.12
12/29/2022 3:15:00 AM -0.07 31.874 0.163 7.28 11.49 14.13
12/29/2022 3:30:00 AM -0.07 31.874 0.163 7.28 10.83 14.13
12/29/2022 3:45:00 AM -0.07 31.874 0.137 7.29 10.76 14.13
12/29/2022 4:00:00 AM -0.07 31.874 0.108 7.29 10.26 14.14
12/29/2022 4:15:00 AM -0.07 31.874 0.084 7.28 10.26 14.14
12/29/2022 4:30:00 AM -0.07 31.874 0.062 7.29 16.78 14.13
12/29/2022 4:45:00 AM -0.06 31.892 0.054 7.29 16.31 14.14
12/29/2022 5:00:00 AM -0.06 31.892 0.051 7.29 15.87 14.14
12/29/2022 5:15:00 AM -0.06 31.892 0.049 7.29 11.23 14.14
12/29/2022 5:30:00 AM -0.06 31.892 0.047 7.3 9.64 14.14
12/29/2022 5:45:00 AM -0.06 31.892 0.047 7.3 9.43 14.14
12/29/2022 6:00:00 AM -0.06 31.892 0.046 7.3 10.24 14.13
12/29/2022 6:15:00 AM -0.06 31.892 0.044 7.3 10.79 14.14
12/29/2022 6:30:00 AM -0.06 31.892 0.044 7.3 10.95 14.13
12/29/2022 6:45:00 AM -0.06 31.892 0.041 7.31 11.46 14.14
12/29/2022 7:00:00 AM -0.05 31.91 0.107 7.3 17.56 14.13
12/29/2022 7:15:00 AM -0.06 31.892 0.051 7.29 9.43 14.14
12/29/2022 7:30:00 AM -0.06 31.892 0.168 7.35 23.21 14.13
12/29/2022 7:45:00 AM -0.06 31.892 0.164 7.29 13.48 14.14
12/29/2022 8:00:00 AM -0.06 31.892 0.165 7.3 11.66 14.14
12/29/2022 8:15:00 AM -0.06 31.892 0.165 7.3 11.27 14.15
12/29/2022 8:30:00 AM -0.06 31.892 0.165 7.3 10.81 14.15
12/29/2022 8:45:00 AM -0.06 31.892 0.165 7.3 9.27 14.15
12/29/2022 9:00:00 AM -0.06 31.892 0.165 7.3 9.39 14.15
12/29/2022 9:15:00 AM -0.06 31.892 0.165 7.3 9.03 14.15
12/29/2022 9:30:00 AM -0.06 31.892 0.165 7.3 8.81 14.15
12/29/2022 9:45:00 AM -0.06 31.892 0.166 7.3 9.43 14.16
12/29/2022 10:00:00 AM -0.06 31.892 0.166 7.3 10.04 14.16
12/29/2022 10:15:00 AM -0.05 31.91 0.166 7.3 9.01 14.16
12/29/2022 10:30:00 AM -0.05 31.91 0.166 7.31 11.82 14.16
12/29/2022 10:45:00 AM -0.05 31.91 0.166 7.3 12.43 14.16
12/29/2022 11:00:00 AM -0.04 31.928 0.166 7.3 12.8 14.16
12/29/2022 11:15:00 AM -0.03 31.946 0.166 7.31 16.78 14.15
12/29/2022 11:30:00 AM -0.02 31.964 0.166 7.29 11.81 14.16
12/29/2022 11:45:00 AM 0.01 32.018 0.166 7.3 12.22 14.15
12/29/2022 12:00:00 PM 0.04 32.072 0.166 7.3 11.86 14.15
12/29/2022 12:15:00 PM 0.06 32.108 0.166 7.29 11.68 14.15
12/29/2022 12:30:00 PM 0.1 32.18 0.166 7.29 12.33 14.13
12/29/2022 12:45:00 PM 0.13 32.234 0.166 7.29 12.84 14.13
12/29/2022 1:00:00 PM 0.17 32.306 0.166 7.28 13.46 14.13
12/29/2022 1:15:00 PM 0.21 32.378 0.166 7.28 13.61 14.12
12/29/2022 1:30:00 PM 0.25 32.45 0.166 7.29 14.81 14.12
12/29/2022 1:45:00 PM 0.28 32.504 0.166 7.28 14.68 14.11
12/29/2022 2:00:00 PM 0.3 32.54 0.166 7.29 14.53 14.11
12/29/2022 2:15:00 PM 0.33 32.594 0.166 7.29 14.46 14.1
12/29/2022 2:30:00 PM 0.34 32.612 0.167 7.27 14.9 14.1
12/29/2022 2:45:00 PM 0.37 32.666 0.167 7.28 14.06 14.09
12/29/2022 3:00:00 PM 0.38 32.684 0.167 7.28 14.68 14.09
12/29/2022 3:15:00 PM 0.36 32.648 0.167 7.28 14.64 14.08
12/29/2022 3:30:00 PM 0.36 32.648 0.167 7.29 14.2 14.08
12/29/2022 3:45:00 PM 0.36 32.648 0.167 7.28 13.86 14.08
12/29/2022 4:00:00 PM 0.35 32.63 0.167 7.28 13.41 14.08
12/29/2022 4:15:00 PM 0.33 32.594 0.167 7.27 13.22 14.07
12/29/2022 4:30:00 PM 0.32 32.576 0.168 7.29 12.44 14.07
12/29/2022 4:45:00 PM 0.3 32.54 0.168 7.28 12.7 14.07
12/29/2022 5:00:00 PM 0.29 32.522 0.168 7.28 12.27 14.06
12/29/2022 5:15:00 PM 0.27 32.486 0.168 7.28 12.4 14.06
12/29/2022 5:30:00 PM 0.26 32.468 0.168 7.28 12.84 14.06
12/29/2022 5:45:00 PM 0.24 32.432 0.168 7.28 12.44 14.06
12/29/2022 6:00:00 PM 0.24 32.432 0.169 7.28 12.28 14.06
12/29/2022 6:15:00 PM 0.22 32.396 0.169 7.28 12.1 14.06
12/29/2022 6:30:00 PM 0.21 32.378 0.169 7.29 11.72 14.06
12/29/2022 6:45:00 PM 0.2 32.36 0.169 7.28 11.82 14.06
12/29/2022 7:00:00 PM 0.19 32.342 0.169 7.27 11.76 14.06
12/29/2022 7:15:00 PM 0.19 32.342 0.169 7.28 12.14 14.06
12/29/2022 7:30:00 PM 0.17 32.306 0.169 7.28 11.82 14.07
12/29/2022 7:45:00 PM 0.16 32.288 0.169 7.28 11.57 14.06
12/29/2022 8:00:00 PM 0.16 32.288 0.169 7.27 11.65 14.07
12/29/2022 8:15:00 PM 0.15 32.27 0.169 7.29 11.52 14.07
12/29/2022 8:30:00 PM 0.14 32.252 0.169 7.28 11.29 14.06
12/29/2022 8:45:00 PM 0.14 32.252 0.169 7.28 11.69 14.07
12/29/2022 9:00:00 PM 0.15 32.27 0.169 7.28 11.33 14.07
12/29/2022 9:15:00 PM 0.16 32.288 0.169 7.27 11.08 14.07
12/29/2022 9:30:00 PM 0.17 32.306 0.169 7.28 11.08 14.07
12/29/2022 9:45:00 PM 0.17 32.306 0.169 7.28 11.28 14.07
12/29/2022 10:00:00 PM 0.26 32.468 0.17 7.27 12.14 14.01
12/29/2022 10:15:00 PM 0.19 32.342 0.17 7.28 11.26 14.06
12/29/2022 10:30:00 PM 0.2 32.36 0.17 7.29 10.87 14.07
12/29/2022 10:45:00 PM 0.2 32.36 0.17 7.29 10.81 14.07
12/29/2022 11:00:00 PM 0.21 32.378 0.17 7.29 10.84 14.07
12/29/2022 11:15:00 PM 0.21 32.378 0.17 7.29 10.9 14.07
12/29/2022 11:30:00 PM 0.21 32.378 0.17 7.29 10.91 14.06
12/29/2022 11:45:00 PM 0.21 32.378 0.17 7.29 11.03 14.06
12/30/2022 12:00:00 AM 0.22 32.396 0.17 7.28 10.87 14.06
12/30/2022 12:15:00 AM 0.21 32.378 0.17 7.29 11.1 14.06
12/30/2022 12:30:00 AM 0.21 32.378 0.17 7.29 11.47 14.06
12/30/2022 12:45:00 AM 0.21 32.378 0.17 7.29 10.93 14.06
12/30/2022 1:00:00 AM 0.21 32.378 0.17 7.29 11.02 14.06
12/30/2022 1:15:00 AM 0.21 32.378 0.17 7.29 11.15 14.06
12/30/2022 1:30:00 AM 0.21 32.378 0.17 7.28 11 14.05
12/30/2022 1:45:00 AM 0.21 32.378 0.17 7.28 11.38 14.05
12/30/2022 2:00:00 AM 0.21 32.378 0.17 7.29 11.05 14.05
12/30/2022 2:15:00 AM 0.21 32.378 0.17 7.28 10.72 14.05
12/30/2022 2:30:00 AM 0.21 32.378 0.17 7.29 10.88 14.04
12/30/2022 2:45:00 AM 0.21 32.378 0.17 7.29 10.98 14.05
12/30/2022 3:00:00 AM 0.21 32.378 0.171 7.29 11.36 14.04
12/30/2022 3:15:00 AM 0.22 32.396 0.171 7.29 10.59 14.04
12/30/2022 3:30:00 AM 0.22 32.396 0.171 7.29 10.95 14.03
12/30/2022 3:45:00 AM 0.22 32.396 0.171 7.29 10.54 14.03
12/30/2022 4:00:00 AM 0.22 32.396 0.171 7.29 10.36 14.03
12/30/2022 4:15:00 AM 0.22 32.396 0.171 7.28 10.82 14.03
12/30/2022 4:30:00 AM 0.23 32.414 0.171 7.28 10.73 14.02
12/30/2022 4:45:00 AM 0.23 32.414 0.171 7.28 10.43 14.03
12/30/2022 5:00:00 AM 0.23 32.414 0.171 7.28 10.72 14.02
12/30/2022 5:15:00 AM 0.24 32.432 0.171 7.28 10.59 14.02
12/30/2022 5:30:00 AM 0.24 32.432 0.171 7.28 10.31 14.01
12/30/2022 5:45:00 AM 0.24 32.432 0.171 7.28 10.7 14.01
12/30/2022 6:00:00 AM 0.24 32.432 0.171 7.28 10.41 14.02
12/30/2022 6:15:00 AM 0.24 32.432 0.171 7.28 10.15 14.01
12/30/2022 6:30:00 AM 0.25 32.45 0.171 7.28 10.05 14
12/30/2022 6:45:00 AM 0.25 32.45 0.171 7.28 10.07 14.01
12/30/2022 7:00:00 AM 0.26 32.468 0.171 7.28 10.32 14.01
12/30/2022 7:15:00 AM 0.27 32.486 0.171 7.28 10.19 14
12/30/2022 7:30:00 AM 0.28 32.504 0.171 7.28 10.19 14
12/30/2022 7:45:00 AM 0.28 32.504 0.171 7.28 9.98 13.99
12/30/2022 8:00:00 AM 0.29 32.522 0.171 7.28 9.84 13.99
12/30/2022 8:15:00 AM 0.3 32.54 0.171 7.28 10.25 13.99
12/30/2022 8:30:00 AM 0.31 32.558 0.171 7.28 10.09 13.99
12/30/2022 8:45:00 AM 0.32 32.576 0.171 7.29 9.88 13.99
12/30/2022 9:00:00 AM 0.33 32.594 0.171 7.28 10.26 13.99
12/30/2022 9:15:00 AM 0.34 32.612 0.171 7.29 10.44 13.99
12/30/2022 9:30:00 AM 0.36 32.648 0.171 7.29 10.56 13.99
12/30/2022 9:45:00 AM 0.37 32.666 0.171 7.29 10.31 13.99
12/30/2022 10:00:00 AM 0.4 32.72 0.171 7.29 10.34 13.99
12/30/2022 10:15:00 AM 0.45 32.81 0.171 7.3 10.08 13.99
12/30/2022 10:30:00 AM 0.49 32.882 0.171 7.29 10.07 14
12/30/2022 10:45:00 AM 0.52 32.936 0.171 7.29 9.98 14
12/30/2022 11:00:00 AM 0.54 32.972 0.171 7.29 9.95 14
12/30/2022 11:15:00 AM 0.56 33.008 0.171 7.29 9.79 14
12/30/2022 11:30:00 AM 0.57 33.026 0.171 7.29 10.01 14
12/30/2022 11:45:00 AM 0.58 33.044 0.171 7.3 10.36 14
12/30/2022 12:00:00 PM 0.6 33.08 0.171 7.3 10.42 13.99
12/30/2022 12:15:00 PM 0.62 33.116 0.171 7.3 10.39 13.98
12/30/2022 12:30:00 PM 0.64 33.152 0.171 7.3 10.32 13.99
12/30/2022 12:45:00 PM 0.66 33.188 0.171 7.3 10.38 13.99
12/30/2022 1:00:00 PM 0.68 33.224 0.171 7.3 10.05 13.98
12/30/2022 1:15:00 PM 0.72 33.296 0.171 7.3 10.44 13.98
12/30/2022 1:30:00 PM 0.76 33.368 0.171 7.31 10.14 13.98
12/30/2022 1:45:00 PM 0.79 33.422 0.171 7.3 10.18 13.97
12/30/2022 2:00:00 PM 0.82 33.476 0.171 7.31 10.81 13.97
12/30/2022 2:15:00 PM 0.85 33.53 0.171 7.31 10.28 13.96
12/30/2022 2:30:00 PM 0.87 33.566 0.171 7.31 10.41 13.96
12/30/2022 2:45:00 PM 0.9 33.62 0.171 7.31 10.52 13.95
12/30/2022 3:00:00 PM 0.93 33.674 0.171 7.31 10.53 13.95
12/30/2022 3:15:00 PM 0.93 33.674 0.171 7.31 10.47 13.95
12/30/2022 3:30:00 PM 0.94 33.692 0.171 7.31 10.45 13.94
12/30/2022 3:45:00 PM 0.95 33.71 0.171 7.31 10.29 13.94
12/30/2022 4:00:00 PM 0.96 33.728 0.171 7.31 10.32 13.93
12/30/2022 4:15:00 PM 0.96 33.728 0.171 7.31 10.71 13.93
12/30/2022 4:30:00 PM 0.94 33.692 0.171 7.31 10.7 13.92
12/30/2022 4:45:00 PM 0.92 33.656 0.172 7.31 10.98 13.91
12/30/2022 5:00:00 PM 0.9 33.62 0.172 7.3 10.63 13.91
12/30/2022 5:15:00 PM 0.88 33.584 0.172 7.31 10.87 13.9
12/30/2022 5:30:00 PM 0.85 33.53 0.172 7.3 11.19 13.9
12/30/2022 5:45:00 PM 0.83 33.494 0.172 7.3 11.2 13.89
12/30/2022 6:00:00 PM 0.8 33.44 0.172 7.3 11.23 13.89
12/30/2022 6:15:00 PM 0.78 33.404 0.172 7.3 11.07 13.89
12/30/2022 6:30:00 PM 0.76 33.368 0.171 7.3 11.24 13.89
12/30/2022 6:45:00 PM 0.74 33.332 0.171 7.29 11.4 13.89
12/30/2022 7:00:00 PM 0.73 33.314 0.171 7.3 11.4 13.89
12/30/2022 7:15:00 PM 0.71 33.278 0.171 7.3 11.57 13.9
12/30/2022 7:30:00 PM 0.7 33.26 0.171 7.29 11.3 13.89
12/30/2022 7:45:00 PM 0.7 33.26 0.171 7.3 11.52 13.89
12/30/2022 8:00:00 PM 0.69 33.242 0.171 7.3 11.5 13.9
12/30/2022 8:15:00 PM 0.69 33.242 0.171 7.3 11.39 13.9
12/30/2022 8:30:00 PM 0.69 33.242 0.171 7.3 11.3 13.89
12/30/2022 8:45:00 PM 0.69 33.242 0.171 7.29 11.68 13.9
12/30/2022 9:00:00 PM 0.69 33.242 0.171 7.29 11.45 13.9
12/30/2022 9:15:00 PM 0.69 33.242 0.171 7.3 11.23 13.9
12/30/2022 9:30:00 PM 0.69 33.242 0.171 7.3 11.28 13.9
12/30/2022 9:45:00 PM 0.68 33.224 0.171 7.3 11.45 13.9
12/30/2022 10:00:00 PM 0.71 33.278 0.171 7.28 11.63 13.85
12/30/2022 10:15:00 PM 0.68 33.224 0.17 7.31 11.1 13.9
12/30/2022 10:30:00 PM 0.67 33.206 0.17 7.3 11.25 13.91
12/30/2022 10:45:00 PM 0.66 33.188 0.17 7.3 12.01 13.91
12/30/2022 11:00:00 PM 0.66 33.188 0.17 7.3 11.41 13.9
12/30/2022 11:15:00 PM 0.65 33.17 0.17 7.3 11.42 13.9
12/30/2022 11:30:00 PM 0.64 33.152 0.17 7.3 11.47 13.9
12/30/2022 11:45:00 PM 0.64 33.152 0.17 7.31 11.08 13.9
12/31/2022 12:00:00 AM 0.64 33.152 0.17 7.3 11.58 13.9
12/31/2022 12:15:00 AM 0.64 33.152 0.17 7.31 11.58 13.9
12/31/2022 12:30:00 AM 0.63 33.134 0.17 7.31 11.51 13.9
12/31/2022 12:45:00 AM 0.63 33.134 0.17 7.3 11.66 13.89
12/31/2022 1:00:00 AM 0.63 33.134 0.169 7.3 11.33 13.89
12/31/2022 1:15:00 AM 0.63 33.134 0.169 7.31 11.91 13.89
12/31/2022 1:30:00 AM 0.63 33.134 0.169 7.31 11.29 13.89
12/31/2022 1:45:00 AM 0.62 33.116 0.169 7.31 11.44 13.88
12/31/2022 2:00:00 AM 0.62 33.116 0.169 7.31 11.77 13.88
12/31/2022 2:15:00 AM 0.61 33.098 0.169 7.31 10.99 13.88
12/31/2022 2:30:00 AM 0.61 33.098 0.169 7.31 11.25 13.88
12/31/2022 2:45:00 AM 0.61 33.098 0.169 7.31 11.82 13.88
12/31/2022 3:00:00 AM 0.6 33.08 0.169 7.3 10.65 13.87
12/31/2022 3:15:00 AM 0.6 33.08 0.169 7.3 10.8 13.87
12/31/2022 3:30:00 AM 0.59 33.062 0.169 7.3 10.96 13.87
12/31/2022 3:45:00 AM 0.58 33.044 0.169 7.3 10.75 13.87
12/31/2022 4:00:00 AM 0.58 33.044 0.169 7.3 10.88 13.87
12/31/2022 4:15:00 AM 0.57 33.026 0.169 7.31 10.69 13.86
12/31/2022 4:30:00 AM 0.57 33.026 0.168 7.3 10.59 13.86
12/31/2022 4:45:00 AM 0.56 33.008 0.168 7.3 10.58 13.86
12/31/2022 5:00:00 AM 0.55 32.99 0.168 7.3 10.66 13.86
12/31/2022 5:15:00 AM 0.55 32.99 0.168 7.3 10.54 13.86
12/31/2022 5:30:00 AM 0.55 32.99 0.168 7.3 10.74 13.85
12/31/2022 5:45:00 AM 0.56 33.008 0.168 7.29 10.81 13.85
12/31/2022 6:00:00 AM 0.56 33.008 0.168 7.29 10.96 13.85
12/31/2022 6:15:00 AM 0.57 33.026 0.168 7.3 10.31 13.84
12/31/2022 6:30:00 AM 0.57 33.026 0.168 7.29 10.73 13.84
12/31/2022 6:45:00 AM 0.58 33.044 0.168 7.3 10.57 13.84
12/31/2022 7:00:00 AM 0.58 33.044 0.168 7.29 10.64 13.84
12/31/2022 7:15:00 AM 0.59 33.062 0.168 7.31 10.78 13.84
12/31/2022 7:30:00 AM 0.6 33.08 0.168 7.3 10.44 13.84
12/31/2022 7:45:00 AM 0.61 33.098 0.168 7.3 10.7 13.83
12/31/2022 8:00:00 AM 0.62 33.116 0.168 7.3 11.86 13.83
12/31/2022 8:15:00 AM 0.64 33.152 0.168 7.3 15.11 13.82
12/31/2022 8:30:00 AM 0.66 33.188 0.168 7.3 11 13.82
12/31/2022 8:45:00 AM 0.67 33.206 0.168 7.3 10.89 13.82
12/31/2022 9:00:00 AM 0.68 33.224 0.167 7.3 10.7 13.82
12/31/2022 9:15:00 AM 0.69 33.242 0.167 7.3 10.51 13.82
12/31/2022 9:30:00 AM 0.7 33.26 0.167 7.3 10.45 13.82
12/31/2022 9:45:00 AM 0.71 33.278 0.167 7.31 10.3 13.82
12/31/2022 10:00:00 AM 0.72 33.296 0.167 7.31 10.3 13.82
12/31/2022 10:15:00 AM 0.73 33.314 0.167 7.3 10.31 13.82
12/31/2022 10:30:00 AM 0.74 33.332 0.167 7.31 10.23 13.82
12/31/2022 10:45:00 AM 0.76 33.368 0.167 7.31 10.4 13.82
12/31/2022 11:00:00 AM 0.78 33.404 0.166 7.31 10.84 13.82
12/31/2022 11:15:00 AM 0.8 33.44 0.166 7.31 10.55 13.82
12/31/2022 11:30:00 AM 0.82 33.476 0.166 7.31 10.2 13.83
12/31/2022 11:45:00 AM 0.83 33.494 0.166 7.31 10.68 13.83
12/31/2022 12:00:00 PM 0.85 33.53 0.166 7.31 10.48 13.82
12/31/2022 12:15:00 PM 0.86 33.548 0.166 7.31 10.78 13.82
12/31/2022 12:30:00 PM 0.88 33.584 0.166 7.31 10.58 13.82
12/31/2022 12:45:00 PM 0.89 33.602 0.166 7.31 10.57 13.82
12/31/2022 1:00:00 PM 0.91 33.638 0.166 7.32 10.58 13.82
12/31/2022 1:15:00 PM 0.92 33.656 0.166 7.31 10.34 13.82
12/31/2022 1:30:00 PM 0.93 33.674 0.165 7.32 10.88 13.81
12/31/2022 1:45:00 PM 0.94 33.692 0.165 7.32 10.82 13.82
12/31/2022 2:00:00 PM 0.94 33.692 0.165 7.31 10.99 13.81
12/31/2022 2:15:00 PM 0.96 33.728 0.165 7.32 10.83 13.8
12/31/2022 2:30:00 PM 0.97 33.746 0.165 7.32 10.98 13.8
12/31/2022 2:45:00 PM 0.99 33.782 0.165 7.32 10.77 13.79
12/31/2022 3:00:00 PM 0.99 33.782 0.165 7.32 10.93 13.79
12/31/2022 3:15:00 PM 1 33.8 0.165 7.32 11.22 13.78
12/31/2022 3:30:00 PM 1 33.8 0.165 7.31 11.25 13.78
12/31/2022 3:45:00 PM 1.01 33.818 0.165 7.31 11 13.78
12/31/2022 4:00:00 PM 1.01 33.818 0.165 7.31 10.94 13.77
12/31/2022 4:15:00 PM 1.02 33.836 0.165 7.31 11.33 13.77
12/31/2022 4:30:00 PM 1.02 33.836 0.165 7.31 11.17 13.76
12/31/2022 4:45:00 PM 1.02 33.836 0.165 7.31 11.37 13.76
12/31/2022 5:00:00 PM 1.03 33.854 0.165 7.31 11.65 13.75
12/31/2022 5:15:00 PM 1.03 33.854 0.165 7.31 11.45 13.75
12/31/2022 5:30:00 PM 1.03 33.854 0.165 7.31 11.56 13.75
12/31/2022 5:45:00 PM 1.03 33.854 0.165 7.31 11.88 13.75
12/31/2022 6:00:00 PM 1.03 33.854 0.165 7.31 11.92 13.74
12/31/2022 6:15:00 PM 1.03 33.854 0.165 7.31 11.65 13.74
12/31/2022 6:30:00 PM 1.03 33.854 0.165 7.3 11.79 13.74
12/31/2022 6:45:00 PM 1.02 33.836 0.166 7.31 12.29 13.74
12/31/2022 7:00:00 PM 1.03 33.854 0.166 7.31 12.32 13.74
12/31/2022 7:15:00 PM 1.03 33.854 0.166 7.31 11.85 13.73
12/31/2022 7:30:00 PM 1.03 33.854 0.166 7.31 12.65 13.73
12/31/2022 7:45:00 PM 1.03 33.854 0.166 7.31 12.48 13.73
12/31/2022 8:00:00 PM 1.04 33.872 0.166 7.31 12.11 13.73
12/31/2022 8:15:00 PM 1.04 33.872 0.165 7.31 12.33 13.72
12/31/2022 8:30:00 PM 1.04 33.872 0.165 7.31 12.8 13.72
12/31/2022 8:45:00 PM 1.04 33.872 0.165 7.32 12.66 13.72
12/31/2022 9:00:00 PM 1.05 33.89 0.165 7.31 12.73 13.72
12/31/2022 9:15:00 PM 1.05 33.89 0.165 7.31 13.02 13.72
12/31/2022 9:30:00 PM 1.06 33.908 0.165 7.31 13.11 13.71
12/31/2022 9:45:00 PM 1.06 33.908 0.165 7.31 13.21 13.71
12/31/2022 10:00:00 PM 1.06 33.908 0.165 7.3 13 13.71
12/31/2022 10:15:00 PM 1.07 33.926 0.165 7.3 13.27 13.71
12/31/2022 10:30:00 PM 1.07 33.926 0.165 7.31 12.96 13.7
12/31/2022 10:45:00 PM 1.08 33.944 0.165 7.3 13.96 13.69
12/31/2022 11:00:00 PM 1.08 33.944 0.164 7.3 13.45 13.69
12/31/2022 11:15:00 PM 1.09 33.962 0.164 7.3 14.18 13.69
12/31/2022 11:30:00 PM 1.09 33.962 0.164 7.3 13.94 13.68
12/31/2022 11:45:00 PM 1.1 33.98 0.164 7.3 14.46 13.67
1/1/2023 12:00:00 AM 1.1 33.98 0.164 7.31 14.36 13.67
1/1/2023 12:15:00 AM 1.1 33.98 0.164 7.3 14.57 13.66
1/1/2023 12:30:00 AM 1.11 33.998 0.164 7.31 14.62 13.65
1/1/2023 12:45:00 AM 1.11 33.998 0.163 7.31 14.27 13.65
1/1/2023 1:00:00 AM 1.11 33.998 0.163 7.3 14.89 13.64
1/1/2023 1:15:00 AM 1.11 33.998 0.163 7.31 14.7 13.63
1/1/2023 1:30:00 AM 1.12 34.016 0.163 7.31 14.82 13.62
1/1/2023 1:45:00 AM 1.13 34.034 0.163 7.31 15.09 13.62
1/1/2023 2:00:00 AM 1.14 34.052 0.163 7.32 15.06 13.61
1/1/2023 2:15:00 AM 1.15 34.07 0.162 7.31 15.74 13.61
1/1/2023 2:30:00 AM 1.16 34.088 0.162 7.32 15.66 13.6
1/1/2023 2:45:00 AM 1.17 34.106 0.162 7.32 16.18 13.59
1/1/2023 3:00:00 AM 1.18 34.124 0.162 7.32 15.11 13.6
1/1/2023 3:15:00 AM 1.18 34.124 0.162 7.33 15.27 13.58
1/1/2023 3:30:00 AM 1.2 34.16 0.161 7.33 15.51 13.57
1/1/2023 3:45:00 AM 1.22 34.196 0.161 7.33 16.17 13.57
1/1/2023 4:00:00 AM 1.23 34.214 0.161 7.32 16.13 13.56
1/1/2023 4:15:00 AM 1.26 34.268 0.161 7.33 16.94 13.56
1/1/2023 4:30:00 AM 1.27 34.286 0.161 7.33 16.32 13.54
1/1/2023 4:45:00 AM 1.28 34.304 0.16 7.33 16.23 13.55
1/1/2023 5:00:00 AM 1.29 34.322 0.16 7.34 16.19 13.54
1/1/2023 5:15:00 AM 1.31 34.358 0.16 7.33 16.59 13.54
1/1/2023 5:30:00 AM 1.32 34.376 0.16 7.34 16.15 13.53
1/1/2023 5:45:00 AM 1.33 34.394 0.16 7.34 16.95 13.53
1/1/2023 6:00:00 AM 1.34 34.412 0.159 7.35 16.78 13.53
1/1/2023 6:15:00 AM 1.36 34.448 0.159 7.35 17.13 13.52
1/1/2023 6:30:00 AM 1.38 34.484 0.159 7.35 17.2 13.52
1/1/2023 6:45:00 AM 1.39 34.502 0.159 7.35 17.08 13.51
1/1/2023 7:00:00 AM 1.41 34.538 0.159 7.35 17.26 13.51
1/1/2023 7:15:00 AM 1.42 34.556 0.158 7.35 17.92 13.5
1/1/2023 7:30:00 AM 1.42 34.556 0.158 7.35 18.13 13.5
1/1/2023 7:45:00 AM 1.43 34.574 0.158 7.35 17.66 13.5
1/1/2023 8:00:00 AM 1.43 34.574 0.158 7.35 17.14 13.5
1/1/2023 8:15:00 AM 1.44 34.592 0.158 7.36 17.94 13.49
1/1/2023 8:30:00 AM 1.45 34.61 0.157 7.35 17.89 13.49
1/1/2023 8:45:00 AM 1.46 34.628 0.157 7.35 17.9 13.49
1/1/2023 9:00:00 AM 1.46 34.628 0.157 7.35 17.45 13.49
1/1/2023 9:15:00 AM 1.47 34.646 0.157 7.35 18.52 13.5
1/1/2023 9:30:00 AM 1.48 34.664 0.157 7.35 17.68 13.49
1/1/2023 9:45:00 AM 1.5 34.7 0.156 7.35 18.03 13.49
1/1/2023 10:00:00 AM 1.51 34.718 0.156 7.35 17.85 13.49
1/1/2023 10:15:00 AM 1.52 34.736 0.156 7.35 17.94 13.49
1/1/2023 10:30:00 AM 1.53 34.754 0.156 7.35 18.32 13.49
1/1/2023 10:45:00 AM 1.54 34.772 0.156 7.35 19.23 13.49
1/1/2023 11:00:00 AM 1.55 34.79 0.156 7.34 18.28 13.49
1/1/2023 11:15:00 AM 1.56 34.808 0.155 7.34 18.95 13.48
1/1/2023 11:30:00 AM 1.57 34.826 0.155 7.35 18.83 13.48
1/1/2023 11:45:00 AM 1.59 34.862 0.155 7.35 19.29 13.48
1/1/2023 12:00:00 PM 1.61 34.898 0.155 7.35 18.22 13.48
1/1/2023 12:15:00 PM 1.63 34.934 0.155 7.34 18.68 13.48
1/1/2023 12:30:00 PM 1.67 35.006 0.155 7.35 18.27 13.48
1/1/2023 12:45:00 PM 1.7 35.06 0.155 7.35 18.88 13.48
1/1/2023 1:00:00 PM 1.72 35.096 0.155 7.35 19.23 13.48
1/1/2023 1:15:00 PM 1.74 35.132 0.155 7.34 19.6 13.47
1/1/2023 1:30:00 PM 1.76 35.168 0.155 7.34 20.1 13.47
1/1/2023 1:45:00 PM 1.78 35.204 0.155 7.35 20.39 13.48
1/1/2023 2:00:00 PM 1.78 35.204 0.155 7.34 19.12 13.47
1/1/2023 2:15:00 PM 1.79 35.222 0.155 7.34 20.66 13.46
1/1/2023 2:30:00 PM 1.8 35.24 0.155 7.34 21.23 13.46
1/1/2023 2:45:00 PM 1.81 35.258 0.155 7.35 20.63 13.46
1/1/2023 3:00:00 PM 1.82 35.276 0.155 7.35 20.43 13.46
1/1/2023 3:15:00 PM 1.83 35.294 0.155 7.35 20.93 13.46
1/1/2023 3:30:00 PM 1.85 35.33 0.155 7.34 20.96 13.45
1/1/2023 3:45:00 PM 1.86 35.348 0.154 7.35 21.46 13.45
1/1/2023 4:00:00 PM 1.87 35.366 0.154 7.35 17.98 13.44
1/1/2023 4:15:00 PM 1.88 35.384 0.154 7.34 20.64 13.44
1/1/2023 4:30:00 PM 1.89 35.402 0.154 7.35 21.32 13.43
1/1/2023 4:45:00 PM 1.9 35.42 0.154 7.34 26.37 13.43
1/1/2023 5:00:00 PM 1.91 35.438 0.154 7.34 19.67 13.42
1/1/2023 5:15:00 PM 1.92 35.456 0.154 7.35 24.49 13.4
1/1/2023 5:30:00 PM 1.93 35.474 0.154 7.35 21.92 13.41
1/1/2023 5:45:00 PM 1.94 35.492 0.154 7.34 18.23 13.4
1/1/2023 6:00:00 PM 1.95 35.51 0.154 7.35 21.41 13.4
1/1/2023 6:15:00 PM 1.95 35.51 0.154 7.34 24.47 13.4
1/1/2023 6:30:00 PM 1.96 35.528 0.154 7.35 20.72 13.39
1/1/2023 6:45:00 PM 1.97 35.546 0.154 7.34 19.09 13.38
1/1/2023 7:00:00 PM 1.97 35.546 0.154 7.34 22.28 13.38
1/1/2023 7:15:00 PM 1.98 35.564 0.153 7.35 22.55 13.37
1/1/2023 7:30:00 PM 1.99 35.582 0.153 7.34 23.31 13.37
1/1/2023 7:45:00 PM 2 35.6 0.153 7.34 23.5 13.36
1/1/2023 8:00:00 PM 2.01 35.618 0.153 7.34 23.33 13.36
1/1/2023 8:15:00 PM 2.03 35.654 0.153 7.34 19.36 13.35
1/1/2023 8:30:00 PM 2.04 35.672 0.153 7.34 24.22 13.34
1/1/2023 8:45:00 PM 2.06 35.708 0.153 7.34 23.33 13.34
1/1/2023 9:00:00 PM 2.08 35.744 0.153 7.34 23.44 13.33
1/1/2023 9:15:00 PM 2.09 35.762 0.153 7.34 23.15 13.33
1/1/2023 9:30:00 PM 2.1 35.78 0.153 7.34 22.66 13.32
1/1/2023 9:45:00 PM 2.12 35.816 0.153 7.34 25.89 13.31
1/1/2023 10:00:00 PM 2.13 35.834 0.153 7.35 22.72 13.3
1/1/2023 10:15:00 PM 2.14 35.852 0.152 7.34 22.41 13.3
1/1/2023 10:30:00 PM 2.15 35.87 0.152 7.34 24.1 13.3
1/1/2023 10:45:00 PM 2.16 35.888 0.152 7.34 22.9 13.29
1/1/2023 11:00:00 PM 2.16 35.888 0.152 7.34 18.54 13.28
1/1/2023 11:15:00 PM 2.17 35.906 0.152 7.34 23.33 13.28
1/1/2023 11:30:00 PM 2.17 35.906 0.152 7.34 23.62 13.27
1/1/2023 11:45:00 PM 2.18 35.924 0.151 7.33 23.22 13.27
1/2/2023 12:00:00 AM 2.18 35.924 0.151 7.34 23.12 13.27
1/2/2023 12:15:00 AM 2.18 35.924 0.151 7.34 24.27 13.27
1/2/2023 12:30:00 AM 2.18 35.924 0.151 7.34 24.23 13.26
1/2/2023 12:45:00 AM 2.18 35.924 0.151 7.34 24.5 13.26
1/2/2023 1:00:00 AM 2.18 35.924 0.15 7.33 23.75 13.26
1/2/2023 1:15:00 AM 2.17 35.906 0.15 7.33 20.92 13.26
1/2/2023 1:30:00 AM 2.17 35.906 0.15 7.33 22.33 13.26
1/2/2023 1:45:00 AM 2.17 35.906 0.15 7.33 23.43 13.26
1/2/2023 2:00:00 AM 2.17 35.906 0.149 7.32 24.59 13.25
1/2/2023 2:15:00 AM 2.17 35.906 0.149 7.32 24.62 13.25
1/2/2023 2:30:00 AM 2.17 35.906 0.149 7.32 25.83 13.25
1/2/2023 2:45:00 AM 2.17 35.906 0.149 7.32 25.34 13.25
1/2/2023 3:00:00 AM 2.18 35.924 0.149 7.32 24.05 13.25
1/2/2023 3:15:00 AM 2.18 35.924 0.148 7.32 24.5 13.25
1/2/2023 3:30:00 AM 2.18 35.924 0.148 7.32 24.29 13.25
1/2/2023 3:45:00 AM 2.18 35.924 0.148 7.32 27.49 13.25
1/2/2023 4:00:00 AM 2.18 35.924 0.148 7.31 23.9 13.25
1/2/2023 4:15:00 AM 2.19 35.942 0.148 7.32 24.97 13.25
1/2/2023 4:30:00 AM 2.2 35.96 0.147 7.32 24.15 13.25
1/2/2023 4:45:00 AM 2.2 35.96 0.147 7.32 24.19 13.24
1/2/2023 5:00:00 AM 2.2 35.96 0.147 7.33 25.16 13.24
1/2/2023 5:15:00 AM 2.21 35.978 0.147 7.33 26.09 13.25
1/2/2023 5:30:00 AM 2.21 35.978 0.147 7.33 24.57 13.25
1/2/2023 5:45:00 AM 2.21 35.978 0.147 7.34 24.02 13.24
1/2/2023 6:00:00 AM 2.21 35.978 0.147 7.33 23.79 13.24
1/2/2023 6:15:00 AM 2.22 35.996 0.147 7.32 26.14 13.24
1/2/2023 6:30:00 AM 2.22 35.996 0.147 7.33 21.52 13.24
1/2/2023 6:45:00 AM 2.22 35.996 0.147 7.32 23.58 13.24
1/2/2023 7:00:00 AM 2.22 35.996 0.146 7.33 23.98 13.24
1/2/2023 7:15:00 AM 2.22 35.996 0.146 7.33 29.31 13.24
1/2/2023 7:30:00 AM 2.22 35.996 0.146 7.32 24.52 13.24
1/2/2023 7:45:00 AM 2.22 35.996 0.146 7.33 18.69 13.24
1/2/2023 8:00:00 AM 2.21 35.978 0.146 7.32 25.78 13.24
1/2/2023 8:15:00 AM 2.21 35.978 0.146 7.32 23.22 13.24
1/2/2023 8:30:00 AM 2.22 35.996 0.146 7.32 23.74 13.24
1/2/2023 8:45:00 AM 2.22 35.996 0.146 7.32 24.51 13.24
1/2/2023 9:00:00 AM 2.23 36.014 0.146 7.32 24.15 13.24
1/2/2023 9:15:00 AM 2.24 36.032 0.146 7.33 25.54 13.24
1/2/2023 9:30:00 AM 2.25 36.05 0.146 7.32 24.42 13.24
1/2/2023 9:45:00 AM 2.27 36.086 0.146 7.31 25.75 13.24
1/2/2023 10:00:00 AM 2.3 36.14 0.146 7.32 23.35 13.23
1/2/2023 10:15:00 AM 2.33 36.194 0.146 7.32 24.13 13.23
1/2/2023 10:30:00 AM 2.37 36.266 0.146 7.32 24.43 13.23
1/2/2023 10:45:00 AM 2.4 36.32 0.146 7.32 24.95 13.23
1/2/2023 11:00:00 AM 2.42 36.356 0.146 7.32 22.78 13.22
1/2/2023 11:15:00 AM 2.45 36.41 0.146 7.33 25.83 13.22
1/2/2023 11:30:00 AM 2.48 36.464 0.147 7.33 23.85 13.21
1/2/2023 11:45:00 AM 2.51 36.518 0.147 7.31 23.51 13.21
1/2/2023 12:00:00 PM 2.54 36.572 0.147 7.33 23.27 13.21
1/2/2023 12:15:00 PM 2.56 36.608 0.147 7.33 19.38 13.2
1/2/2023 12:30:00 PM 2.58 36.644 0.147 7.33 25.18 13.19
1/2/2023 12:45:00 PM 2.61 36.698 0.147 7.33 22.49 13.19
1/2/2023 1:00:00 PM 2.64 36.752 0.147 7.34 25.21 13.19
1/2/2023 1:15:00 PM 2.69 36.842 0.147 7.33 23.47 13.18
1/2/2023 1:30:00 PM 2.72 36.896 0.147 7.33 23.69 13.18
1/2/2023 1:45:00 PM 2.76 36.968 0.147 7.33 22.69 13.17
1/2/2023 2:00:00 PM 2.81 37.058 0.148 7.33 24.33 13.16
1/2/2023 2:15:00 PM 2.84 37.112 0.148 7.34 21.84 13.16
1/2/2023 2:30:00 PM 2.87 37.166 0.148 7.33 22.49 13.15
1/2/2023 2:45:00 PM 2.89 37.202 0.148 7.34 21.55 13.14
1/2/2023 3:00:00 PM 2.91 37.238 0.148 7.34 22.57 13.14
1/2/2023 3:15:00 PM 2.91 37.238 0.149 7.34 21.84 13.13
1/2/2023 3:30:00 PM 2.92 37.256 0.149 7.35 21.2 13.13
1/2/2023 3:45:00 PM 2.92 37.256 0.149 7.35 20.53 13.12
1/2/2023 4:00:00 PM 2.92 37.256 0.149 7.35 21.4 13.12
1/2/2023 4:15:00 PM 2.91 37.238 0.149 7.36 22.39 13.12
1/2/2023 4:30:00 PM 2.9 37.22 0.149 7.37 21.42 13.12
1/2/2023 4:45:00 PM 2.89 37.202 0.15 7.36 20.55 13.11
1/2/2023 5:00:00 PM 2.89 37.202 0.15 7.36 22.29 13.11
1/2/2023 5:15:00 PM 2.89 37.202 0.15 7.36 20.87 13.11
1/2/2023 5:30:00 PM 2.88 37.184 0.15 7.37 21.82 13.11
1/2/2023 5:45:00 PM 2.88 37.184 0.15 7.37 21.19 13.1
1/2/2023 6:00:00 PM 2.88 37.184 0.15 7.37 21.67 13.1
1/2/2023 6:15:00 PM 2.88 37.184 0.15 7.37 21.22 13.09
1/2/2023 6:30:00 PM 2.88 37.184 0.151 7.37 21.67 13.09
1/2/2023 6:45:00 PM 2.88 37.184 0.151 7.37 21.2 13.09
1/2/2023 7:00:00 PM 2.88 37.184 0.151 7.37 21.29 13.09
1/2/2023 7:15:00 PM 2.88 37.184 0.151 7.37 29.74 13.08
1/2/2023 7:30:00 PM 2.88 37.184 0.151 7.36 20.44 13.07
1/2/2023 7:45:00 PM 2.88 37.184 0.151 7.36 21.13 13.07
1/2/2023 8:00:00 PM 2.88 37.184 0.151 7.37 21.26 13.07
1/2/2023 8:15:00 PM 2.88 37.184 0.151 7.36 21.51 13.06
1/2/2023 8:30:00 PM 2.88 37.184 0.151 7.37 21.8 13.06
1/2/2023 8:45:00 PM 2.88 37.184 0.15 7.37 21.97 13.06
1/2/2023 9:00:00 PM 2.88 37.184 0.15 7.37 22.34 13.05
1/2/2023 9:15:00 PM 2.88 37.184 0.15 7.37 20.96 13.05
1/2/2023 9:30:00 PM 2.88 37.184 0.15 7.37 21.79 13.04
1/2/2023 9:45:00 PM 2.87 37.166 0.15 7.36 20.9 13.04
1/2/2023 10:00:00 PM 2.89 37.202 0.15 7.36 21.37 13.01
1/2/2023 10:15:00 PM 2.86 37.148 0.15 7.37 20.61 13.03
1/2/2023 10:30:00 PM 2.86 37.148 0.15 7.36 21.11 13.03
1/2/2023 10:45:00 PM 2.85 37.13 0.15 7.37 21.15 13.03
1/2/2023 11:00:00 PM 2.85 37.13 0.15 7.37 21.43 13.02
1/2/2023 11:15:00 PM 2.84 37.112 0.15 7.37 21.31 13.02
1/2/2023 11:30:00 PM 2.84 37.112 0.15 7.37 21.22 13.01
1/2/2023 11:45:00 PM 2.84 37.112 0.15 7.37 21.6 13.01
1/3/2023 12:00:00 AM 2.83 37.094 0.15 7.38 21.98 13.01
1/3/2023 12:15:00 AM 2.83 37.094 0.149 7.36 22.01 13
1/3/2023 12:30:00 AM 2.82 37.076 0.149 7.36 21.16 13
1/3/2023 12:45:00 AM 2.82 37.076 0.149 7.36 21.4 13
1/3/2023 1:00:00 AM 2.82 37.076 0.149 7.36 21.62 13
1/3/2023 1:15:00 AM 2.83 37.094 0.149 7.36 21.37 13
1/3/2023 1:30:00 AM 2.83 37.094 0.149 7.36 21.42 12.99
1/3/2023 1:45:00 AM 2.83 37.094 0.149 7.35 21.15 12.99
1/3/2023 2:00:00 AM 2.84 37.112 0.148 7.36 21.19 12.99
1/3/2023 2:15:00 AM 2.84 37.112 0.148 7.36 20.45 12.99
1/3/2023 2:30:00 AM 2.84 37.112 0.148 7.36 20.7 12.99
1/3/2023 2:45:00 AM 2.84 37.112 0.148 7.36 21.36 12.99
1/3/2023 3:00:00 AM 2.85 37.13 0.148 7.35 21.8 12.98
1/3/2023 3:15:00 AM 2.85 37.13 0.148 7.35 21.43 12.98
1/3/2023 3:30:00 AM 2.86 37.148 0.148 7.36 20.74 12.98
1/3/2023 3:45:00 AM 2.86 37.148 0.148 7.36 21.36 12.98
1/3/2023 4:00:00 AM 2.87 37.166 0.147 7.35 21.1 12.98
1/3/2023 4:15:00 AM 2.87 37.166 0.147 7.35 20.71 12.98
1/3/2023 4:30:00 AM 2.87 37.166 0.147 7.35 20.69 12.98
1/3/2023 4:45:00 AM 2.88 37.184 0.147 7.35 20.67 12.98
1/3/2023 5:00:00 AM 2.88 37.184 0.147 7.35 20.15 12.98
1/3/2023 5:15:00 AM 2.89 37.202 0.147 7.35 21.04 12.98
1/3/2023 5:30:00 AM 2.89 37.202 0.147 7.35 19.66 12.97
1/3/2023 5:45:00 AM 2.89 37.202 0.146 7.34 22.86 12.98
1/3/2023 6:00:00 AM 2.9 37.22 0.146 7.35 16.53 12.98
1/3/2023 6:15:00 AM 2.9 37.22 0.146 7.35 20.26 12.98
1/3/2023 6:30:00 AM 2.9 37.22 0.146 7.33 19.57 12.97
1/3/2023 6:45:00 AM 2.9 37.22 0.146 7.34 19.53 12.97
1/3/2023 7:00:00 AM 2.91 37.238 0.146 7.34 20.34 12.97
1/3/2023 7:15:00 AM 2.91 37.238 0.146 7.34 19.6 12.97
1/3/2023 7:30:00 AM 2.91 37.238 0.145 7.34 19.3 12.98
1/3/2023 7:45:00 AM 2.91 37.238 0.145 7.33 19.98 12.97
1/3/2023 8:00:00 AM 2.92 37.256 0.145 7.34 19.98 12.97
1/3/2023 8:15:00 AM 2.92 37.256 0.145 7.34 20.1 12.97
1/3/2023 8:30:00 AM 2.92 37.256 0.145 7.33 19.81 12.97
1/3/2023 8:45:00 AM 2.93 37.274 0.145 7.34 19.65 12.97
1/3/2023 9:00:00 AM 2.93 37.274 0.145 7.33 19.38 12.97
1/3/2023 9:15:00 AM 2.93 37.274 0.145 7.33 20.28 12.97
1/3/2023 9:30:00 AM 2.94 37.292 0.144 7.34 19.17 12.97
1/3/2023 9:45:00 AM 2.94 37.292 0.145 7.33 19.77 12.97
1/3/2023 10:00:00 AM 2.95 37.31 0.146 7.33 19.69 12.97
1/3/2023 10:15:00 AM 2.96 37.328 0.145 7.34 19.55 12.97
1/3/2023 10:30:00 AM 2.97 37.346 0.146 7.33 21.03 12.97
1/3/2023 10:45:00 AM 2.97 37.346 0.146 7.34 20.55 12.96
1/3/2023 11:00:00 AM 2.97 37.346 0.145 7.33 19.22 12.96
1/3/2023 11:15:00 AM 2.98 37.364 0.144 7.33 19.15 12.96
1/3/2023 11:30:00 AM 2.99 37.382 0.144 7.33 18.94 12.96
1/3/2023 11:45:00 AM 3 37.4 0.144 7.33 19.73 12.96
1/3/2023 12:00:00 PM 3.01 37.418 0.144 7.33 19.22 12.96
1/3/2023 12:15:00 PM 3.02 37.436 0.145 7.34 17.1 12.95
1/3/2023 12:30:00 PM 3.04 37.472 0.145 7.32 19.45 12.95
1/3/2023 12:45:00 PM 3.06 37.508 0.145 7.33 19.19 12.94
1/3/2023 1:00:00 PM 3.07 37.526 0.146 7.33 19.09 12.93
1/3/2023 1:15:00 PM 3.09 37.562 0.146 7.32 19.96 12.93
1/3/2023 1:30:00 PM 3.09 37.562 0.146 7.32 19.68 12.93
1/3/2023 1:45:00 PM 3.1 37.58 0.146 7.33 19.91 12.93
1/3/2023 2:00:00 PM 3.1 37.58 0.147 7.32 20.31 12.93
1/3/2023 2:15:00 PM 3.11 37.598 0.147 7.32 22.49 12.92
1/3/2023 2:30:00 PM 3.11 37.598 0.148 7.31 22.46 12.92
1/3/2023 2:45:00 PM 3.12 37.616 0.149 7.32 24.23 12.91
1/3/2023 3:00:00 PM 3.13 37.634 0.148 7.31 24.76 12.91
1/3/2023 3:15:00 PM 3.14 37.652 0.148 7.31 25.81 12.91
1/3/2023 3:30:00 PM 3.15 37.67 0.148 7.31 26.2 12.9
1/3/2023 3:45:00 PM 3.15 37.67 0.148 7.31 26.04 12.9
1/3/2023 4:00:00 PM 3.16 37.688 0.148 7.31 25 12.9
1/3/2023 4:15:00 PM 3.17 37.706 0.147 7.31 23.52 12.89
1/3/2023 4:30:00 PM 3.17 37.706 0.147 7.31 23.85 12.89
1/3/2023 4:45:00 PM 3.18 37.724 0.147 7.31 22.42 12.88
1/3/2023 5:00:00 PM 3.19 37.742 0.146 7.31 24.24 12.88
1/3/2023 5:15:00 PM 3.2 37.76 0.146 7.32 29.15 12.87
1/3/2023 5:30:00 PM 3.21 37.778 0.146 7.3 21.62 12.87
1/3/2023 5:45:00 PM 3.21 37.778 0.146 7.31 22.42 12.87
1/3/2023 6:00:00 PM 3.22 37.796 0.146 7.31 22.27 12.87
1/3/2023 6:15:00 PM 3.23 37.814 0.145 7.3 23.39 12.86
1/3/2023 6:30:00 PM 3.24 37.832 0.145 7.32 22.82 12.86
1/3/2023 6:45:00 PM 3.24 37.832 0.145 7.3 22.97 12.86
1/3/2023 7:00:00 PM 3.25 37.85 0.145 7.31 23.62 12.85
1/3/2023 7:15:00 PM 3.26 37.868 0.145 7.3 21.77 12.85
1/3/2023 7:30:00 PM 3.27 37.886 0.144 7.3 23.79 12.85
1/3/2023 7:45:00 PM 3.29 37.922 0.144 7.3 23.26 12.84
1/3/2023 8:00:00 PM 3.3 37.94 0.144 7.3 22.92 12.84
1/3/2023 8:15:00 PM 3.31 37.958 0.144 7.3 23.44 12.83
1/3/2023 8:30:00 PM 3.33 37.994 0.144 7.3 21.72 12.83
1/3/2023 8:45:00 PM 3.34 38.012 0.143 7.3 22.72 12.82
1/3/2023 9:00:00 PM 3.35 38.03 0.143 7.3 25.95 12.82
1/3/2023 9:15:00 PM 3.37 38.066 0.143 7.3 22.32 12.82
1/3/2023 9:30:00 PM 3.38 38.084 0.143 7.3 21.92 12.81
1/3/2023 9:45:00 PM 3.39 38.102 0.143 7.3 22.96 12.8
1/3/2023 10:00:00 PM 3.46 38.228 0.143 7.28 21.28 12.74
1/3/2023 10:15:00 PM 3.41 38.138 0.143 7.3 22.05 12.79
1/3/2023 10:30:00 PM 3.42 38.156 0.143 7.3 21.11 12.79
1/3/2023 10:45:00 PM 3.43 38.174 0.143 7.29 21.65 12.79
1/3/2023 11:00:00 PM 3.44 38.192 0.143 7.3 32.67 12.78
1/3/2023 11:15:00 PM 3.46 38.228 0.143 7.3 21.63 12.77
1/3/2023 11:30:00 PM 3.47 38.246 0.143 7.3 21.08 12.77
1/3/2023 11:45:00 PM 3.48 38.264 0.143 7.3 20.96 12.76
1/4/2023 12:00:00 AM 3.49 38.282 0.143 7.3 19.84 12.76
1/4/2023 12:15:00 AM 3.49 38.282 0.143 7.29 20.69 12.75
1/4/2023 12:30:00 AM 3.5 38.3 0.143 7.29 18.45 12.75
1/4/2023 12:45:00 AM 3.51 38.318 0.143 7.3 20.68 12.75
1/4/2023 1:00:00 AM 3.52 38.336 0.142 7.29 19.93 12.74
1/4/2023 1:15:00 AM 3.53 38.354 0.142 7.3 19.98 12.74
1/4/2023 1:30:00 AM 3.54 38.372 0.142 7.29 20.3 12.73
1/4/2023 1:45:00 AM 3.54 38.372 0.142 7.3 20.56 12.74
1/4/2023 2:00:00 AM 3.55 38.39 0.142 7.3 19.43 12.73
1/4/2023 2:15:00 AM 3.56 38.408 0.142 7.28 19.01 12.72
1/4/2023 2:30:00 AM 3.56 38.408 0.142 7.3 20.2 12.73
1/4/2023 2:45:00 AM 3.57 38.426 0.142 7.29 19.82 12.73
1/4/2023 3:00:00 AM 3.57 38.426 0.142 7.3 19.08 12.72
1/4/2023 3:15:00 AM 3.57 38.426 0.142 7.31 19.25 12.72
1/4/2023 3:30:00 AM 3.57 38.426 0.142 7.29 19.85 12.73
1/4/2023 3:45:00 AM 3.57 38.426 0.142 7.29 19.11 12.72
1/4/2023 4:00:00 AM 3.57 38.426 0.142 7.3 19.02 12.72
1/4/2023 4:15:00 AM 3.58 38.444 0.142 7.3 19.2 12.71
1/4/2023 4:30:00 AM 3.58 38.444 0.142 7.29 18.91 12.72
1/4/2023 4:45:00 AM 3.58 38.444 0.142 7.29 18.9 12.72
1/4/2023 5:00:00 AM 3.58 38.444 0.142 7.29 18.77 12.71
1/4/2023 5:15:00 AM 3.58 38.444 0.142 7.29 42.27 12.71
1/4/2023 5:30:00 AM 3.57 38.426 0.142 7.29 19.55 12.72
1/4/2023 5:45:00 AM 3.57 38.426 0.142 7.29 18.55 12.71
1/4/2023 6:00:00 AM 3.57 38.426 0.142 7.29 19.84 12.71
1/4/2023 6:15:00 AM 3.57 38.426 0.142 7.29 19.57 12.71
1/4/2023 6:30:00 AM 3.57 38.426 0.142 7.29 17.11 12.72
1/4/2023 6:45:00 AM 3.57 38.426 0.142 7.29 19.65 12.71
1/4/2023 7:00:00 AM 3.57 38.426 0.142 7.28 19.69 12.71
1/4/2023 7:15:00 AM 3.58 38.444 0.142 7.28 20.18 12.71
1/4/2023 7:30:00 AM 3.58 38.444 0.142 7.28 20.2 12.72
1/4/2023 7:45:00 AM 3.58 38.444 0.142 7.28 20.85 12.71
1/4/2023 8:00:00 AM 3.59 38.462 0.142 7.27 20.46 12.71
1/4/2023 8:15:00 AM 3.59 38.462 0.142 7.28 22.11 12.71
1/4/2023 8:30:00 AM 3.6 38.48 0.142 7.28 20.41 12.7
1/4/2023 8:45:00 AM 3.61 38.498 0.142 7.28 19.68 12.71
1/4/2023 9:00:00 AM 3.62 38.516 0.141 7.28 19.86 12.72
1/4/2023 9:15:00 AM 3.64 38.552 0.141 7.28 21.53 12.7
1/4/2023 9:30:00 AM 3.66 38.588 0.141 7.28 19.06 12.7
1/4/2023 9:45:00 AM 3.68 38.624 0.141 7.28 20.5 12.69
1/4/2023 10:00:00 AM 3.69 38.642 0.141 7.27 20.06 12.7
1/4/2023 10:15:00 AM 3.7 38.66 0.141 7.28 19.76 12.7
1/4/2023 10:30:00 AM 3.72 38.696 0.141 7.28 19.17 12.69
1/4/2023 10:45:00 AM 3.74 38.732 0.141 7.27 19.66 12.7
1/4/2023 11:00:00 AM 3.76 38.768 0.141 7.27 19 12.69
1/4/2023 11:15:00 AM 3.79 38.822 0.141 7.28 21.66 12.68
1/4/2023 11:30:00 AM 3.81 38.858 0.141 7.27 21.48 12.68
1/4/2023 11:45:00 AM 3.83 38.894 0.141 7.27 19.57 12.68
1/4/2023 12:00:00 PM 3.85 38.93 0.141 7.27 19.42 12.66
1/4/2023 12:15:00 PM 3.86 38.948 0.141 7.27 19.31 12.66
1/4/2023 12:30:00 PM 3.88 38.984 0.142 7.27 19.24 12.65
1/4/2023 12:45:00 PM 3.9 39.02 0.142 7.27 19.39 12.66
1/4/2023 1:00:00 PM 3.92 39.056 0.142 7.28 19.12 12.64
1/4/2023 1:15:00 PM 3.94 39.092 0.142 7.27 17.16 12.64
1/4/2023 1:30:00 PM 3.96 39.128 0.142 7.29 18.88 12.63
1/4/2023 1:45:00 PM 3.98 39.164 0.142 7.28 18.41 12.64
1/4/2023 2:00:00 PM 4 39.2 0.142 7.27 23.67 12.63
1/4/2023 2:15:00 PM 4.01 39.218 0.142 7.28 19.27 12.62
1/4/2023 2:30:00 PM 4.02 39.236 0.142 7.28 18.56 12.62
1/4/2023 2:45:00 PM 4.04 39.272 0.142 7.28 19.34 12.62
1/4/2023 3:00:00 PM 4.05 39.29 0.142 7.28 18.77 12.62
1/4/2023 3:15:00 PM 4.06 39.308 0.142 7.28 18.99 12.62
1/4/2023 3:30:00 PM 4.07 39.326 0.142 7.28 18.22 12.62
1/4/2023 3:45:00 PM 4.08 39.344 0.142 7.28 18.12 12.61
1/4/2023 4:00:00 PM 4.09 39.362 0.142 7.28 19.42 12.61
1/4/2023 4:15:00 PM 4.09 39.362 0.141 7.29 18.16 12.62
1/4/2023 4:30:00 PM 4.1 39.38 0.141 7.28 18.42 12.61
1/4/2023 4:45:00 PM 4.11 39.398 0.141 7.28 17.77 12.61
1/4/2023 5:00:00 PM 4.12 39.416 0.141 7.28 17.85 12.6
1/4/2023 5:15:00 PM 4.13 39.434 0.141 7.28 18.6 12.6
1/4/2023 5:30:00 PM 4.14 39.452 0.141 7.28 18 12.59
1/4/2023 5:45:00 PM 4.15 39.47 0.141 7.27 19.42 12.59
1/4/2023 6:00:00 PM 4.16 39.488 0.141 7.27 19.34 12.58
1/4/2023 6:15:00 PM 4.16 39.488 0.141 7.27 18.33 12.58
1/4/2023 6:30:00 PM 4.17 39.506 0.141 7.28 18.6 12.58
1/4/2023 6:45:00 PM 4.18 39.524 0.141 7.28 18.8 12.58
1/4/2023 7:00:00 PM 4.19 39.542 0.141 7.28 17.46 12.57
1/4/2023 7:15:00 PM 4.2 39.56 0.141 7.28 17.64 12.57
1/4/2023 7:30:00 PM 4.21 39.578 0.141 7.28 17.75 12.56
1/4/2023 7:45:00 PM 4.22 39.596 0.141 7.28 18.61 12.55
1/4/2023 8:00:00 PM 4.23 39.614 0.14 7.27 19.76 12.55
1/4/2023 8:15:00 PM 4.25 39.65 0.14 7.27 18.06 12.54
1/4/2023 8:30:00 PM 4.26 39.668 0.14 7.28 18.2 12.54
1/4/2023 8:45:00 PM 4.27 39.686 0.14 7.28 18.18 12.53
1/4/2023 9:00:00 PM 4.28 39.704 0.14 7.27 19.52 12.52
1/4/2023 9:15:00 PM 4.3 39.74 0.14 7.29 18.86 12.52
1/4/2023 9:30:00 PM 4.31 39.758 0.14 7.26 18.7 12.51
1/4/2023 9:45:00 PM 4.33 39.794 0.14 7.28 18.99 12.5
1/4/2023 10:00:00 PM 4.36 39.848 0.14 7.26 18.02 12.47
1/4/2023 10:15:00 PM 4.36 39.848 0.14 7.28 19.02 12.48
1/4/2023 10:30:00 PM 4.37 39.866 0.14 7.28 17.49 12.48
1/4/2023 10:45:00 PM 4.39 39.902 0.14 7.27 18.96 12.47
1/4/2023 11:00:00 PM 4.41 39.938 0.14 7.27 17.68 12.47
1/4/2023 11:15:00 PM 4.42 39.956 0.139 7.28 17.96 12.46
1/4/2023 11:30:00 PM 4.43 39.974 0.139 7.26 18.93 12.46
1/4/2023 11:45:00 PM 4.44 39.992 0.139 7.27 18 12.45
1/5/2023 12:00:00 AM 4.45 40.01 0.139 7.27 17.95 12.45
1/5/2023 12:15:00 AM 4.45 40.01 0.139 7.27 18.71 12.44
1/5/2023 12:30:00 AM 4.46 40.028 0.139 7.25 18.73 12.43
1/5/2023 12:45:00 AM 4.46 40.028 0.139 7.26 17.82 12.43
1/5/2023 1:00:00 AM 4.47 40.046 0.139 7.26 18.17 12.42
1/5/2023 1:15:00 AM 4.48 40.064 0.139 7.26 17.45 12.42
1/5/2023 1:30:00 AM 4.49 40.082 0.139 7.26 17.61 12.42
1/5/2023 1:45:00 AM 4.5 40.1 0.139 7.26 17.73 12.41
1/5/2023 2:00:00 AM 4.52 40.136 0.139 7.26 17.45 12.4
1/5/2023 2:15:00 AM 4.52 40.136 0.139 7.26 16.63 12.4
1/5/2023 2:30:00 AM 4.53 40.154 0.139 7.25 18.34 12.39
1/5/2023 2:45:00 AM 4.53 40.154 0.139 7.26 17.43 12.39
1/5/2023 3:00:00 AM 4.53 40.154 0.139 7.26 17.46 12.39
1/5/2023 3:15:00 AM 4.53 40.154 0.139 7.26 17.18 12.38
1/5/2023 3:30:00 AM 4.53 40.154 0.139 7.26 17.19 12.38
1/5/2023 3:45:00 AM 4.53 40.154 0.139 7.26 17.07 12.38
1/5/2023 4:00:00 AM 4.53 40.154 0.139 7.26 16.94 12.37
1/5/2023 4:15:00 AM 4.53 40.154 0.139 7.26 18.33 12.37
1/5/2023 4:30:00 AM 4.54 40.172 0.139 7.25 17.79 12.36
1/5/2023 4:45:00 AM 4.54 40.172 0.139 7.27 17.32 12.36
1/5/2023 5:00:00 AM 4.54 40.172 0.139 7.26 18.08 12.36
1/5/2023 5:15:00 AM 4.54 40.172 0.139 7.26 18.01 12.35
1/5/2023 5:30:00 AM 4.54 40.172 0.139 7.26 17.25 12.35
1/5/2023 5:45:00 AM 4.54 40.172 0.139 7.27 16.72 12.35
1/5/2023 6:00:00 AM 4.55 40.19 0.139 7.26 17.81 12.35
1/5/2023 6:15:00 AM 4.55 40.19 0.139 7.26 17.16 12.34
1/5/2023 6:30:00 AM 4.55 40.19 0.139 7.26 16.74 12.34
1/5/2023 6:45:00 AM 4.55 40.19 0.139 7.27 16.67 12.34
1/5/2023 7:00:00 AM 4.55 40.19 0.139 7.27 16.45 12.34
1/5/2023 7:15:00 AM 4.55 40.19 0.14 7.25 17.29 12.34
1/5/2023 7:30:00 AM 4.55 40.19 0.14 7.27 16.62 12.33
1/5/2023 7:45:00 AM 4.55 40.19 0.14 7.28 17.01 12.33
1/5/2023 8:00:00 AM 4.55 40.19 0.14 7.28 16.46 12.33
1/5/2023 8:15:00 AM 4.55 40.19 0.14 7.28 16.29 12.32
1/5/2023 8:30:00 AM 4.55 40.19 0.14 7.28 15.92 12.33
1/5/2023 8:45:00 AM 4.55 40.19 0.14 7.28 16.95 12.32
1/5/2023 9:00:00 AM 4.55 40.19 0.14 7.29 16.91 12.32
1/5/2023 9:15:00 AM 4.57 40.226 0.14 7.27 16.76 12.32
1/5/2023 9:30:00 AM 4.58 40.244 0.14 7.28 16.87 12.32
1/5/2023 9:45:00 AM 4.6 40.28 0.14 7.28 16.4 12.31
1/5/2023 10:00:00 AM 4.63 40.334 0.14 7.28 15.67 12.31
1/5/2023 10:15:00 AM 4.65 40.37 0.141 7.28 15.52 12.31
1/5/2023 10:30:00 AM 4.67 40.406 0.141 7.29 17.14 12.31
1/5/2023 10:45:00 AM 4.71 40.478 0.141 7.28 15.37 12.3
1/5/2023 11:00:00 AM 4.74 40.532 0.141 7.27 17.06 12.3
1/5/2023 11:15:00 AM 4.78 40.604 0.141 7.29 16.95 12.3
1/5/2023 11:30:00 AM 4.81 40.658 0.141 7.29 16.34 12.3
1/5/2023 11:45:00 AM 4.84 40.712 0.142 7.29 15.71 12.3
1/5/2023 12:00:00 PM 4.86 40.748 0.142 7.29 17.48 12.3
1/5/2023 12:15:00 PM 4.9 40.82 0.142 7.3 16.44 12.3
1/5/2023 12:30:00 PM 4.94 40.892 0.142 7.3 15.43 12.3
1/5/2023 12:45:00 PM 4.96 40.928 0.142 7.29 15.83 12.3
1/5/2023 1:00:00 PM 4.99 40.982 0.142 7.3 16.52 12.29
1/5/2023 1:15:00 PM 5.02 41.036 0.142 7.3 16.77 12.3
1/5/2023 1:30:00 PM 5.04 41.072 0.143 7.29 16.4 12.29
1/5/2023 1:45:00 PM 5.07 41.126 0.143 7.31 16.7 12.28
1/5/2023 2:00:00 PM 5.1 41.18 0.143 7.29 16.27 12.28
1/5/2023 2:15:00 PM 5.12 41.216 0.143 7.3 15.87 12.27
1/5/2023 2:30:00 PM 5.14 41.252 0.143 7.31 15.51 12.27
1/5/2023 2:45:00 PM 5.16 41.288 0.143 7.3 15.32 12.27
1/5/2023 3:00:00 PM 5.16 41.288 0.143 7.3 16.98 12.26
1/5/2023 3:15:00 PM 5.16 41.288 0.143 7.31 15.25 12.26
1/5/2023 3:30:00 PM 5.17 41.306 0.143 7.32 15.36 12.26
1/5/2023 3:45:00 PM 5.16 41.288 0.143 7.32 14.78 12.26
1/5/2023 4:00:00 PM 5.15 41.27 0.143 7.3 14.43 12.25
1/5/2023 4:15:00 PM 5.14 41.252 0.143 7.31 15.37 12.25
1/5/2023 4:30:00 PM 5.12 41.216 0.143 7.32 15.49 12.25
1/5/2023 4:45:00 PM 5.11 41.198 0.143 7.3 15.29 12.25
1/5/2023 5:00:00 PM 5.1 41.18 0.144 7.31 14.24 12.25
1/5/2023 5:15:00 PM 5.09 41.162 0.144 7.3 15.26 12.24
1/5/2023 5:30:00 PM 5.09 41.162 0.144 7.31 16.13 12.24
1/5/2023 5:45:00 PM 5.09 41.162 0.144 7.3 15.52 12.24
1/5/2023 6:00:00 PM 5.09 41.162 0.144 7.31 15.05 12.24
1/5/2023 6:15:00 PM 5.09 41.162 0.144 7.3 14.72 12.24
1/5/2023 6:30:00 PM 5.09 41.162 0.144 7.31 15.28 12.24
1/5/2023 6:45:00 PM 5.09 41.162 0.144 7.31 15.59 12.23
1/5/2023 7:00:00 PM 5.08 41.144 0.144 7.31 15.89 12.23
1/5/2023 7:15:00 PM 5.08 41.144 0.144 7.31 14.99 12.22
1/5/2023 7:30:00 PM 5.08 41.144 0.144 7.31 16.1 12.23
1/5/2023 7:45:00 PM 5.07 41.126 0.144 7.31 14.73 12.23
1/5/2023 8:00:00 PM 5.07 41.126 0.144 7.31 14.69 12.22
1/5/2023 8:15:00 PM 5.06 41.108 0.144 7.32 14.3 12.23
1/5/2023 8:30:00 PM 5.06 41.108 0.144 7.31 15.28 12.23
1/5/2023 8:45:00 PM 5.05 41.09 0.144 7.31 15.48 12.23
1/5/2023 9:00:00 PM 5.04 41.072 0.144 7.32 15.2 12.22
1/5/2023 9:15:00 PM 5.04 41.072 0.144 7.31 14.56 12.23
1/5/2023 9:30:00 PM 5.03 41.054 0.144 7.31 16.68 12.22
1/5/2023 9:45:00 PM 5.02 41.036 0.144 7.31 15.21 12.22
1/5/2023 10:00:00 PM 5.02 41.036 0.144 7.3 14.86 12.19
1/5/2023 10:15:00 PM 5.01 41.018 0.144 7.31 15.53 12.21
1/5/2023 10:30:00 PM 5 41 0.144 7.3 14.46 12.21
1/5/2023 10:45:00 PM 4.99 40.982 0.144 7.31 15.25 12.21
1/5/2023 11:00:00 PM 4.98 40.964 0.144 7.31 15.88 12.2
1/5/2023 11:15:00 PM 4.97 40.946 0.143 7.31 14.82 12.2
1/5/2023 11:30:00 PM 4.96 40.928 0.143 7.31 13.96 12.2
1/5/2023 11:45:00 PM 4.95 40.91 0.143 7.31 15.39 12.2
1/6/2023 12:00:00 AM 4.94 40.892 0.143 7.31 15.52 12.19
1/6/2023 12:15:00 AM 4.93 40.874 0.143 7.3 16.31 12.2
1/6/2023 12:30:00 AM 4.92 40.856 0.143 7.31 15.78 12.19
1/6/2023 12:45:00 AM 4.92 40.856 0.143 7.3 15.62 12.19
1/6/2023 1:00:00 AM 4.91 40.838 0.143 7.31 16.36 12.18
1/6/2023 1:15:00 AM 4.91 40.838 0.143 7.31 16.18 12.18
1/6/2023 1:30:00 AM 4.9 40.82 0.143 7.3 15.83 12.19
1/6/2023 1:45:00 AM 4.9 40.82 0.143 7.31 14.99 12.18
1/6/2023 2:00:00 AM 4.9 40.82 0.143 7.32 16.04 12.18
1/6/2023 2:15:00 AM 4.89 40.802 0.143 7.3 16.31 12.18
1/6/2023 2:30:00 AM 4.89 40.802 0.143 7.29 15.18 12.17
1/6/2023 2:45:00 AM 4.89 40.802 0.143 7.3 16.01 12.18
1/6/2023 3:00:00 AM 4.89 40.802 0.143 7.29 15.72 12.17
1/6/2023 3:15:00 AM 4.89 40.802 0.143 7.29 16.14 12.17
1/6/2023 3:30:00 AM 4.89 40.802 0.143 7.29 15.43 12.17
1/6/2023 3:45:00 AM 4.89 40.802 0.143 7.3 16.05 12.16
1/6/2023 4:00:00 AM 4.9 40.82 0.143 7.29 14.46 12.16
1/6/2023 4:15:00 AM 4.9 40.82 0.143 7.29 17.62 12.16
1/6/2023 4:30:00 AM 4.9 40.82 0.143 7.29 15.68 12.16
1/6/2023 4:45:00 AM 4.91 40.838 0.143 7.29 15.69 12.15
1/6/2023 5:00:00 AM 4.91 40.838 0.143 7.28 15.97 12.15
1/6/2023 5:15:00 AM 4.92 40.856 0.143 7.3 16.28 12.15
1/6/2023 5:30:00 AM 4.93 40.874 0.143 7.28 17.16 12.15
1/6/2023 5:45:00 AM 4.93 40.874 0.143 7.3 15.94 12.15
1/6/2023 6:00:00 AM 4.94 40.892 0.143 7.3 16.36 12.14
1/6/2023 6:15:00 AM 4.94 40.892 0.143 7.28 15.42 12.14
1/6/2023 6:30:00 AM 4.94 40.892 0.143 7.3 16.54 12.14
1/6/2023 6:45:00 AM 4.94 40.892 0.143 7.28 16.06 12.14
1/6/2023 7:00:00 AM 4.94 40.892 0.143 7.3 16.18 12.14
1/6/2023 7:15:00 AM 4.93 40.874 0.143 7.29 17.71 12.14
1/6/2023 7:30:00 AM 4.93 40.874 0.143 7.29 15.67 12.14
1/6/2023 7:45:00 AM 4.94 40.892 0.143 7.29 15.39 12.14
1/6/2023 8:00:00 AM 4.94 40.892 0.143 7.29 14.93 12.13
1/6/2023 8:15:00 AM 4.94 40.892 0.143 7.29 15.69 12.13
1/6/2023 8:30:00 AM 4.94 40.892 0.143 7.29 15.33 12.13
1/6/2023 8:45:00 AM 4.95 40.91 0.143 7.29 15.12 12.13
1/6/2023 9:00:00 AM 4.95 40.91 0.143 7.28 15.13 12.14
1/6/2023 9:15:00 AM 4.96 40.928 0.143 7.29 14.94 12.13
1/6/2023 9:30:00 AM 4.97 40.946 0.143 7.29 15.51 12.14
1/6/2023 9:45:00 AM 4.98 40.964 0.143 7.29 15.1 12.14
1/6/2023 10:00:00 AM 4.99 40.982 0.143 7.29 14.64 12.15
1/6/2023 10:15:00 AM 5 41 0.143 7.29 14.55 12.14
1/6/2023 10:30:00 AM 5.01 41.018 0.144 7.29 15.08 12.15
1/6/2023 10:45:00 AM 5.02 41.036 0.144 7.29 14.55 12.15
1/6/2023 11:00:00 AM 5.03 41.054 0.144 7.29 14.67 12.15
1/6/2023 11:15:00 AM 5.04 41.072 0.144 7.29 14.4 12.16
1/6/2023 11:30:00 AM 5.04 41.072 0.144 7.29 14.59 12.17
1/6/2023 11:45:00 AM 5.04 41.072 0.144 7.3 14.25 12.17
1/6/2023 12:00:00 PM 5.03 41.054 0.144 7.3 15.36 12.16
1/6/2023 12:15:00 PM 5.03 41.054 0.144 7.31 14.21 12.16
1/6/2023 12:30:00 PM 5.02 41.036 0.144 7.31 14.43 12.16
1/6/2023 12:45:00 PM 5.01 41.018 0.144 7.3 13.64 12.17
1/6/2023 1:00:00 PM 5.01 41.018 0.145 7.3 13.99 12.17
1/6/2023 1:15:00 PM 5 41 0.145 7.3 14.17 12.17
1/6/2023 1:30:00 PM 4.99 40.982 0.145 7.31 14.62 12.17
1/6/2023 1:45:00 PM 4.99 40.982 0.145 7.31 13.95 12.18
1/6/2023 2:00:00 PM 4.99 40.982 0.145 7.3 14.12 12.18
1/6/2023 2:15:00 PM 4.98 40.964 0.145 7.31 14.59 12.18
1/6/2023 2:30:00 PM 4.98 40.964 0.145 7.31 14.11 12.18
1/6/2023 2:45:00 PM 4.98 40.964 0.145 7.3 13.89 12.18
1/6/2023 3:00:00 PM 4.99 40.982 0.145 7.31 14.07 12.18
1/6/2023 3:15:00 PM 5 41 0.145 7.3 14.31 12.19
1/6/2023 3:30:00 PM 5 41 0.145 7.3 14.18 12.19
1/6/2023 3:45:00 PM 4.99 40.982 0.145 7.3 13.48 12.19
1/6/2023 4:00:00 PM 4.98 40.964 0.146 7.3 13.34 12.19
1/6/2023 4:15:00 PM 4.98 40.964 0.146 7.31 13.16 12.19
1/6/2023 4:30:00 PM 4.97 40.946 0.146 7.3 12.97 12.19
1/6/2023 4:45:00 PM 4.96 40.928 0.146 7.31 13.6 12.19
1/6/2023 5:00:00 PM 4.95 40.91 0.146 7.3 13.3 12.2
1/6/2023 5:15:00 PM 4.95 40.91 0.146 7.31 14.03 12.19
1/6/2023 5:30:00 PM 4.94 40.892 0.146 7.31 13.67 12.19
1/6/2023 5:45:00 PM 4.94 40.892 0.146 7.31 13.52 12.19
1/6/2023 6:00:00 PM 4.93 40.874 0.146 7.32 13.46 12.19
1/6/2023 6:15:00 PM 4.93 40.874 0.146 7.3 13.26 12.2
1/6/2023 6:30:00 PM 4.93 40.874 0.147 7.31 13.59 12.19
1/6/2023 6:45:00 PM 4.93 40.874 0.147 7.31 13.51 12.2
1/6/2023 7:00:00 PM 4.93 40.874 0.147 7.31 13.95 12.2
1/6/2023 7:15:00 PM 4.93 40.874 0.147 7.31 13.95 12.2
1/6/2023 7:30:00 PM 4.93 40.874 0.147 7.31 13.19 12.19
1/6/2023 7:45:00 PM 4.92 40.856 0.147 7.31 14.3 12.2
1/6/2023 8:00:00 PM 4.92 40.856 0.147 7.31 13.79 12.2
1/6/2023 8:15:00 PM 4.92 40.856 0.147 7.32 13.19 12.2
1/6/2023 8:30:00 PM 4.92 40.856 0.147 7.31 12.93 12.2
1/6/2023 8:45:00 PM 4.92 40.856 0.147 7.32 12.93 12.2
1/6/2023 9:00:00 PM 4.91 40.838 0.147 7.31 13.22 12.2
1/6/2023 9:15:00 PM 4.91 40.838 0.148 7.31 14.4 12.2
1/6/2023 9:30:00 PM 4.91 40.838 0.148 7.32 12.8 12.2
1/6/2023 9:45:00 PM 4.91 40.838 0.148 7.31 12.96 12.2
1/6/2023 10:00:00 PM 4.91 40.838 0.148 7.3 12.91 12.17
1/6/2023 10:15:00 PM 4.9 40.82 0.148 7.33 12.46 12.2
1/6/2023 10:30:00 PM 4.89 40.802 0.148 7.32 13.08 12.2
1/6/2023 10:45:00 PM 4.89 40.802 0.148 7.32 12.69 12.2
1/6/2023 11:00:00 PM 4.88 40.784 0.148 7.32 13.63 12.2
1/6/2023 11:15:00 PM 4.88 40.784 0.148 7.33 13.04 12.19
1/6/2023 11:30:00 PM 4.87 40.766 0.148 7.33 12.52 12.19
1/6/2023 11:45:00 PM 4.87 40.766 0.149 7.31 13.48 12.2
1/7/2023 12:00:00 AM 4.87 40.766 0.149 7.32 13.52 12.2
1/7/2023 12:15:00 AM 4.86 40.748 0.149 7.32 12.78 12.19
1/7/2023 12:30:00 AM 4.86 40.748 0.149 7.32 13.22 12.19
1/7/2023 12:45:00 AM 4.85 40.73 0.149 7.33 12.66 12.19
1/7/2023 1:00:00 AM 4.85 40.73 0.149 7.33 13.59 12.19
1/7/2023 1:15:00 AM 4.84 40.712 0.149 7.33 13.48 12.18
1/7/2023 1:30:00 AM 4.84 40.712 0.149 7.32 13.95 12.19
1/7/2023 1:45:00 AM 4.84 40.712 0.149 7.33 13.56 12.19
1/7/2023 2:00:00 AM 4.83 40.694 0.15 7.32 13.04 12.18
1/7/2023 2:15:00 AM 4.82 40.676 0.15 7.32 14.23 12.19
1/7/2023 2:30:00 AM 4.82 40.676 0.149 7.33 13.76 12.19
1/7/2023 2:45:00 AM 4.82 40.676 0.15 7.33 13.39 12.19
1/7/2023 3:00:00 AM 4.81 40.658 0.15 7.31 13.64 12.19
1/7/2023 3:15:00 AM 4.8 40.64 0.15 7.33 12.61 12.19
1/7/2023 3:30:00 AM 4.8 40.64 0.15 7.33 13.27 12.19
1/7/2023 3:45:00 AM 4.79 40.622 0.15 7.33 12.72 12.19
1/7/2023 4:00:00 AM 4.79 40.622 0.15 7.33 12.93 12.19
1/7/2023 4:15:00 AM 4.78 40.604 0.15 7.33 12.61 12.19
1/7/2023 4:30:00 AM 4.77 40.586 0.15 7.33 12.36 12.2
1/7/2023 4:45:00 AM 4.77 40.586 0.151 7.32 12.54 12.19
1/7/2023 5:00:00 AM 4.76 40.568 0.151 7.33 12.46 12.2
1/7/2023 5:15:00 AM 4.75 40.55 0.151 7.33 13.18 12.2
1/7/2023 5:30:00 AM 4.74 40.532 0.151 7.32 12.77 12.2
1/7/2023 5:45:00 AM 4.73 40.514 0.151 7.33 12.9 12.2
1/7/2023 6:00:00 AM 4.73 40.514 0.151 7.32 12.8 12.21
1/7/2023 6:15:00 AM 4.72 40.496 0.151 7.33 13.24 12.2
1/7/2023 6:30:00 AM 4.71 40.478 0.151 7.33 12.85 12.21
1/7/2023 6:45:00 AM 4.7 40.46 0.151 7.33 12.96 12.21
1/7/2023 7:00:00 AM 4.69 40.442 0.152 7.33 13.59 12.21
1/7/2023 7:15:00 AM 4.68 40.424 0.152 7.34 13.94 12.21
1/7/2023 7:30:00 AM 4.67 40.406 0.152 7.34 12.9 12.22
1/7/2023 7:45:00 AM 4.66 40.388 0.152 7.35 13.36 12.22
1/7/2023 8:00:00 AM 4.65 40.37 0.152 7.35 12.98 12.23
1/7/2023 8:15:00 AM 4.64 40.352 0.152 7.35 12.37 12.23
1/7/2023 8:30:00 AM 4.64 40.352 0.152 7.34 12.08 12.22
1/7/2023 8:45:00 AM 4.63 40.334 0.152 7.35 12.74 12.23
1/7/2023 9:00:00 AM 4.63 40.334 0.152 7.35 12.36 12.23
1/7/2023 9:15:00 AM 4.62 40.316 0.152 7.35 12.51 12.24
1/7/2023 9:30:00 AM 4.62 40.316 0.152 7.36 11.6 12.24
1/7/2023 9:45:00 AM 4.62 40.316 0.152 7.34 12.48 12.24
1/7/2023 10:00:00 AM 4.62 40.316 0.153 7.35 11.97 12.25
1/7/2023 10:15:00 AM 4.62 40.316 0.153 7.36 12.76 12.25
1/7/2023 10:30:00 AM 4.62 40.316 0.153 7.35 12.31 12.26
1/7/2023 10:45:00 AM 4.62 40.316 0.153 7.36 12.01 12.26
1/7/2023 11:00:00 AM 4.61 40.298 0.153 7.35 11.68 12.26
1/7/2023 11:15:00 AM 4.61 40.298 0.153 7.35 11.45 12.27
1/7/2023 11:30:00 AM 4.61 40.298 0.153 7.36 16.2 12.27
1/7/2023 11:45:00 AM 4.61 40.298 0.153 7.36 11.13 12.28
1/7/2023 12:00:00 PM 4.62 40.316 0.153 7.36 11.55 12.28
1/7/2023 12:15:00 PM 4.62 40.316 0.153 7.36 11.38 12.28
1/7/2023 12:30:00 PM 4.62 40.316 0.153 7.36 11.5 12.29
1/7/2023 12:45:00 PM 4.63 40.334 0.153 7.36 12.43 12.29
1/7/2023 1:00:00 PM 4.63 40.334 0.153 7.35 11.89 12.29
1/7/2023 1:15:00 PM 4.63 40.334 0.153 7.36 11.71 12.3
1/7/2023 1:30:00 PM 4.63 40.334 0.153 7.36 11.45 12.3
1/7/2023 1:45:00 PM 4.63 40.334 0.153 7.36 11.66 12.3
1/7/2023 2:00:00 PM 4.63 40.334 0.153 7.37 11.68 12.3
1/7/2023 2:15:00 PM 4.63 40.334 0.153 7.35 11.18 12.31
1/7/2023 2:30:00 PM 4.63 40.334 0.153 7.36 11.56 12.31
1/7/2023 2:45:00 PM 4.63 40.334 0.153 7.36 10.78 12.32
1/7/2023 3:00:00 PM 4.62 40.316 0.154 7.35 11.29 12.31
1/7/2023 3:15:00 PM 4.62 40.316 0.154 7.36 11.43 12.31
1/7/2023 3:30:00 PM 4.61 40.298 0.154 7.35 11.25 12.32
1/7/2023 3:45:00 PM 4.61 40.298 0.154 7.36 11.03 12.32
1/7/2023 4:00:00 PM 4.6 40.28 0.154 7.36 11.24 12.32
1/7/2023 4:15:00 PM 4.59 40.262 0.154 7.36 11.84 12.32
1/7/2023 4:30:00 PM 4.58 40.244 0.154 7.35 12.4 12.32
1/7/2023 4:45:00 PM 4.57 40.226 0.154 7.36 10.57 12.32
1/7/2023 5:00:00 PM 4.56 40.208 0.154 7.36 10.81 12.32
1/7/2023 5:15:00 PM 4.55 40.19 0.154 7.35 11.52 12.33
1/7/2023 5:30:00 PM 4.54 40.172 0.154 7.37 10.97 12.33
1/7/2023 5:45:00 PM 4.53 40.154 0.154 7.36 12.89 12.33
1/7/2023 6:00:00 PM 4.52 40.136 0.154 7.36 11.3 12.33
1/7/2023 6:15:00 PM 4.51 40.118 0.154 7.37 11.44 12.33
1/7/2023 6:30:00 PM 4.5 40.1 0.154 7.36 11.03 12.33
1/7/2023 6:45:00 PM 4.49 40.082 0.154 7.35 10.31 12.34
1/7/2023 7:00:00 PM 4.48 40.064 0.154 7.36 11.23 12.34
1/7/2023 7:15:00 PM 4.47 40.046 0.154 7.36 11.28 12.34
1/7/2023 7:30:00 PM 4.47 40.046 0.154 7.36 11.5 12.35
1/7/2023 7:45:00 PM 4.46 40.028 0.154 7.36 11.15 12.35
1/7/2023 8:00:00 PM 4.45 40.01 0.154 7.37 10.89 12.36
1/7/2023 8:15:00 PM 4.44 39.992 0.154 7.35 11.03 12.36
1/7/2023 8:30:00 PM 4.43 39.974 0.154 7.36 11.12 12.36
1/7/2023 8:45:00 PM 4.42 39.956 0.154 7.37 17.05 12.37
1/7/2023 9:00:00 PM 4.42 39.956 0.154 7.36 11.99 12.38
1/7/2023 9:15:00 PM 4.4 39.92 0.155 7.36 10.57 12.38
1/7/2023 9:30:00 PM 4.39 39.902 0.155 7.37 12.83 12.39
1/7/2023 9:45:00 PM 4.38 39.884 0.155 7.36 11.69 12.39
1/7/2023 10:00:00 PM 4.37 39.866 0.155 7.37 12.73 12.39
1/7/2023 10:15:00 PM 4.36 39.848 0.155 7.37 10.81 12.39
1/7/2023 10:30:00 PM 4.35 39.83 0.155 7.37 11.41 12.4
1/7/2023 10:45:00 PM 4.34 39.812 0.155 7.37 12.18 12.41
1/7/2023 11:00:00 PM 4.32 39.776 0.155 7.37 12.14 12.41
1/7/2023 11:15:00 PM 4.31 39.758 0.155 7.37 12.5 12.41
1/7/2023 11:30:00 PM 4.3 39.74 0.155 7.37 11.14 12.41
1/7/2023 11:45:00 PM 4.28 39.704 0.155 7.37 11.04 12.42
1/8/2023 12:00:00 AM 4.27 39.686 0.155 7.37 12.15 12.42
1/8/2023 12:15:00 AM 4.26 39.668 0.155 7.37 12.77 12.42
1/8/2023 12:30:00 AM 4.25 39.65 0.155 7.37 12.72 12.42
1/8/2023 12:45:00 AM 4.23 39.614 0.155 7.37 12.56 12.43
1/8/2023 1:00:00 AM 4.21 39.578 0.155 7.37 12.17 12.42
1/8/2023 1:15:00 AM 4.19 39.542 0.155 7.37 12.57 12.43
1/8/2023 1:30:00 AM 4.17 39.506 0.155 7.38 12.75 12.43
1/8/2023 1:45:00 AM 4.15 39.47 0.155 7.38 11.93 12.43
1/8/2023 2:00:00 AM 4.13 39.434 0.155 7.37 12.14 12.43
1/8/2023 2:15:00 AM 4.11 39.398 0.155 7.36 11.58 12.43
1/8/2023 2:30:00 AM 4.09 39.362 0.155 7.37 11.93 12.43
1/8/2023 2:45:00 AM 4.08 39.344 0.156 7.37 12.52 12.43
1/8/2023 3:00:00 AM 4.05 39.29 0.156 7.36 12.01 12.44
1/8/2023 3:15:00 AM 4.03 39.254 0.156 7.37 12.09 12.44
1/8/2023 3:30:00 AM 4.01 39.218 0.156 7.37 12.24 12.44
1/8/2023 3:45:00 AM 3.99 39.182 0.156 7.37 192.81 12.44
1/8/2023 4:00:00 AM 3.98 39.164 0.156 7.37 12.94 12.45
1/8/2023 4:15:00 AM 3.97 39.146 0.156 7.38 11.45 12.46
1/8/2023 4:30:00 AM 3.96 39.128 0.156 7.37 12.44 12.46
1/8/2023 4:45:00 AM 3.95 39.11 0.156 7.37 18.58 12.45
1/8/2023 5:00:00 AM 3.93 39.074 0.156 7.37 12.95 12.45
1/8/2023 5:15:00 AM 3.92 39.056 0.156 7.37 12.53 12.46
1/8/2023 5:30:00 AM 3.9 39.02 0.156 7.37 13.1 12.46
1/8/2023 5:45:00 AM 3.89 39.002 0.156 7.37 15.79 12.48
1/8/2023 6:00:00 AM 3.89 39.002 0.156 7.37 41.68 12.48
1/8/2023 6:15:00 AM 3.88 38.984 0.156 7.37 27.3 12.49
1/8/2023 6:30:00 AM 3.87 38.966 0.156 7.38 12.15 12.49
1/8/2023 6:45:00 AM 3.87 38.966 0.157 7.37 19.25 12.48
1/8/2023 7:00:00 AM 3.86 38.948 0.157 7.37 12.23 12.48
1/8/2023 7:15:00 AM 3.85 38.93 0.157 7.36 12.94 12.49
1/8/2023 7:30:00 AM 3.84 38.912 0.157 7.37 11.96 12.49
1/8/2023 7:45:00 AM 3.83 38.894 0.157 7.37 11.99 12.5
1/8/2023 8:00:00 AM 3.82 38.876 0.157 7.38 11.66 12.5
1/8/2023 8:15:00 AM 3.81 38.858 0.157 7.37 11.43 12.52
1/8/2023 8:30:00 AM 3.8 38.84 0.157 7.37 11.65 12.53
1/8/2023 8:45:00 AM 3.79 38.822 0.158 7.38 12 12.52
1/8/2023 9:00:00 AM 3.78 38.804 0.158 7.37 11.66 12.53
1/8/2023 9:15:00 AM 3.78 38.804 0.158 7.37 11.83 12.54
1/8/2023 9:30:00 AM 3.78 38.804 0.158 7.38 11.8 12.54
1/8/2023 9:45:00 AM 3.78 38.804 0.158 7.37 13.13 12.55
1/8/2023 10:00:00 AM 3.79 38.822 0.158 7.37 24.41 12.56
1/8/2023 10:15:00 AM 3.79 38.822 0.158 7.38 16 12.56
1/8/2023 10:30:00 AM 3.8 38.84 0.158 7.37 16.75 12.57
1/8/2023 10:45:00 AM 3.81 38.858 0.158 7.38 17.61 12.58
1/8/2023 11:00:00 AM 3.82 38.876 0.158 7.38 17.05 12.58
1/8/2023 11:15:00 AM 3.85 38.93 0.159 7.38 17.72 12.6
1/8/2023 11:30:00 AM 3.86 38.948 0.159 7.39 17.07 12.6
1/8/2023 11:45:00 AM 3.87 38.966 0.159 7.38 18.88 12.6
1/8/2023 12:00:00 PM 3.89 39.002 0.159 7.38 16.8 12.61
1/8/2023 12:15:00 PM 3.91 39.038 0.159 7.4 17.29 12.61
1/8/2023 12:30:00 PM 3.96 39.128 0.159 7.39 17.03 12.61
1/8/2023 12:45:00 PM 4.04 39.272 0.159 7.39 11.63 12.61
1/8/2023 1:00:00 PM 4.1 39.38 0.159 7.39 10.39 12.61
1/8/2023 1:15:00 PM 4.13 39.434 0.159 7.39 10.97 12.63
1/8/2023 1:30:00 PM 4.14 39.452 0.159 7.4 11.15 12.62
1/8/2023 1:45:00 PM 4.17 39.506 0.159 7.39 11.35 12.63
1/8/2023 2:00:00 PM 4.19 39.542 0.16 7.39 10.66 12.63
1/8/2023 2:15:00 PM 4.2 39.56 0.16 7.4 11.11 12.63
1/8/2023 2:30:00 PM 4.21 39.578 0.16 7.4 10.92 12.64
1/8/2023 2:45:00 PM 4.22 39.596 0.16 7.4 16.09 12.64
1/8/2023 3:00:00 PM 4.22 39.596 0.16 7.4 10.22 12.64
1/8/2023 3:15:00 PM 4.21 39.578 0.16 7.41 11.77 12.64
1/8/2023 3:30:00 PM 4.2 39.56 0.16 7.39 11.38 12.64
1/8/2023 3:45:00 PM 4.17 39.506 0.16 7.4 12.64 12.65
1/8/2023 4:00:00 PM 4.14 39.452 0.16 7.4 10.22 12.65
1/8/2023 4:15:00 PM 4.1 39.38 0.16 7.4 11.18 12.64
1/8/2023 4:30:00 PM 4.06 39.308 0.161 7.4 9.9 12.64
1/8/2023 4:45:00 PM 4.02 39.236 0.161 7.39 9.87 12.64
1/8/2023 5:00:00 PM 3.99 39.182 0.161 7.4 9.75 12.64
1/8/2023 5:15:00 PM 3.96 39.128 0.161 7.39 9.75 12.64
1/8/2023 5:30:00 PM 3.93 39.074 0.161 7.39 9.7 12.64
1/8/2023 5:45:00 PM 3.91 39.038 0.161 7.4 10.24 12.65
1/8/2023 6:00:00 PM 3.89 39.002 0.161 7.4 9.87 12.64
1/8/2023 6:15:00 PM 3.86 38.948 0.161 7.39 10.31 12.64
1/8/2023 6:30:00 PM 3.84 38.912 0.161 7.39 9.83 12.66
1/8/2023 6:45:00 PM 3.82 38.876 0.161 7.4 10.08 12.65
1/8/2023 7:00:00 PM 3.8 38.84 0.161 7.4 10.15 12.66
1/8/2023 7:15:00 PM 3.78 38.804 0.161 7.39 10.32 12.66
1/8/2023 7:30:00 PM 3.76 38.768 0.162 7.4 10.02 12.66
1/8/2023 7:45:00 PM 3.74 38.732 0.162 7.4 10.02 12.67
1/8/2023 8:00:00 PM 3.72 38.696 0.162 7.39 10.34 12.68
1/8/2023 8:15:00 PM 3.71 38.678 0.162 7.4 10.15 12.68
1/8/2023 8:30:00 PM 3.69 38.642 0.162 7.39 10.06 12.68
1/8/2023 8:45:00 PM 3.68 38.624 0.162 7.4 10.06 12.69
1/8/2023 9:00:00 PM 3.67 38.606 0.162 7.4 10.22 12.69
1/8/2023 9:15:00 PM 3.65 38.57 0.162 7.4 10.08 12.7
1/8/2023 9:30:00 PM 3.63 38.534 0.162 7.39 9.43 12.71
1/8/2023 9:45:00 PM 3.62 38.516 0.162 7.4 10.22 12.7
1/8/2023 10:00:00 PM 3.6 38.48 0.162 7.4 9.58 12.7
1/8/2023 10:15:00 PM 3.59 38.462 0.162 7.41 9.2 12.71
1/8/2023 10:30:00 PM 3.57 38.426 0.162 7.4 9.89 12.71
1/8/2023 10:45:00 PM 3.55 38.39 0.163 7.4 9.61 12.72
1/8/2023 11:00:00 PM 3.53 38.354 0.163 7.4 10 12.72
1/8/2023 11:15:00 PM 3.51 38.318 0.163 7.4 9.9 12.72
1/8/2023 11:30:00 PM 3.48 38.264 0.163 7.4 10.06 12.72
1/8/2023 11:45:00 PM 3.46 38.228 0.163 7.41 9.67 12.73
1/9/2023 12:00:00 AM 3.43 38.174 0.163 7.4 10.13 12.73
1/9/2023 12:15:00 AM 3.41 38.138 0.163 7.4 10.08 12.73
1/9/2023 12:30:00 AM 3.39 38.102 0.163 7.39 9.4 12.73
1/9/2023 12:45:00 AM 3.37 38.066 0.163 7.4 9.72 12.73
1/9/2023 1:00:00 AM 3.35 38.03 0.163 7.4 10.04 12.73
1/9/2023 1:15:00 AM 3.33 37.994 0.163 7.39 11.01 12.73
1/9/2023 1:30:00 AM 3.31 37.958 0.163 7.4 9.51 12.73
1/9/2023 1:45:00 AM 3.29 37.922 0.163 7.4 9.9 12.73
1/9/2023 2:00:00 AM 3.27 37.886 0.163 7.39 9.65 12.73
1/9/2023 2:15:00 AM 3.26 37.868 0.163 7.39 9.85 12.72
1/9/2023 2:30:00 AM 3.24 37.832 0.163 7.39 9.73 12.73
1/9/2023 2:45:00 AM 3.22 37.796 0.163 7.4 9.99 12.73
1/9/2023 3:00:00 AM 3.21 37.778 0.163 7.39 9.96 12.73
1/9/2023 3:15:00 AM 3.19 37.742 0.163 7.4 10.35 12.73
1/9/2023 3:30:00 AM 3.18 37.724 0.163 7.39 9.53 12.73
1/9/2023 3:45:00 AM 3.17 37.706 0.163 7.39 9.79 12.74
1/9/2023 4:00:00 AM 3.16 37.688 0.164 7.39 9.74 12.74
1/9/2023 4:15:00 AM 3.15 37.67 0.164 7.39 9.4 12.74
1/9/2023 4:30:00 AM 3.14 37.652 0.164 7.39 9.41 12.74
1/9/2023 4:45:00 AM 3.13 37.634 0.164 7.39 9.44 12.74
1/9/2023 5:00:00 AM 3.12 37.616 0.164 7.4 9.27 12.75
1/9/2023 5:15:00 AM 3.12 37.616 0.164 7.39 9.7 12.75
1/9/2023 5:30:00 AM 3.11 37.598 0.164 7.4 9.75 12.74
1/9/2023 5:45:00 AM 3.11 37.598 0.164 7.39 9.33 12.74
1/9/2023 6:00:00 AM 3.1 37.58 0.164 7.39 10.01 12.75
1/9/2023 6:15:00 AM 3.1 37.58 0.164 7.39 9.51 12.75
1/9/2023 6:30:00 AM 3.1 37.58 0.164 7.4 9.29 12.75
1/9/2023 6:45:00 AM 3.11 37.598 0.164 7.39 9.48 12.75
1/9/2023 7:00:00 AM 3.11 37.598 0.164 7.39 9.99 12.75
1/9/2023 7:15:00 AM 3.11 37.598 0.164 7.39 9.25 12.75
1/9/2023 7:30:00 AM 3.11 37.598 0.164 7.39 9.22 12.75
1/9/2023 7:45:00 AM 3.11 37.598 0.164 7.39 9.4 12.75
1/9/2023 8:00:00 AM 3.12 37.616 0.164 7.38 9.5 12.75
1/9/2023 8:15:00 AM 3.12 37.616 0.164 7.39 9.34 12.75
1/9/2023 8:30:00 AM 3.12 37.616 0.164 7.38 9.39 12.76
1/9/2023 8:45:00 AM 3.13 37.634 0.164 7.39 9.51 12.76
1/9/2023 9:00:00 AM 3.13 37.634 0.164 7.38 9.22 12.77
1/9/2023 9:15:00 AM 3.13 37.634 0.164 7.39 9.14 12.77
1/9/2023 9:30:00 AM 3.13 37.634 0.164 7.39 9.25 12.77
1/9/2023 9:45:00 AM 3.12 37.616 0.164 7.39 10.2 12.78
1/9/2023 10:00:00 AM 3.12 37.616 0.164 7.39 10.08 12.78
1/9/2023 10:15:00 AM 3.12 37.616 0.164 7.39 9.32 12.79
1/9/2023 10:30:00 AM 3.12 37.616 0.164 7.39 9.6 12.79
1/9/2023 10:45:00 AM 3.12 37.616 0.165 7.4 9.93 12.8
1/9/2023 11:00:00 AM 3.12 37.616 0.165 7.39 9.63 12.81
1/9/2023 11:15:00 AM 3.12 37.616 0.165 7.4 9.44 12.81
1/9/2023 11:30:00 AM 3.13 37.634 0.165 7.4 9.24 12.81
1/9/2023 11:45:00 AM 3.14 37.652 0.165 7.4 8.96 12.81
1/9/2023 12:00:00 PM 3.15 37.67 0.165 7.41 9.14 12.83
1/9/2023 12:15:00 PM 3.17 37.706 0.165 7.42 9.22 12.83
1/9/2023 12:30:00 PM 3.19 37.742 0.165 7.4 9.05 12.83
1/9/2023 12:45:00 PM 3.21 37.778 0.165 7.41 8.64 12.84
1/9/2023 1:00:00 PM 3.26 37.868 0.165 7.41 9.01 12.84
1/9/2023 1:15:00 PM 3.28 37.904 0.165 7.42 9.37 12.84
1/9/2023 1:30:00 PM 3.33 37.994 0.165 7.42 8.91 12.84
1/9/2023 1:45:00 PM 3.37 38.066 0.165 7.42 8.39 12.84
1/9/2023 2:00:00 PM 3.41 38.138 0.165 7.42 8.66 12.84
1/9/2023 2:15:00 PM 3.44 38.192 0.165 7.43 8.66 12.85
1/9/2023 2:30:00 PM 3.45 38.21 0.165 7.42 8.67 12.85
1/9/2023 2:45:00 PM 3.45 38.21 0.165 7.43 8.99 12.85
1/9/2023 3:00:00 PM 3.46 38.228 0.165 7.43 8.68 12.85
1/9/2023 3:15:00 PM 3.45 38.21 0.165 7.41 8.52 12.86
1/9/2023 3:30:00 PM 3.42 38.156 0.165 7.44 8.66 12.85
1/9/2023 3:45:00 PM 3.4 38.12 0.165 7.43 9.34 12.86
1/9/2023 4:00:00 PM 3.37 38.066 0.165 7.43 8.93 12.86
1/9/2023 4:15:00 PM 3.34 38.012 0.166 7.43 8.76 12.85
1/9/2023 4:30:00 PM 3.3 37.94 0.166 7.42 9.12 12.85
1/9/2023 4:45:00 PM 3.26 37.868 0.166 7.42 8.74 12.86
1/9/2023 5:00:00 PM 3.23 37.814 0.166 7.42 9.06 12.86
1/9/2023 5:15:00 PM 3.19 37.742 0.166 7.43 9.22 12.86
1/9/2023 5:30:00 PM 3.16 37.688 0.166 7.41 9.11 12.86
1/9/2023 5:45:00 PM 3.13 37.634 0.166 7.42 9.31 12.86
1/9/2023 6:00:00 PM 3.1 37.58 0.166 7.41 10.54 12.87
1/9/2023 6:15:00 PM 3.08 37.544 0.166 7.41 10.44 12.87
1/9/2023 6:30:00 PM 3.06 37.508 0.166 7.42 8.88 12.87
1/9/2023 6:45:00 PM 3.04 37.472 0.166 7.41 9.73 12.88
1/9/2023 7:00:00 PM 3.02 37.436 0.166 7.42 9.07 12.87
1/9/2023 7:15:00 PM 3 37.4 0.166 7.4 9.24 12.88
1/9/2023 7:30:00 PM 2.98 37.364 0.166 7.41 9.54 12.88
1/9/2023 7:45:00 PM 2.96 37.328 0.166 7.41 9.16 12.89
1/9/2023 8:00:00 PM 2.95 37.31 0.167 7.41 9.28 12.89
1/9/2023 8:15:00 PM 2.94 37.292 0.166 7.42 9.36 12.89
1/9/2023 8:30:00 PM 2.93 37.274 0.167 7.4 8.6 12.89
1/9/2023 8:45:00 PM 2.93 37.274 0.167 7.41 8.9 12.89
1/9/2023 9:00:00 PM 2.92 37.256 0.167 7.42 9.11 12.89
1/9/2023 9:15:00 PM 2.92 37.256 0.167 7.4 9.1 12.9
1/9/2023 9:30:00 PM 2.91 37.238 0.167 7.4 8.93 12.9
1/9/2023 9:45:00 PM 2.91 37.238 0.167 7.41 8.85 12.91
1/9/2023 10:00:00 PM 2.95 37.31 0.168 7.38 9.19 12.86
1/9/2023 10:15:00 PM 2.9 37.22 0.167 7.41 8.7 12.91
1/9/2023 10:30:00 PM 2.89 37.202 0.167 7.4 8.83 12.92
1/9/2023 10:45:00 PM 2.89 37.202 0.167 7.41 8.69 12.92
1/9/2023 11:00:00 PM 2.88 37.184 0.167 7.41 8.9 12.92
1/9/2023 11:15:00 PM 2.87 37.166 0.167 7.42 9.43 12.92
1/9/2023 11:30:00 PM 2.86 37.148 0.167 7.41 13.33 12.93
1/9/2023 11:45:00 PM 2.85 37.13 0.167 7.41 10.07 12.93
1/10/2023 12:00:00 AM 2.84 37.112 0.167 7.41 8.76 12.93
1/10/2023 12:15:00 AM 2.83 37.094 0.168 7.42 8.79 12.93
1/10/2023 12:30:00 AM 2.82 37.076 0.168 7.41 8.99 12.94
1/10/2023 12:45:00 AM 2.8 37.04 0.168 7.42 8.91 12.93
1/10/2023 1:00:00 AM 2.79 37.022 0.168 7.41 8.97 12.94
1/10/2023 1:15:00 AM 2.78 37.004 0.168 7.41 8.31 12.94
1/10/2023 1:30:00 AM 2.76 36.968 0.168 7.42 8.42 12.94
1/10/2023 1:45:00 AM 2.75 36.95 0.168 7.42 9.3 12.94
1/10/2023 2:00:00 AM 2.74 36.932 0.168 7.42 9.11 12.95
1/10/2023 2:15:00 AM 2.72 36.896 0.168 7.41 8.58 12.95
1/10/2023 2:30:00 AM 2.71 36.878 0.168 7.42 8.73 12.94
1/10/2023 2:45:00 AM 2.7 36.86 0.168 7.41 8.59 12.94
1/10/2023 3:00:00 AM 2.69 36.842 0.169 7.42 8.5 12.95
1/10/2023 3:15:00 AM 2.69 36.842 0.169 7.42 8.59 12.95
1/10/2023 3:30:00 AM 2.68 36.824 0.169 7.42 8.62 12.94
1/10/2023 3:45:00 AM 2.67 36.806 0.169 7.42 8.34 12.95
1/10/2023 4:00:00 AM 2.66 36.788 0.169 7.42 8.95 12.95
1/10/2023 4:15:00 AM 2.66 36.788 0.169 7.42 8.88 12.94
1/10/2023 4:30:00 AM 2.65 36.77 0.169 7.43 8.24 12.95
1/10/2023 4:45:00 AM 2.64 36.752 0.169 7.42 8.64 12.94
1/10/2023 5:00:00 AM 2.64 36.752 0.169 7.42 8.51 12.95
1/10/2023 5:15:00 AM 2.63 36.734 0.169 7.42 8.62 12.95
1/10/2023 5:30:00 AM 2.63 36.734 0.169 7.43 8.45 12.95
1/10/2023 5:45:00 AM 2.62 36.716 0.169 7.41 8.99 12.95
1/10/2023 6:00:00 AM 2.62 36.716 0.17 7.43 8.64 12.95
1/10/2023 6:15:00 AM 2.62 36.716 0.17 7.41 8.96 12.96
1/10/2023 6:30:00 AM 2.61 36.698 0.17 7.42 8.66 12.95
1/10/2023 6:45:00 AM 2.61 36.698 0.17 7.43 8.87 12.96
1/10/2023 7:00:00 AM 2.61 36.698 0.17 7.42 9.46 12.96
1/10/2023 7:15:00 AM 2.61 36.698 0.17 7.42 9.47 12.95
1/10/2023 7:30:00 AM 2.61 36.698 0.17 7.42 9.16 12.96
1/10/2023 7:45:00 AM 2.62 36.716 0.17 7.43 8.44 12.96
1/10/2023 8:00:00 AM 2.62 36.716 0.17 7.41 9.45 12.96
1/10/2023 8:15:00 AM 2.62 36.716 0.171 7.42 8.52 12.96
1/10/2023 8:30:00 AM 2.63 36.734 0.171 7.43 8.4 12.97
1/10/2023 8:45:00 AM 2.64 36.752 0.171 7.42 9.38 12.97
1/10/2023 9:00:00 AM 2.64 36.752 0.171 7.43 8.87 12.97
1/10/2023 9:15:00 AM 2.65 36.77 0.171 7.42 8.74 12.97
1/10/2023 9:30:00 AM 2.66 36.788 0.171 7.43 8.52 12.98
1/10/2023 9:45:00 AM 2.67 36.806 0.171 7.43 8.34 12.97
1/10/2023 10:00:00 AM 2.68 36.824 0.171 7.44 9.3 12.98
1/10/2023 10:15:00 AM 2.69 36.842 0.172 7.43 8.42 12.98
1/10/2023 10:30:00 AM 2.7 36.86 0.172 7.43 8.93 12.99
1/10/2023 10:45:00 AM 2.71 36.878 0.172 7.44 8.06 13
1/10/2023 11:00:00 AM 2.72 36.896 0.172 7.43 8.42 13
1/10/2023 11:15:00 AM 2.73 36.914 0.172 7.44 8.12 13.01
1/10/2023 11:30:00 AM 2.73 36.914 0.172 7.44 8.18 13.01
1/10/2023 11:45:00 AM 2.73 36.914 0.172 7.44 7.86 13.01
1/10/2023 12:00:00 PM 2.73 36.914 0.172 7.44 8.19 13.01
1/10/2023 12:15:00 PM 2.73 36.914 0.172 7.44 8.13 13.02
1/10/2023 12:30:00 PM 2.73 36.914 0.172 7.44 7.83 13.02
1/10/2023 12:45:00 PM 2.73 36.914 0.173 7.45 8.03 13.03
1/10/2023 1:00:00 PM 2.72 36.896 0.173 7.43 8.18 13.03
1/10/2023 1:15:00 PM 2.72 36.896 0.173 7.45 8.04 13.03
1/10/2023 1:30:00 PM 2.71 36.878 0.173 7.45 7.8 13.04
1/10/2023 1:45:00 PM 2.7 36.86 0.173 7.45 7.88 13.04
1/10/2023 2:00:00 PM 2.7 36.86 0.173 7.44 8.8 13.05
1/10/2023 2:15:00 PM 2.69 36.842 0.173 7.45 8.17 13.05
1/10/2023 2:30:00 PM 2.69 36.842 0.173 7.44 7.99 13.06
1/10/2023 2:45:00 PM 2.67 36.806 0.173 7.45 7.99 13.07
1/10/2023 3:00:00 PM 2.66 36.788 0.173 7.46 8.49 13.07
1/10/2023 3:15:00 PM 2.65 36.77 0.173 7.43 7.55 13.07
1/10/2023 3:30:00 PM 2.64 36.752 0.173 7.45 8.29 13.08
1/10/2023 3:45:00 PM 2.63 36.734 0.174 7.45 7.58 13.08
1/10/2023 4:00:00 PM 2.62 36.716 0.174 7.45 7.61 13.08
1/10/2023 4:15:00 PM 2.61 36.698 0.174 7.45 7.85 13.09
1/10/2023 4:30:00 PM 2.59 36.662 0.174 7.45 7.1 13.09
1/10/2023 4:45:00 PM 2.58 36.644 0.174 7.45 7.71 13.08
1/10/2023 5:00:00 PM 2.57 36.626 0.174 7.44 7.81 13.09
1/10/2023 5:15:00 PM 2.55 36.59 0.174 7.45 7.82 13.08
1/10/2023 5:30:00 PM 2.54 36.572 0.174 7.44 7.55 13.09
1/10/2023 5:45:00 PM 2.52 36.536 0.174 7.45 7.63 13.09
1/10/2023 6:00:00 PM 2.51 36.518 0.174 7.44 7.64 13.09
1/10/2023 6:15:00 PM 2.5 36.5 0.174 7.44 8.41 13.09
1/10/2023 6:30:00 PM 2.49 36.482 0.174 7.45 8.09 13.09
1/10/2023 6:45:00 PM 2.48 36.464 0.174 7.44 7.49 13.1
1/10/2023 7:00:00 PM 2.47 36.446 0.174 7.44 8.56 13.1
1/10/2023 7:15:00 PM 2.46 36.428 0.175 7.45 8.02 13.1
1/10/2023 7:30:00 PM 2.45 36.41 0.175 7.45 7.52 13.1
1/10/2023 7:45:00 PM 2.45 36.41 0.175 7.45 7.62 13.1
1/10/2023 8:00:00 PM 2.44 36.392 0.175 7.45 7.8 13.11
1/10/2023 8:15:00 PM 2.43 36.374 0.175 7.44 7.65 13.11
1/10/2023 8:30:00 PM 2.42 36.356 0.175 7.44 7.33 13.12
1/10/2023 8:45:00 PM 2.41 36.338 0.175 7.44 7.31 13.12
1/10/2023 9:00:00 PM 2.41 36.338 0.175 7.45 7.59 13.12
1/10/2023 9:15:00 PM 2.4 36.32 0.175 7.44 7.79 13.12
1/10/2023 9:30:00 PM 2.39 36.302 0.175 7.45 7.46 13.12
1/10/2023 9:45:00 PM 2.39 36.302 0.175 7.45 7.63 13.13
1/10/2023 10:00:00 PM 2.42 36.356 0.176 7.43 7.83 13.1
1/10/2023 10:15:00 PM 2.38 36.284 0.175 7.44 7.58 13.13
1/10/2023 10:30:00 PM 2.37 36.266 0.176 7.45 8.17 13.13
1/10/2023 10:45:00 PM 2.36 36.248 0.176 7.44 7.87 13.14
1/10/2023 11:00:00 PM 2.36 36.248 0.176 7.44 7.88 13.13
1/10/2023 11:15:00 PM 2.35 36.23 0.176 7.44 7.47 13.14
1/10/2023 11:30:00 PM 2.35 36.23 0.176 7.44 8.15 13.13
1/10/2023 11:45:00 PM 2.34 36.212 0.176 7.44 8.99 13.14
1/11/2023 12:00:00 AM 2.34 36.212 0.176 7.44 8.23 13.14
1/11/2023 12:15:00 AM 2.34 36.212 0.176 7.45 8.27 13.14
1/11/2023 12:30:00 AM 2.33 36.194 0.176 7.42 10.46 13.14
1/11/2023 12:45:00 AM 2.33 36.194 0.176 7.44 7.93 13.14
1/11/2023 1:00:00 AM 2.33 36.194 0.176 7.44 8.35 13.14
1/11/2023 1:15:00 AM 2.32 36.176 0.176 7.45 7.7 13.14
1/11/2023 1:30:00 AM 2.32 36.176 0.176 7.44 8.21 13.14
1/11/2023 1:45:00 AM 2.31 36.158 0.176 7.45 7.99 13.14
1/11/2023 2:00:00 AM 2.31 36.158 0.176 7.44 7.38 13.14
1/11/2023 2:15:00 AM 2.3 36.14 0.177 7.44 7.63 13.14
1/11/2023 2:30:00 AM 2.3 36.14 0.177 7.45 8 13.13
1/11/2023 2:45:00 AM 2.29 36.122 0.177 7.44 8 13.13
1/11/2023 3:00:00 AM 2.29 36.122 0.177 7.43 7.53 13.13
1/11/2023 3:15:00 AM 2.28 36.104 0.177 7.45 13.14 13.14
1/11/2023 3:30:00 AM 2.28 36.104 0.177 7.44 7.43 13.13
1/11/2023 3:45:00 AM 2.27 36.086 0.177 7.44 8.55 13.13
1/11/2023 4:00:00 AM 2.27 36.086 0.177 7.44 7.28 13.13
1/11/2023 4:15:00 AM 2.26 36.068 0.177 7.44 8.56 13.13
1/11/2023 4:30:00 AM 2.26 36.068 0.177 7.44 7.12 13.13
1/11/2023 4:45:00 AM 2.26 36.068 0.177 7.45 7.55 13.13
1/11/2023 5:00:00 AM 2.25 36.05 0.177 7.44 8.65 13.13
1/11/2023 5:15:00 AM 2.25 36.05 0.177 7.45 7.7 13.13
1/11/2023 5:30:00 AM 2.24 36.032 0.177 7.44 7.4 13.13
1/11/2023 5:45:00 AM 2.24 36.032 0.177 7.44 7.59 13.13
1/11/2023 6:00:00 AM 2.24 36.032 0.177 7.44 7.76 13.13
1/11/2023 6:15:00 AM 2.23 36.014 0.177 7.44 8.28 13.13
1/11/2023 6:30:00 AM 2.23 36.014 0.177 7.43 7.63 13.13
1/11/2023 6:45:00 AM 2.23 36.014 0.177 7.44 7.34 13.13
1/11/2023 7:00:00 AM 2.23 36.014 0.177 7.44 8.26 13.13
1/11/2023 7:15:00 AM 2.23 36.014 0.177 7.45 7.87 13.13
1/11/2023 7:30:00 AM 2.22 35.996 0.178 7.43 7.6 13.13
1/11/2023 7:45:00 AM 2.22 35.996 0.178 7.44 7.59 13.13
1/11/2023 8:00:00 AM 2.22 35.996 0.178 7.44 8.33 13.14
1/11/2023 8:15:00 AM 2.23 36.014 0.178 7.44 7.92 13.14
1/11/2023 8:30:00 AM 2.23 36.014 0.178 7.44 7.96 13.14
1/11/2023 8:45:00 AM 2.24 36.032 0.178 7.44 7.74 13.15
1/11/2023 9:00:00 AM 2.24 36.032 0.178 7.45 7.92 13.15
1/11/2023 9:15:00 AM 2.25 36.05 0.178 7.43 7.34 13.16
1/11/2023 9:30:00 AM 2.27 36.086 0.178 7.44 6.98 13.16
1/11/2023 9:45:00 AM 2.28 36.104 0.178 7.45 7.39 13.17
1/11/2023 10:00:00 AM 2.3 36.14 0.178 7.45 7.31 13.18
1/11/2023 10:15:00 AM 2.33 36.194 0.178 7.46 7.55 13.19
1/11/2023 10:30:00 AM 2.36 36.248 0.178 7.45 8.12 13.19
1/11/2023 10:45:00 AM 2.39 36.302 0.178 7.45 7.17 13.2
1/11/2023 11:00:00 AM 2.41 36.338 0.178 7.46 8.09 13.2
1/11/2023 11:15:00 AM 2.45 36.41 0.178 7.45 8.77 13.21
1/11/2023 11:30:00 AM 2.48 36.464 0.178 7.46 7.04 13.21
1/11/2023 11:45:00 AM 2.52 36.536 0.178 7.46 7.18 13.22
1/11/2023 12:00:00 PM 2.55 36.59 0.178 7.47 7.85 13.22
1/11/2023 12:15:00 PM 2.58 36.644 0.178 7.45 6.88 13.22
1/11/2023 12:30:00 PM 2.61 36.698 0.178 7.47 7.19 13.23
1/11/2023 12:45:00 PM 2.62 36.716 0.178 7.46 6.59 13.23
1/11/2023 1:00:00 PM 2.64 36.752 0.178 7.47 7.6 13.23
1/11/2023 1:15:00 PM 2.66 36.788 0.178 7.47 6.92 13.23
1/11/2023 1:30:00 PM 2.67 36.806 0.179 7.47 6.61 13.23
1/11/2023 1:45:00 PM 2.69 36.842 0.179 7.47 6.99 13.23
1/11/2023 2:00:00 PM 2.71 36.878 0.179 7.47 6.57 13.24
1/11/2023 2:15:00 PM 2.72 36.896 0.179 7.47 6.19 13.24
1/11/2023 2:30:00 PM 2.72 36.896 0.179 7.48 6.73 13.23
1/11/2023 2:45:00 PM 2.72 36.896 0.179 7.46 6.52 13.24
1/11/2023 3:00:00 PM 2.72 36.896 0.179 7.48 7.57 13.24
1/11/2023 3:15:00 PM 2.71 36.878 0.179 7.48 6.39 13.23
1/11/2023 3:30:00 PM 2.71 36.878 0.179 7.46 7.37 13.23
1/11/2023 3:45:00 PM 2.7 36.86 0.179 7.49 6.65 13.24
1/11/2023 4:00:00 PM 2.69 36.842 0.179 7.46 6.52 13.24
1/11/2023 4:15:00 PM 2.67 36.806 0.179 7.48 6.37 13.24
1/11/2023 4:30:00 PM 2.66 36.788 0.179 7.48 6.55 13.23
1/11/2023 4:45:00 PM 2.64 36.752 0.179 7.47 6.81 13.23
1/11/2023 5:00:00 PM 2.62 36.716 0.179 7.48 6.28 13.24
1/11/2023 5:15:00 PM 2.6 36.68 0.179 7.46 7.43 13.23
1/11/2023 5:30:00 PM 2.58 36.644 0.18 7.47 7.55 13.23
1/11/2023 5:45:00 PM 2.56 36.608 0.18 7.47 8.9 13.22
1/11/2023 6:00:00 PM 2.54 36.572 0.18 7.48 6.55 13.21
1/11/2023 6:15:00 PM 2.53 36.554 0.18 7.48 9.23 13.22
1/11/2023 6:30:00 PM 2.52 36.536 0.18 7.45 7.89 13.21
1/11/2023 6:45:00 PM 2.5 36.5 0.18 7.48 7.33 13.22
1/11/2023 7:00:00 PM 2.49 36.482 0.18 7.48 6.87 13.22
1/11/2023 7:15:00 PM 2.48 36.464 0.18 7.47 7.32 13.21
1/11/2023 7:30:00 PM 2.47 36.446 0.18 7.47 6.91 13.22
1/11/2023 7:45:00 PM 2.47 36.446 0.18 7.47 7.23 13.21
1/11/2023 8:00:00 PM 2.46 36.428 0.18 7.46 7.65 13.22
1/11/2023 8:15:00 PM 2.45 36.41 0.18 7.48 8.38 13.21
1/11/2023 8:30:00 PM 2.44 36.392 0.18 7.47 7.68 13.22
1/11/2023 8:45:00 PM 2.44 36.392 0.18 7.47 7.9 13.22
1/11/2023 9:00:00 PM 2.44 36.392 0.18 7.45 8.56 13.22
1/11/2023 9:15:00 PM 2.43 36.374 0.18 7.47 7.49 13.22
1/11/2023 9:30:00 PM 2.43 36.374 0.181 7.48 6.82 13.22
1/11/2023 9:45:00 PM 2.43 36.374 0.181 7.45 6.51 13.23
1/11/2023 10:00:00 PM 2.49 36.482 0.183 7.45 7.19 13.19
1/11/2023 10:15:00 PM 2.43 36.374 0.181 7.46 7.24 13.23
1/11/2023 10:30:00 PM 2.42 36.356 0.181 7.47 6.93 13.22
1/11/2023 10:45:00 PM 2.42 36.356 0.181 7.47 6.49 13.23
1/11/2023 11:00:00 PM 2.41 36.338 0.181 7.47 6.8 13.23
1/11/2023 11:15:00 PM 2.41 36.338 0.181 7.48 6.36 13.23
1/11/2023 11:30:00 PM 2.41 36.338 0.181 7.47 6.75 13.23
1/11/2023 11:45:00 PM 2.4 36.32 0.181 7.47 6.56 13.23
1/12/2023 12:00:00 AM 2.4 36.32 0.181 7.47 7.67 13.23
1/12/2023 12:15:00 AM 2.4 36.32 0.181 7.47 6.63 13.23
1/12/2023 12:30:00 AM 2.39 36.302 0.181 7.47 6.53 13.23
1/12/2023 12:45:00 AM 2.39 36.302 0.181 7.47 6.56 13.24
1/12/2023 1:00:00 AM 2.38 36.284 0.181 7.48 6.63 13.23
1/12/2023 1:15:00 AM 2.38 36.284 0.181 7.47 8.14 13.23
1/12/2023 1:30:00 AM 2.37 36.266 0.182 7.48 6.67 13.24
1/12/2023 1:45:00 AM 2.36 36.248 0.182 7.46 6.1 13.23
1/12/2023 2:00:00 AM 2.36 36.248 0.182 7.48 7.87 13.23
1/12/2023 2:15:00 AM 2.35 36.23 0.182 7.47 6.14 13.23
1/12/2023 2:30:00 AM 2.34 36.212 0.182 7.48 6.29 13.23
1/12/2023 2:45:00 AM 2.33 36.194 0.182 7.47 7.4 13.23
1/12/2023 3:00:00 AM 2.32 36.176 0.182 7.47 6.73 13.22
1/12/2023 3:15:00 AM 2.31 36.158 0.182 7.47 6.91 13.22
1/12/2023 3:30:00 AM 2.3 36.14 0.182 7.47 7.43 13.22
1/12/2023 3:45:00 AM 2.29 36.122 0.182 7.47 7.15 13.22
1/12/2023 4:00:00 AM 2.29 36.122 0.182 7.48 7.36 13.21
1/12/2023 4:15:00 AM 2.28 36.104 0.182 7.47 7.42 13.22
1/12/2023 4:30:00 AM 2.27 36.086 0.182 7.47 6.97 13.21
1/12/2023 4:45:00 AM 2.26 36.068 0.182 7.46 7.42 13.21
1/12/2023 5:00:00 AM 2.25 36.05 0.182 7.47 6.63 13.21
1/12/2023 5:15:00 AM 2.24 36.032 0.182 7.46 6.8 13.21
1/12/2023 5:30:00 AM 2.23 36.014 0.183 7.47 7.24 13.2
1/12/2023 5:45:00 AM 2.22 35.996 0.183 7.44 7.69 13.2
1/12/2023 6:00:00 AM 2.21 35.978 0.183 7.46 6.97 13.2
1/12/2023 6:15:00 AM 2.2 35.96 0.183 7.46 7.39 13.2
1/12/2023 6:30:00 AM 2.19 35.942 0.183 7.47 7.26 13.2
1/12/2023 6:45:00 AM 2.19 35.942 0.183 7.45 7.76 13.2
1/12/2023 7:00:00 AM 2.18 35.924 0.183 7.47 7.5 13.2
1/12/2023 7:15:00 AM 2.17 35.906 0.183 7.45 6.91 13.2
1/12/2023 7:30:00 AM 2.16 35.888 0.183 7.46 6.33 13.2
1/12/2023 7:45:00 AM 2.14 35.852 0.183 7.46 6.92 13.19
1/12/2023 8:00:00 AM 2.14 35.852 0.183 7.46 6.59 13.19
1/12/2023 8:15:00 AM 2.14 35.852 0.183 7.45 6.9 13.19
1/12/2023 8:30:00 AM 2.15 35.87 0.183 7.46 6.83 13.19
1/12/2023 8:45:00 AM 2.16 35.888 0.183 7.46 6.64 13.19
1/12/2023 9:00:00 AM 2.17 35.906 0.183 7.46 6.45 13.19
1/12/2023 9:15:00 AM 2.17 35.906 0.183 7.47 6.23 13.19
1/12/2023 9:30:00 AM 2.18 35.924 0.184 7.46 6.48 13.19
1/12/2023 9:45:00 AM 2.2 35.96 0.184 7.47 6.21 13.2
1/12/2023 10:00:00 AM 2.21 35.978 0.184 7.46 6.19 13.2
1/12/2023 10:15:00 AM 2.23 36.014 0.184 7.47 7.58 13.21
1/12/2023 10:30:00 AM 2.25 36.05 0.184 7.47 7.43 13.21
1/12/2023 10:45:00 AM 2.27 36.086 0.184 7.46 6.63 13.22
1/12/2023 11:00:00 AM 2.29 36.122 0.184 7.47 6.39 13.22
1/12/2023 11:15:00 AM 2.31 36.158 0.184 7.47 7.19 13.22
1/12/2023 11:30:00 AM 2.33 36.194 0.184 7.46 6.86 13.22
1/12/2023 11:45:00 AM 2.36 36.248 0.183 7.47 6.49 13.23
1/12/2023 12:00:00 PM 2.38 36.284 0.183 7.47 6.69 13.23
1/12/2023 12:15:00 PM 2.4 36.32 0.183 7.47 6.8 13.23
1/12/2023 12:30:00 PM 2.42 36.356 0.183 7.48 6.57 13.23
1/12/2023 12:45:00 PM 2.44 36.392 0.183 7.48 6.2 13.23
1/12/2023 1:00:00 PM 2.46 36.428 0.183 7.48 6.66 13.24
1/12/2023 1:15:00 PM 2.47 36.446 0.183 7.47 6.36 13.24
1/12/2023 1:30:00 PM 2.49 36.482 0.183 7.48 7.91 13.23
1/12/2023 1:45:00 PM 2.5 36.5 0.183 7.47 6.77 13.23
1/12/2023 2:00:00 PM 2.51 36.518 0.184 7.48 6.87 13.23
1/12/2023 2:15:00 PM 2.52 36.536 0.184 7.48 6.3 13.22
1/12/2023 2:30:00 PM 2.53 36.554 0.184 7.49 5.98 13.22
1/12/2023 2:45:00 PM 2.54 36.572 0.184 7.49 6.16 13.22
1/12/2023 3:00:00 PM 2.55 36.59 0.184 7.48 6.22 13.22
1/12/2023 3:15:00 PM 2.56 36.608 0.184 7.47 6.15 13.22
1/12/2023 3:30:00 PM 2.57 36.626 0.184 7.48 6.26 13.21
1/12/2023 3:45:00 PM 2.57 36.626 0.184 7.48 6.81 13.21
1/12/2023 4:00:00 PM 2.57 36.626 0.184 7.49 6.38 13.21
1/12/2023 4:15:00 PM 2.57 36.626 0.184 7.49 5.92 13.2
1/12/2023 4:30:00 PM 2.57 36.626 0.184 7.49 6.08 13.2
1/12/2023 4:45:00 PM 2.57 36.626 0.184 7.48 6.28 13.2
1/12/2023 5:00:00 PM 2.57 36.626 0.184 7.48 6.59 13.18
1/12/2023 5:15:00 PM 2.57 36.626 0.184 7.49 6.42 13.19
1/12/2023 5:30:00 PM 2.57 36.626 0.184 7.46 6.37 13.18
1/12/2023 5:45:00 PM 2.57 36.626 0.184 7.48 6.29 13.17
1/12/2023 6:00:00 PM 2.57 36.626 0.185 7.48 6.44 13.17
1/12/2023 6:15:00 PM 2.57 36.626 0.185 7.48 6.86 13.17
1/12/2023 6:30:00 PM 2.57 36.626 0.185 7.48 6.58 13.15
1/12/2023 6:45:00 PM 2.58 36.644 0.184 7.47 6.67 13.16
1/12/2023 7:00:00 PM 2.58 36.644 0.184 7.47 6.49 13.16
1/12/2023 7:15:00 PM 2.58 36.644 0.184 7.47 6.4 13.15
1/12/2023 7:30:00 PM 2.59 36.662 0.184 7.48 7.23 13.15
1/12/2023 7:45:00 PM 2.59 36.662 0.184 7.47 6.88 13.15
1/12/2023 8:00:00 PM 2.59 36.662 0.184 7.47 6.86 13.15
1/12/2023 8:15:00 PM 2.6 36.68 0.184 7.47 6.93 13.15
1/12/2023 8:30:00 PM 2.61 36.698 0.184 7.48 6.73 13.14
1/12/2023 8:45:00 PM 2.61 36.698 0.184 7.47 7.24 13.14
1/12/2023 9:00:00 PM 2.62 36.716 0.184 7.47 6.77 13.14
1/12/2023 9:15:00 PM 2.62 36.716 0.184 7.47 6.74 13.14
1/12/2023 9:30:00 PM 2.62 36.716 0.185 7.48 7.09 13.13
1/12/2023 9:45:00 PM 2.63 36.734 0.185 7.47 7.12 13.13
1/12/2023 10:00:00 PM 2.68 36.824 0.187 7.45 7.29 13.11
1/12/2023 10:15:00 PM 2.63 36.734 0.185 7.48 7.77 13.13
1/12/2023 10:30:00 PM 2.64 36.752 0.185 7.46 7.62 13.13
1/12/2023 10:45:00 PM 2.64 36.752 0.185 7.47 14.72 13.12
1/12/2023 11:00:00 PM 2.65 36.77 0.185 7.47 7.06 13.13
1/12/2023 11:15:00 PM 2.65 36.77 0.186 7.47 10.98 13.13
1/12/2023 11:30:00 PM 2.66 36.788 0.186 7.48 7.97 13.12
1/12/2023 11:45:00 PM 2.65 36.77 0.186 7.46 8.29 13.12
1/13/2023 12:00:00 AM 2.65 36.77 0.186 7.47 6.58 13.13
1/13/2023 12:15:00 AM 2.65 36.77 0.186 7.46 6.9 13.12
1/13/2023 12:30:00 AM 2.65 36.77 0.186 7.47 9.06 13.12
1/13/2023 12:45:00 AM 2.64 36.752 0.186 7.46 8.15 13.12
1/13/2023 1:00:00 AM 2.64 36.752 0.186 7.47 9.26 13.12
1/13/2023 1:15:00 AM 2.64 36.752 0.186 7.46 7.21 13.12
1/13/2023 1:30:00 AM 2.64 36.752 0.186 7.47 9.01 13.11
1/13/2023 1:45:00 AM 2.64 36.752 0.186 7.47 7.31 13.1
1/13/2023 2:00:00 AM 2.64 36.752 0.186 7.45 6.95 13.1
1/13/2023 2:15:00 AM 2.64 36.752 0.186 7.46 7.2 13.1
1/13/2023 2:30:00 AM 2.64 36.752 0.186 7.46 7.3 13.1
1/13/2023 2:45:00 AM 2.63 36.734 0.186 7.46 7.07 13.08
1/13/2023 3:00:00 AM 2.63 36.734 0.186 7.45 7.84 13.09
1/13/2023 3:15:00 AM 2.62 36.716 0.185 7.45 8.55 13.08
1/13/2023 3:30:00 AM 2.62 36.716 0.185 7.46 45.97 13.08
1/13/2023 3:45:00 AM 2.62 36.716 0.185 7.46 8.71 13.08
1/13/2023 4:00:00 AM 2.61 36.698 0.185 7.46 6.96 13.07
1/13/2023 4:15:00 AM 2.61 36.698 0.186 7.46 7.44 13.07
1/13/2023 4:30:00 AM 2.61 36.698 0.186 7.45 7.62 13.06
1/13/2023 4:45:00 AM 2.62 36.716 0.186 7.44 7.83 13.05
1/13/2023 5:00:00 AM 2.62 36.716 0.186 7.45 7.61 13.05
1/13/2023 5:15:00 AM 2.64 36.752 0.186 7.45 7.48 13.04
1/13/2023 5:30:00 AM 2.65 36.77 0.186 7.45 7.54 13.03
1/13/2023 5:45:00 AM 2.66 36.788 0.186 7.44 8.32 13.02
1/13/2023 6:00:00 AM 2.67 36.806 0.186 7.44 7.95 13
1/13/2023 6:15:00 AM 2.68 36.824 0.186 7.44 10.39 13.01
1/13/2023 6:30:00 AM 2.7 36.86 0.186 7.45 8.26 13
1/13/2023 6:45:00 AM 2.7 36.86 0.187 7.45 8.16 12.99
1/13/2023 7:00:00 AM 2.71 36.878 0.187 7.44 8.13 12.99
1/13/2023 7:15:00 AM 2.72 36.896 0.187 7.45 8.66 12.98
1/13/2023 7:30:00 AM 2.73 36.914 0.188 7.44 9.93 12.97
1/13/2023 7:45:00 AM 2.74 36.932 0.188 7.44 11.3 12.97
1/13/2023 8:00:00 AM 2.74 36.932 0.189 7.44 11.92 12.96
1/13/2023 8:15:00 AM 2.74 36.932 0.189 7.44 9.58 12.96
1/13/2023 8:30:00 AM 2.74 36.932 0.188 7.44 9.54 12.97
1/13/2023 8:45:00 AM 2.73 36.914 0.188 7.43 9.38 12.96
1/13/2023 9:00:00 AM 2.73 36.914 0.188 7.45 9.39 12.96
1/13/2023 9:15:00 AM 2.73 36.914 0.187 7.44 9.37 12.96
1/13/2023 9:30:00 AM 2.73 36.914 0.187 7.43 9.26 12.96
1/13/2023 9:45:00 AM 2.73 36.914 0.186 7.44 9.36 12.96
1/13/2023 10:00:00 AM 2.73 36.914 0.186 7.44 9.2 12.97
1/13/2023 10:15:00 AM 2.74 36.932 0.185 7.44 10.29 12.98
1/13/2023 10:30:00 AM 2.75 36.95 0.185 7.44 9.27 12.98
1/13/2023 10:45:00 AM 2.75 36.95 0.184 7.44 8.91 12.98
1/13/2023 11:00:00 AM 2.76 36.968 0.184 7.45 8.57 12.98
1/13/2023 11:15:00 AM 2.76 36.968 0.183 7.45 8.67 12.99
1/13/2023 11:30:00 AM 2.77 36.986 0.183 7.45 8.8 13
1/13/2023 11:45:00 AM 2.78 37.004 0.182 7.44 8.58 12.99
1/13/2023 12:00:00 PM 2.79 37.022 0.182 7.45 8.88 12.99
1/13/2023 12:15:00 PM 2.8 37.04 0.182 7.45 9.58 12.99
1/13/2023 12:30:00 PM 2.81 37.058 0.181 7.46 8.65 13
1/13/2023 12:45:00 PM 2.82 37.076 0.181 7.45 9.54 13
1/13/2023 1:00:00 PM 2.82 37.076 0.181 7.46 9.36 13
1/13/2023 1:15:00 PM 2.82 37.076 0.18 7.47 9.84 12.99
1/13/2023 1:30:00 PM 2.83 37.094 0.18 7.46 9.24 13
1/13/2023 1:45:00 PM 2.83 37.094 0.18 7.47 9.95 12.99
1/13/2023 2:00:00 PM 2.84 37.112 0.179 7.46 9.23 12.99
1/13/2023 2:15:00 PM 2.84 37.112 0.179 7.46 9.62 12.99
1/13/2023 2:30:00 PM 2.83 37.094 0.179 7.46 10.2 12.98
1/13/2023 2:45:00 PM 2.83 37.094 0.179 7.46 11.14 12.98
1/13/2023 3:00:00 PM 2.83 37.094 0.178 7.47 9.79 12.98
1/13/2023 3:15:00 PM 2.82 37.076 0.178 7.47 9.75 12.98
1/13/2023 3:30:00 PM 2.81 37.058 0.178 7.46 9.91 12.98
1/13/2023 3:45:00 PM 2.81 37.058 0.178 7.46 10.05 12.97
1/13/2023 4:00:00 PM 2.8 37.04 0.178 7.46 10.05 12.97
1/13/2023 4:15:00 PM 2.8 37.04 0.177 7.46 9.8 12.97
1/13/2023 4:30:00 PM 2.79 37.022 0.177 7.46 10.87 12.97
1/13/2023 4:45:00 PM 2.78 37.004 0.177 7.46 8.92 12.97
1/13/2023 5:00:00 PM 2.77 36.986 0.177 7.45 9.5 12.96
1/13/2023 5:15:00 PM 2.77 36.986 0.177 7.46 9.49 12.96
1/13/2023 5:30:00 PM 2.76 36.968 0.177 7.46 9.5 12.95
1/13/2023 5:45:00 PM 2.74 36.932 0.177 7.46 10.09 12.96
1/13/2023 6:00:00 PM 2.73 36.914 0.176 7.46 8.91 12.96
1/13/2023 6:15:00 PM 2.72 36.896 0.176 7.47 9.84 12.96
1/13/2023 6:30:00 PM 2.71 36.878 0.176 7.43 10.59 12.97
1/13/2023 6:45:00 PM 2.7 36.86 0.176 7.46 8.92 12.97
1/13/2023 7:00:00 PM 2.68 36.824 0.176 7.46 9.25 12.97
1/13/2023 7:15:00 PM 2.67 36.806 0.176 7.47 9.32 12.98
1/13/2023 7:30:00 PM 2.65 36.77 0.176 7.46 14.22 12.98
1/13/2023 7:45:00 PM 2.64 36.752 0.175 7.47 11.07 12.98
1/13/2023 8:00:00 PM 2.62 36.716 0.175 7.46 10.97 12.99
1/13/2023 8:15:00 PM 2.61 36.698 0.175 7.47 10.58 12.99
1/13/2023 8:30:00 PM 2.59 36.662 0.175 7.46 13.56 13
1/13/2023 8:45:00 PM 2.57 36.626 0.175 7.46 11.93 12.99
1/13/2023 9:00:00 PM 2.56 36.608 0.175 7.47 11.57 13.01
1/13/2023 9:15:00 PM 2.54 36.572 0.175 7.47 10.55 13.01
1/13/2023 9:30:00 PM 2.52 36.536 0.175 7.47 11.05 13.02
1/13/2023 9:45:00 PM 2.5 36.5 0.175 7.46 11.77 13.02
1/13/2023 10:00:00 PM 2.5 36.5 0.175 7.44 10.36 12.99
1/13/2023 10:15:00 PM 2.47 36.446 0.175 7.47 10.63 13.03
1/13/2023 10:30:00 PM 2.45 36.41 0.175 7.48 9.89 13.04
1/13/2023 10:45:00 PM 2.42 36.356 0.175 7.48 11.33 13.05
1/13/2023 11:00:00 PM 2.41 36.338 0.175 7.47 10.59 13.05
1/13/2023 11:15:00 PM 2.39 36.302 0.175 7.47 12.27 13.05
1/13/2023 11:30:00 PM 2.37 36.266 0.175 7.47 9.9 13.06
1/13/2023 11:45:00 PM 2.36 36.248 0.175 7.47 11.1 13.06
1/14/2023 12:00:00 AM 2.34 36.212 0.175 7.47 10.12 13.06
1/14/2023 12:15:00 AM 2.32 36.176 0.175 7.47 10.29 13.06
1/14/2023 12:30:00 AM 2.31 36.158 0.175 7.47 10.96 13.07
1/14/2023 12:45:00 AM 2.29 36.122 0.175 7.47 10.29 13.07
1/14/2023 1:00:00 AM 2.27 36.086 0.176 7.46 12.86 13.07
1/14/2023 1:15:00 AM 2.25 36.05 0.176 7.47 11.11 13.07
1/14/2023 1:30:00 AM 2.24 36.032 0.176 7.46 17.76 13.07
1/14/2023 1:45:00 AM 2.22 35.996 0.176 7.47 13.76 13.07
1/14/2023 2:00:00 AM 2.21 35.978 0.176 7.45 13.13 13.07
1/14/2023 2:15:00 AM 2.19 35.942 0.176 7.46 11.98 13.08
1/14/2023 2:30:00 AM 2.18 35.924 0.176 7.46 12.73 13.08
1/14/2023 2:45:00 AM 2.17 35.906 0.176 7.47 13.25 13.08
1/14/2023 3:00:00 AM 2.16 35.888 0.177 7.46 12.07 13.08
1/14/2023 3:15:00 AM 2.15 35.87 0.177 7.46 14.12 13.08
1/14/2023 3:30:00 AM 2.14 35.852 0.177 7.47 13.72 13.08
1/14/2023 3:45:00 AM 2.13 35.834 0.177 7.46 12.77 13.09
1/14/2023 4:00:00 AM 2.13 35.834 0.177 7.47 12.04 13.08
1/14/2023 4:15:00 AM 2.12 35.816 0.177 7.46 13.19 13.08
1/14/2023 4:30:00 AM 2.12 35.816 0.177 7.46 13.41 13.08
1/14/2023 4:45:00 AM 2.11 35.798 0.177 7.45 14.73 13.08
1/14/2023 5:00:00 AM 2.1 35.78 0.177 7.46 13.14 13.09
1/14/2023 5:15:00 AM 2.1 35.78 0.177 7.46 13.06 13.09
1/14/2023 5:30:00 AM 2.09 35.762 0.176 7.47 14.22 13.09
1/14/2023 5:45:00 AM 2.08 35.744 0.176 7.45 13.74 13.09
1/14/2023 6:00:00 AM 2.07 35.726 0.176 7.47 13.24 13.09
1/14/2023 6:15:00 AM 2.07 35.726 0.176 7.45 13.54 13.09
1/14/2023 6:30:00 AM 2.06 35.708 0.176 7.47 14.19 13.1
1/14/2023 6:45:00 AM 2.05 35.69 0.176 7.46 13.27 13.11
1/14/2023 7:00:00 AM 2.05 35.69 0.177 7.46 13.82 13.11
1/14/2023 7:15:00 AM 2.04 35.672 0.177 7.47 13.26 13.1
1/14/2023 7:30:00 AM 2.04 35.672 0.177 7.47 13.17 13.11
1/14/2023 7:45:00 AM 2.03 35.654 0.177 7.46 13.98 13.11
1/14/2023 8:00:00 AM 2.03 35.654 0.177 7.46 13.46 13.12
1/14/2023 8:15:00 AM 2.02 35.636 0.177 7.47 13.61 13.13
1/14/2023 8:30:00 AM 2.01 35.618 0.177 7.46 14.14 13.13
1/14/2023 8:45:00 AM 2.01 35.618 0.177 7.47 13.94 13.13
1/14/2023 9:00:00 AM 2.01 35.618 0.177 7.46 14.13 13.13
1/14/2023 9:15:00 AM 2 35.6 0.177 7.47 13.8 13.13
1/14/2023 9:30:00 AM 2 35.6 0.177 7.47 13.97 13.13
1/14/2023 9:45:00 AM 2 35.6 0.177 7.47 13.42 13.14
1/14/2023 10:00:00 AM 2 35.6 0.177 7.45 13.53 13.14
1/14/2023 10:15:00 AM 2 35.6 0.177 7.47 13.7 13.15
1/14/2023 10:30:00 AM 2 35.6 0.176 7.47 13.29 13.15
1/14/2023 10:45:00 AM 2 35.6 0.176 7.48 14.07 13.16
1/14/2023 11:00:00 AM 2 35.6 0.176 7.47 13.68 13.16
1/14/2023 11:15:00 AM 2.01 35.618 0.176 7.48 13.95 13.16
1/14/2023 11:30:00 AM 2.02 35.636 0.175 7.48 12.94 13.16
1/14/2023 11:45:00 AM 2.02 35.636 0.175 7.47 14.89 13.16
1/14/2023 12:00:00 PM 2.02 35.636 0.175 7.47 13.63 13.17
1/14/2023 12:15:00 PM 2.03 35.654 0.174 7.48 13.59 13.17
1/14/2023 12:30:00 PM 2.03 35.654 0.174 7.47 13.5 13.17
1/14/2023 12:45:00 PM 2.04 35.672 0.174 7.48 13.04 13.18
1/14/2023 1:00:00 PM 2.04 35.672 0.174 7.47 14.38 13.17
1/14/2023 1:15:00 PM 2.05 35.69 0.173 7.48 15.62 13.17
1/14/2023 1:30:00 PM 2.05 35.69 0.173 7.48 13.87 13.17
1/14/2023 1:45:00 PM 2.05 35.69 0.173 7.48 13.68 13.18
1/14/2023 2:00:00 PM 2.06 35.708 0.173 7.48 13.43 13.17
1/14/2023 2:15:00 PM 2.06 35.708 0.172 7.47 13.8 13.17
1/14/2023 2:30:00 PM 2.06 35.708 0.172 7.48 15.25 13.17
1/14/2023 2:45:00 PM 2.07 35.726 0.172 7.47 13.81 13.17
1/14/2023 3:00:00 PM 2.06 35.708 0.172 7.47 13.18 13.17
1/14/2023 3:15:00 PM 2.05 35.69 0.171 7.48 14.63 13.17
1/14/2023 3:30:00 PM 2.05 35.69 0.171 7.47 13.66 13.17
1/14/2023 3:45:00 PM 2.04 35.672 0.171 7.47 13.42 13.17
1/14/2023 4:00:00 PM 2.03 35.654 0.171 7.47 13.26 13.17
1/14/2023 4:15:00 PM 2.02 35.636 0.171 7.47 14.52 13.17
1/14/2023 4:30:00 PM 2.01 35.618 0.171 7.47 14.94 13.16
1/14/2023 4:45:00 PM 2 35.6 0.17 7.47 13.44 13.16
1/14/2023 5:00:00 PM 1.99 35.582 0.17 7.47 13.34 13.17
1/14/2023 5:15:00 PM 1.98 35.564 0.17 7.47 13.69 13.16
1/14/2023 5:30:00 PM 1.98 35.564 0.17 7.47 14.68 13.16
1/14/2023 5:45:00 PM 1.97 35.546 0.17 7.46 13.5 13.16
1/14/2023 6:00:00 PM 1.96 35.528 0.169 7.46 14.17 13.16
1/14/2023 6:15:00 PM 1.95 35.51 0.169 7.46 13.72 13.16
1/14/2023 6:30:00 PM 1.94 35.492 0.169 7.46 14.48 13.16
1/14/2023 6:45:00 PM 1.93 35.474 0.169 7.47 13.45 13.17
1/14/2023 7:00:00 PM 1.93 35.474 0.169 7.47 14.67 13.16
1/14/2023 7:15:00 PM 1.92 35.456 0.169 7.45 14.67 13.17
1/14/2023 7:30:00 PM 1.92 35.456 0.168 7.46 16.63 13.16
1/14/2023 7:45:00 PM 1.92 35.456 0.168 7.47 14.77 13.17
1/14/2023 8:00:00 PM 1.92 35.456 0.168 7.46 15.3 13.16
1/14/2023 8:15:00 PM 1.91 35.438 0.168 7.47 15.35 13.17
1/14/2023 8:30:00 PM 1.91 35.438 0.168 7.46 15.62 13.17
1/14/2023 8:45:00 PM 1.9 35.42 0.168 7.46 13.86 13.17
1/14/2023 9:00:00 PM 1.89 35.402 0.168 7.47 15.38 13.17
1/14/2023 9:15:00 PM 1.89 35.402 0.167 7.47 16.82 13.18
1/14/2023 9:30:00 PM 1.88 35.384 0.167 7.46 14.49 13.18
1/14/2023 9:45:00 PM 1.87 35.366 0.167 7.47 14.58 13.18
1/14/2023 10:00:00 PM 1.86 35.348 0.167 7.47 15.63 13.19
1/14/2023 10:15:00 PM 1.84 35.312 0.167 7.45 16.84 13.19
1/14/2023 10:30:00 PM 1.84 35.312 0.167 7.46 15.53 13.19
1/14/2023 10:45:00 PM 1.83 35.294 0.167 7.47 15.09 13.2
1/14/2023 11:00:00 PM 1.82 35.276 0.167 7.46 14.58 13.19
1/14/2023 11:15:00 PM 1.81 35.258 0.167 7.46 14.7 13.2
1/14/2023 11:30:00 PM 1.8 35.24 0.167 7.46 14.97 13.2
1/14/2023 11:45:00 PM 1.78 35.204 0.167 7.47 13.89 13.2
1/15/2023 12:00:00 AM 1.77 35.186 0.167 7.44 14.57 13.21
1/15/2023 12:15:00 AM 1.76 35.168 0.167 7.47 14.08 13.21
1/15/2023 12:30:00 AM 1.74 35.132 0.167 7.47 14.39 13.22
1/15/2023 12:45:00 AM 1.73 35.114 0.168 7.46 14.35 13.21
1/15/2023 1:00:00 AM 1.72 35.096 0.168 7.47 15.03 13.22
1/15/2023 1:15:00 AM 1.71 35.078 0.168 7.46 15.24 13.23
1/15/2023 1:30:00 AM 1.7 35.06 0.168 7.47 14.21 13.23
1/15/2023 1:45:00 AM 1.68 35.024 0.168 7.47 14.29 13.23
1/15/2023 2:00:00 AM 1.67 35.006 0.168 7.47 14.42 13.23
1/15/2023 2:15:00 AM 1.66 34.988 0.168 7.46 15.4 13.24
1/15/2023 2:30:00 AM 1.65 34.97 0.168 7.47 15.06 13.24
1/15/2023 2:45:00 AM 1.63 34.934 0.168 7.47 14.93 13.24
1/15/2023 3:00:00 AM 1.62 34.916 0.168 7.46 15.79 13.25
1/15/2023 3:15:00 AM 1.6 34.88 0.168 7.47 14.2 13.26
1/15/2023 3:30:00 AM 1.59 34.862 0.168 7.47 14.71 13.26
1/15/2023 3:45:00 AM 1.57 34.826 0.168 7.46 15.62 13.27
1/15/2023 4:00:00 AM 1.56 34.808 0.168 7.46 14.88 13.27
1/15/2023 4:15:00 AM 1.56 34.808 0.168 7.46 14.87 13.27
1/15/2023 4:30:00 AM 1.55 34.79 0.168 7.47 14.83 13.27
1/15/2023 4:45:00 AM 1.53 34.754 0.168 7.47 13.84 13.27
1/15/2023 5:00:00 AM 1.52 34.736 0.168 7.45 14.3 13.27
1/15/2023 5:15:00 AM 1.5 34.7 0.168 7.46 15.39 13.28
1/15/2023 5:30:00 AM 1.49 34.682 0.168 7.46 14.81 13.27
1/15/2023 5:45:00 AM 1.48 34.664 0.168 7.46 14.96 13.28
1/15/2023 6:00:00 AM 1.47 34.646 0.168 7.46 15.98 13.29
1/15/2023 6:15:00 AM 1.46 34.628 0.167 7.46 14.99 13.3
1/15/2023 6:30:00 AM 1.45 34.61 0.167 7.46 15.41 13.3
1/15/2023 6:45:00 AM 1.44 34.592 0.167 7.46 16.29 13.3
1/15/2023 7:00:00 AM 1.42 34.556 0.167 7.45 16.28 13.31
1/15/2023 7:15:00 AM 1.41 34.538 0.167 7.46 14.86 13.32
1/15/2023 7:30:00 AM 1.39 34.502 0.167 7.46 16.03 13.32
1/15/2023 7:45:00 AM 1.38 34.484 0.167 7.46 15.76 13.33
1/15/2023 8:00:00 AM 1.36 34.448 0.167 7.46 15.28 13.32
1/15/2023 8:15:00 AM 1.35 34.43 0.167 7.45 14.45 13.33
1/15/2023 8:30:00 AM 1.33 34.394 0.167 7.45 15.94 13.32
1/15/2023 8:45:00 AM 1.32 34.376 0.167 7.45 14.89 13.34
1/15/2023 9:00:00 AM 1.31 34.358 0.167 7.46 14.46 13.34
1/15/2023 9:15:00 AM 1.32 34.376 0.167 7.45 14.56 13.35
1/15/2023 9:30:00 AM 1.33 34.394 0.167 7.46 14.63 13.36
1/15/2023 9:45:00 AM 1.35 34.43 0.167 7.45 16.06 13.35
1/15/2023 10:00:00 AM 1.35 34.43 0.167 7.44 14.69 13.36
1/15/2023 10:15:00 AM 1.34 34.412 0.167 7.45 15.72 13.37
1/15/2023 10:30:00 AM 1.34 34.412 0.167 7.45 15 13.39
1/15/2023 10:45:00 AM 1.37 34.466 0.167 7.45 14.6 13.39
1/15/2023 11:00:00 AM 1.4 34.52 0.167 7.45 15 13.39
1/15/2023 11:15:00 AM 1.44 34.592 0.167 7.45 15.49 13.4
1/15/2023 11:30:00 AM 1.48 34.664 0.167 7.46 15.94 13.4
1/15/2023 11:45:00 AM 1.52 34.736 0.167 7.45 16.16 13.4
1/15/2023 12:00:00 PM 1.56 34.808 0.167 7.45 15.62 13.4
1/15/2023 12:15:00 PM 1.59 34.862 0.168 7.45 15.13 13.41
1/15/2023 12:30:00 PM 1.61 34.898 0.168 7.46 15.79 13.41
1/15/2023 12:45:00 PM 1.64 34.952 0.168 7.45 15.22 13.41
1/15/2023 1:00:00 PM 1.66 34.988 0.167 7.46 15.26 13.41
1/15/2023 1:15:00 PM 1.69 35.042 0.168 7.46 14.16 13.42
1/15/2023 1:30:00 PM 1.72 35.096 0.168 7.46 15.07 13.42
1/15/2023 1:45:00 PM 1.74 35.132 0.168 7.47 16.31 13.42
1/15/2023 2:00:00 PM 1.76 35.168 0.168 7.45 13.56 13.43
1/15/2023 2:15:00 PM 1.78 35.204 0.168 7.46 14.72 13.43
1/15/2023 2:30:00 PM 1.79 35.222 0.168 7.47 14.58 13.43
1/15/2023 2:45:00 PM 1.8 35.24 0.168 7.47 14.07 13.43
1/15/2023 3:00:00 PM 1.8 35.24 0.168 7.46 14.53 13.44
1/15/2023 3:15:00 PM 1.79 35.222 0.168 7.46 14.47 13.44
1/15/2023 3:30:00 PM 1.77 35.186 0.168 7.45 14.77 13.45
1/15/2023 3:45:00 PM 1.76 35.168 0.168 7.47 14.13 13.45
1/15/2023 4:00:00 PM 1.72 35.096 0.168 7.46 15.31 13.45
1/15/2023 4:15:00 PM 1.68 35.024 0.168 7.47 15.24 13.46
1/15/2023 4:30:00 PM 1.64 34.952 0.168 7.46 15.74 13.47
1/15/2023 4:45:00 PM 1.6 34.88 0.168 7.47 17.51 13.47
1/15/2023 5:00:00 PM 1.55 34.79 0.168 7.47 16.75 13.47
1/15/2023 5:15:00 PM 1.52 34.736 0.168 7.46 14.99 13.49
1/15/2023 5:30:00 PM 1.49 34.682 0.168 7.47 14.59 13.49
1/15/2023 5:45:00 PM 1.46 34.628 0.168 7.47 14.61 13.48
1/15/2023 6:00:00 PM 1.43 34.574 0.168 7.46 14.77 13.5
1/15/2023 6:15:00 PM 1.4 34.52 0.168 7.47 15.28 13.5
1/15/2023 6:30:00 PM 1.38 34.484 0.167 7.47 15.16 13.52
1/15/2023 6:45:00 PM 1.36 34.448 0.167 7.47 14.46 13.51
1/15/2023 7:00:00 PM 1.34 34.412 0.167 7.45 15.58 13.51
1/15/2023 7:15:00 PM 1.33 34.394 0.167 7.46 14.31 13.52
1/15/2023 7:30:00 PM 1.32 34.376 0.167 7.46 14.06 13.51
1/15/2023 7:45:00 PM 1.31 34.358 0.167 7.47 16.04 13.52
1/15/2023 8:00:00 PM 1.3 34.34 0.167 7.44 14.69 13.53
1/15/2023 8:15:00 PM 1.28 34.304 0.167 7.46 14.88 13.53
1/15/2023 8:30:00 PM 1.26 34.268 0.167 7.46 15.3 13.52
1/15/2023 8:45:00 PM 1.25 34.25 0.167 7.45 15.03 13.54
1/15/2023 9:00:00 PM 1.24 34.232 0.166 7.46 14.08 13.53
1/15/2023 9:15:00 PM 1.22 34.196 0.166 7.46 14.54 13.55
1/15/2023 9:30:00 PM 1.21 34.178 0.166 7.46 15.02 13.56
1/15/2023 9:45:00 PM 1.19 34.142 0.166 7.45 14.77 13.56
1/15/2023 10:00:00 PM 1.18 34.124 0.166 7.46 14.85 13.56
1/15/2023 10:15:00 PM 1.16 34.088 0.166 7.45 14.64 13.57
1/15/2023 10:30:00 PM 1.14 34.052 0.166 7.46 14.29 13.56
1/15/2023 10:45:00 PM 1.13 34.034 0.166 7.45 14.15 13.57
1/15/2023 11:00:00 PM 1.11 33.998 0.166 7.45 14.54 13.57
1/15/2023 11:15:00 PM 1.09 33.962 0.166 7.45 14.28 13.58
1/15/2023 11:30:00 PM 1.06 33.908 0.139 7.46 17.36 13.59
1/15/2023 11:45:00 PM 1.04 33.872 0.166 7.45 14.35 13.59
1/16/2023 12:00:00 AM 1.03 33.854 0.166 7.45 14.11 13.59
1/16/2023 12:15:00 AM 1 33.8 0.166 7.45 14.3 13.59
1/16/2023 12:30:00 AM 0.99 33.782 0.166 7.44 14.42 13.6
1/16/2023 12:45:00 AM 0.97 33.746 0.163 7.45 14.77 13.6
1/16/2023 1:00:00 AM 0.95 33.71 0.166 7.45 14.17 13.6
1/16/2023 1:15:00 AM 0.94 33.692 0.166 7.46 14.42 13.6
1/16/2023 1:30:00 AM 0.92 33.656 0.166 7.44 13.99 13.6
1/16/2023 1:45:00 AM 0.91 33.638 0.166 7.45 14.65 13.6
1/16/2023 2:00:00 AM 0.89 33.602 0.166 7.45 17.91 13.61
1/16/2023 2:15:00 AM 0.87 33.566 0.166 7.45 13.77 13.61
1/16/2023 2:30:00 AM 0.86 33.548 0.166 7.45 14.18 13.61
1/16/2023 2:45:00 AM 0.84 33.512 0.166 7.45 13.84 13.62
1/16/2023 3:00:00 AM 0.83 33.494 0.166 7.46 15.21 13.62
1/16/2023 3:15:00 AM 0.81 33.458 0.166 7.44 13.19 13.62
1/16/2023 3:30:00 AM 0.79 33.422 0.166 7.44 14.42 13.63
1/16/2023 3:45:00 AM 0.77 33.386 0.166 7.44 15.39 13.64
1/16/2023 4:00:00 AM 0.75 33.35 0.166 7.44 12.98 13.64
1/16/2023 4:15:00 AM 0.72 33.296 0.166 7.45 13.93 13.64
1/16/2023 4:30:00 AM 0.7 33.26 0.167 7.44 14.28 13.65
1/16/2023 4:45:00 AM 0.68 33.224 0.167 7.44 14.55 13.65
1/16/2023 5:00:00 AM 0.66 33.188 0.167 7.44 13.82 13.66
1/16/2023 5:15:00 AM 0.64 33.152 0.167 7.44 13.31 13.67
1/16/2023 5:30:00 AM 0.62 33.116 0.167 7.45 13.66 13.67
1/16/2023 5:45:00 AM 0.6 33.08 0.167 7.45 12.89 13.67
1/16/2023 6:00:00 AM 0.59 33.062 0.167 7.44 13.89 13.68
1/16/2023 6:15:00 AM 0.57 33.026 0.167 7.44 13.84 13.68
1/16/2023 6:30:00 AM 0.56 33.008 0.167 7.45 13.62 13.69
1/16/2023 6:45:00 AM 0.54 32.972 0.168 7.44 13.57 13.69
1/16/2023 7:00:00 AM 0.53 32.954 0.168 7.45 13.71 13.69
1/16/2023 7:15:00 AM 0.52 32.936 0.168 7.45 14.11 13.69
1/16/2023 7:30:00 AM 0.51 32.918 0.168 7.43 13.66 13.7
1/16/2023 7:45:00 AM 0.5 32.9 0.168